PWSweather.com
Personal Weather Stations
Station Observations
VAJNORY
Vajnory, BratislavaSK 83107

VajnoryBratislavaSK 83107

Lat: 48.208, Lon: 17.202

Elevation: 434

Station Type: MeteoPi by eMeteo.sk

https://emeteo.sk/sk/meteostanica/vajnory

Latest ConditionsUpdated 2:26:01 PM GMT+01:01 Thursday, Nov 14, 2019
Currently Today's Max Today's Min Today's Average
Temperature 47.8°F8.8°C 49.8°F9.9°C 28.8°F-1.8°C 37.7°F3.2°C
Dew Point 43.0°F6.1°C 44.0°F6.7°C 29.0°F-1.7°C 36.0°F2.2°C
Winds 23.1 mph SE37.2 kmh SE 26.5 mph -42.6 kmh - - 21.0 mph 33.8 kmh
Wind Gusts 24.8 mph39.9 kmh 31.4 mph50.5 kmh - -
Humidity 83% 100% 71% 94%
Pressure 29.91 in1012.9 mb 29.96 in1014.6 mb 29.84 in1010.5 mb -
Precipitation - 0.04 in1.0 mm - -
Hour Temp Dew Point Humidity Winds Wind Gusts Pressure Precip Precip Rate Daily Precip Total
02:26 PM 47.8°F8.8°C 43.0°F6.1°C 83% 23.1 mph SE37.2 kmh SE 24.8 mph39.9 kmh 29.91 in1012.9 mb 0.01 in0.3 mm 0.00 in0.0 mm 0.04 in1.0 mm
02:25 PM 48.2°F9.0°C 43.0°F6.1°C 84% 23.1 mph SE37.2 kmh SE 25.1 mph40.4 kmh 29.91 in1012.9 mb 0.01 in0.3 mm 0.00 in0.0 mm 0.04 in1.0 mm
02:24 PM 48.2°F9.0°C 44.0°F6.7°C 84% 23.1 mph SE37.2 kmh SE 25.1 mph40.4 kmh 29.91 in1012.9 mb 0.01 in0.3 mm 0.00 in0.0 mm 0.04 in1.0 mm
02:23 PM 48.6°F9.2°C 43.0°F6.1°C 82% 23.2 mph SE37.3 kmh SE 25.4 mph40.9 kmh 29.91 in1012.9 mb 0.01 in0.3 mm 0.00 in0.0 mm 0.04 in1.0 mm
02:22 PM 48.7°F9.3°C 44.0°F6.7°C 82% 22.2 mph E35.7 kmh E 23.6 mph38.0 kmh 29.91 in1012.9 mb 0.01 in0.3 mm 0.00 in0.0 mm 0.04 in1.0 mm
02:21 PM 48.9°F9.4°C 43.0°F6.1°C 81% 21.5 mph NE34.6 kmh NE 22.4 mph36.0 kmh 29.91 in1012.9 mb 0.01 in0.3 mm 0.00 in0.0 mm 0.04 in1.0 mm
02:20 PM 48.9°F9.4°C 43.0°F6.1°C 81% 21.5 mph NNE34.6 kmh NNE 23.1 mph37.2 kmh 29.91 in1012.9 mb 0.01 in0.3 mm 0.00 in0.0 mm 0.04 in1.0 mm
02:19 PM 48.9°F9.4°C 44.0°F6.7°C 82% 21.9 mph NNE35.2 kmh NNE 23.1 mph37.2 kmh 29.91 in1012.9 mb 0.01 in0.3 mm 0.00 in0.0 mm 0.04 in1.0 mm
02:18 PM 48.7°F9.3°C 43.0°F6.1°C 81% 22.3 mph ENE35.9 kmh ENE 23.8 mph38.3 kmh 29.91 in1012.9 mb 0.01 in0.3 mm 0.00 in0.0 mm 0.04 in1.0 mm
02:17 PM 48.7°F9.3°C 43.0°F6.1°C 82% 22.3 mph ENE35.9 kmh ENE 23.8 mph38.3 kmh 29.91 in1012.9 mb 0.01 in0.3 mm 0.00 in0.0 mm 0.04 in1.0 mm
02:16 PM 48.7°F9.3°C 43.0°F6.1°C 81% 22.6 mph NE36.4 kmh NE 24.4 mph39.3 kmh 29.91 in1012.9 mb 0.01 in0.3 mm 0.00 in0.0 mm 0.04 in1.0 mm
02:15 PM 48.7°F9.3°C 43.0°F6.1°C 80% 21.3 mph ENE34.3 kmh ENE 22.1 mph35.6 kmh 29.91 in1012.9 mb 0.01 in0.3 mm 0.00 in0.0 mm 0.04 in1.0 mm
02:14 PM 48.7°F9.3°C 43.0°F6.1°C 80% 21.8 mph SE35.1 kmh SE 23.0 mph37.0 kmh 29.91 in1012.9 mb 0.01 in0.3 mm 0.00 in0.0 mm 0.04 in1.0 mm
02:13 PM 48.6°F9.2°C 43.0°F6.1°C 82% 22.7 mph ENE36.5 kmh ENE 24.5 mph39.4 kmh 29.91 in1012.9 mb 0.01 in0.3 mm 0.00 in0.0 mm 0.04 in1.0 mm
02:12 PM 48.7°F9.3°C 43.0°F6.1°C 81% 22.6 mph ESE36.4 kmh ESE 24.2 mph38.9 kmh 29.91 in1012.9 mb 0.01 in0.3 mm 0.00 in0.0 mm 0.04 in1.0 mm
02:11 PM 48.7°F9.3°C 43.0°F6.1°C 80% 22.1 mph E35.6 kmh E 23.2 mph37.3 kmh 29.91 in1012.9 mb 0.01 in0.3 mm 0.00 in0.0 mm 0.04 in1.0 mm
02:10 PM 48.7°F9.3°C 43.0°F6.1°C 80% 22.1 mph SE35.6 kmh SE 23.3 mph37.5 kmh 29.91 in1012.9 mb 0.01 in0.3 mm 0.00 in0.0 mm 0.04 in1.0 mm
02:09 PM 49.1°F9.5°C 43.0°F6.1°C 81% 22.1 mph SE35.6 kmh SE 23.3 mph37.5 kmh 29.91 in1012.9 mb 0.01 in0.3 mm 0.00 in0.0 mm 0.04 in1.0 mm
02:08 PM 49.1°F9.5°C 43.0°F6.1°C 79% 21.9 mph SE35.2 kmh SE 23.2 mph37.3 kmh 29.91 in1012.9 mb 0.01 in0.3 mm 0.00 in0.0 mm 0.04 in1.0 mm
02:07 PM 49.1°F9.5°C 43.0°F6.1°C 80% 22.5 mph SE36.2 kmh SE 24.1 mph38.8 kmh 29.91 in1012.9 mb 0.01 in0.3 mm 0.00 in0.0 mm 0.04 in1.0 mm
02:06 PM 49.6°F9.8°C 43.0°F6.1°C 79% 22.1 mph SE35.6 kmh SE 23.3 mph37.5 kmh 29.91 in1012.9 mb 0.01 in0.3 mm 0.00 in0.0 mm 0.04 in1.0 mm
02:05 PM 49.6°F9.8°C 43.0°F6.1°C 78% 21.7 mph SE34.9 kmh SE 22.7 mph36.5 kmh 29.91 in1012.9 mb 0.01 in0.3 mm 0.00 in0.0 mm 0.04 in1.0 mm
02:04 PM 49.6°F9.8°C 44.0°F6.7°C 80% 21.7 mph SE34.9 kmh SE 22.7 mph36.5 kmh 29.91 in1012.9 mb 0.01 in0.3 mm 0.00 in0.0 mm 0.04 in1.0 mm
02:03 PM 49.3°F9.6°C 43.0°F6.1°C 79% 21.2 mph SE34.1 kmh SE 22.0 mph35.4 kmh 29.91 in1012.9 mb 0.01 in0.3 mm 0.00 in0.0 mm 0.04 in1.0 mm
02:02 PM 49.3°F9.6°C 43.0°F6.1°C 79% 21.7 mph SE34.9 kmh SE 22.7 mph36.5 kmh 29.91 in1012.9 mb 0.01 in0.3 mm 0.00 in0.0 mm 0.04 in1.0 mm
02:01 PM 49.3°F9.6°C 43.0°F6.1°C 78% 21.7 mph SE34.9 kmh SE 25.2 mph40.6 kmh 29.91 in1012.9 mb 0.01 in0.3 mm 0.00 in0.0 mm 0.04 in1.0 mm
02:00 PM 49.3°F9.6°C 43.0°F6.1°C 80% 23.0 mph SE37.0 kmh SE 25.1 mph40.4 kmh 29.91 in1012.9 mb 0.01 in0.3 mm 0.00 in0.0 mm 0.04 in1.0 mm
01:59 PM 49.3°F9.6°C 43.0°F6.1°C 80% 23.0 mph SE37.0 kmh SE 25.1 mph40.4 kmh 29.91 in1012.9 mb 0.01 in0.3 mm 0.00 in0.0 mm 0.04 in1.0 mm
01:58 PM 48.9°F9.4°C 43.0°F6.1°C 79% 23.3 mph E37.5 kmh E 25.4 mph40.9 kmh 29.91 in1012.9 mb 0.01 in0.3 mm 0.00 in0.0 mm 0.04 in1.0 mm
01:57 PM 48.9°F9.4°C 43.0°F6.1°C 81% 22.9 mph SE36.9 kmh SE 25.9 mph41.7 kmh 29.91 in1012.9 mb 0.01 in0.3 mm 0.00 in0.0 mm 0.04 in1.0 mm
01:56 PM 48.7°F9.3°C 43.0°F6.1°C 79% 22.1 mph E35.6 kmh E 23.4 mph37.7 kmh 29.91 in1012.9 mb 0.01 in0.3 mm 0.00 in0.0 mm 0.04 in1.0 mm
01:55 PM 48.9°F9.4°C 43.0°F6.1°C 80% 22.1 mph ENE35.6 kmh ENE 23.4 mph37.7 kmh 29.91 in1012.9 mb 0.01 in0.3 mm 0.00 in0.0 mm 0.04 in1.0 mm
01:54 PM 48.7°F9.3°C 43.0°F6.1°C 80% 23.1 mph E37.2 kmh E 25.0 mph40.2 kmh 29.91 in1012.9 mb 0.01 in0.3 mm 0.00 in0.0 mm 0.04 in1.0 mm
01:53 PM 48.6°F9.2°C 42.0°F5.6°C 79% 23.1 mph SE37.2 kmh SE 25.0 mph40.2 kmh 29.91 in1012.9 mb 0.01 in0.3 mm 0.00 in0.0 mm 0.04 in1.0 mm
01:52 PM 48.7°F9.3°C 42.0°F5.6°C 79% 22.1 mph E35.6 kmh E 23.4 mph37.7 kmh 29.91 in1012.9 mb 0.01 in0.3 mm 0.00 in0.0 mm 0.04 in1.0 mm
01:51 PM 49.3°F9.6°C 43.0°F6.1°C 78% 21.9 mph ENE35.2 kmh ENE 23.1 mph37.2 kmh 29.91 in1012.9 mb 0.01 in0.3 mm 0.00 in0.0 mm 0.04 in1.0 mm
01:50 PM 49.3°F9.6°C 43.0°F6.1°C 79% 21.7 mph N34.9 kmh N 24.1 mph38.8 kmh 29.91 in1012.9 mb 0.01 in0.3 mm 0.00 in0.0 mm 0.04 in1.0 mm
01:49 PM 49.1°F9.5°C 43.0°F6.1°C 78% 21.7 mph N34.9 kmh N 24.1 mph38.8 kmh 29.91 in1012.9 mb 0.01 in0.3 mm 0.60 in15.2 mm 0.04 in1.0 mm
01:48 PM 49.1°F9.5°C 43.0°F6.1°C 79% 21.8 mph SE35.1 kmh SE 22.9 mph36.9 kmh 29.91 in1012.9 mb 0.00 in0.0 mm 0.00 in0.0 mm 0.03 in0.8 mm
01:47 PM 49.3°F9.6°C 43.0°F6.1°C 78% 21.8 mph SE35.1 kmh SE 22.9 mph36.9 kmh 29.91 in1012.9 mb 0.00 in0.0 mm 0.00 in0.0 mm 0.03 in0.8 mm
01:46 PM 49.3°F9.6°C 43.0°F6.1°C 78% 22.4 mph E36.0 kmh E 25.3 mph40.7 kmh 29.91 in1012.9 mb 0.00 in0.0 mm 0.00 in0.0 mm 0.03 in0.8 mm
01:45 PM 49.5°F9.7°C 43.0°F6.1°C 78% 21.0 mph NE33.8 kmh NE 21.7 mph34.9 kmh 29.92 in1013.2 mb 0.00 in0.0 mm 0.00 in0.0 mm 0.03 in0.8 mm
01:44 PM 49.6°F9.8°C 43.0°F6.1°C 77% 21.0 mph NE33.8 kmh NE 21.7 mph34.9 kmh 29.92 in1013.2 mb 0.00 in0.0 mm 0.00 in0.0 mm 0.03 in0.8 mm
01:43 PM 49.8°F9.9°C 42.0°F5.6°C 76% 21.7 mph ENE34.9 kmh ENE 23.0 mph37.0 kmh 29.91 in1012.9 mb 0.00 in0.0 mm 0.00 in0.0 mm 0.03 in0.8 mm
01:42 PM 49.8°F9.9°C 42.0°F5.6°C 75% 21.7 mph NE34.9 kmh NE 21.3 mph34.3 kmh 29.91 in1012.9 mb 0.00 in0.0 mm 0.00 in0.0 mm 0.03 in0.8 mm
01:41 PM 49.5°F9.7°C 42.0°F5.6°C 74% 20.8 mph N33.5 kmh N 21.2 mph34.1 kmh 29.91 in1012.9 mb 0.00 in0.0 mm 0.00 in0.0 mm 0.03 in0.8 mm
01:40 PM 48.9°F9.4°C 42.0°F5.6°C 76% 21.6 mph E34.8 kmh E 22.4 mph36.0 kmh 29.92 in1013.2 mb 0.00 in0.0 mm 0.00 in0.0 mm 0.03 in0.8 mm
01:39 PM 48.7°F9.3°C 42.0°F5.6°C 77% 21.6 mph ENE34.8 kmh ENE 23.3 mph37.5 kmh 29.92 in1013.2 mb 0.00 in0.0 mm 0.00 in0.0 mm 0.03 in0.8 mm
01:38 PM 48.6°F9.2°C 42.0°F5.6°C 77% 21.1 mph SE34.0 kmh SE 21.9 mph35.2 kmh 29.92 in1013.2 mb 0.00 in0.0 mm 0.00 in0.0 mm 0.03 in0.8 mm
01:37 PM 48.6°F9.2°C 42.0°F5.6°C 77% 21.8 mph NE35.1 kmh NE 22.8 mph36.7 kmh 29.92 in1013.2 mb 0.00 in0.0 mm 0.00 in0.0 mm 0.03 in0.8 mm
01:36 PM 49.1°F9.5°C 42.0°F5.6°C 77% 22.0 mph NE35.4 kmh NE 23.1 mph37.2 kmh 29.92 in1013.2 mb 0.00 in0.0 mm 0.00 in0.0 mm 0.03 in0.8 mm
01:35 PM 49.3°F9.6°C 42.0°F5.6°C 76% 22.6 mph ESE36.4 kmh ESE 24.3 mph39.1 kmh 29.92 in1013.2 mb 0.00 in0.0 mm 0.00 in0.0 mm 0.03 in0.8 mm
01:34 PM 49.5°F9.7°C 42.0°F5.6°C 76% 22.6 mph ESE36.4 kmh ESE 24.3 mph39.1 kmh 29.92 in1013.2 mb 0.00 in0.0 mm 0.00 in0.0 mm 0.03 in0.8 mm
01:33 PM 49.3°F9.6°C 43.0°F6.1°C 78% 22.8 mph SE36.7 kmh SE 24.8 mph39.9 kmh 29.92 in1013.2 mb 0.00 in0.0 mm 0.00 in0.0 mm 0.03 in0.8 mm
01:32 PM 49.3°F9.6°C 43.0°F6.1°C 78% 21.3 mph ESE34.3 kmh ESE 22.1 mph35.6 kmh 29.92 in1013.2 mb 0.00 in0.0 mm 0.00 in0.0 mm 0.03 in0.8 mm
01:31 PM 48.7°F9.3°C 42.0°F5.6°C 78% 21.3 mph E34.3 kmh E 24.5 mph39.4 kmh 29.92 in1013.2 mb 0.00 in0.0 mm 0.00 in0.0 mm 0.03 in0.8 mm
01:30 PM 48.7°F9.3°C 42.0°F5.6°C 78% 22.7 mph SE36.5 kmh SE 27.2 mph43.8 kmh 29.92 in1013.2 mb 0.00 in0.0 mm 0.00 in0.0 mm 0.03 in0.8 mm
01:29 PM 48.6°F9.2°C 42.0°F5.6°C 79% 23.6 mph SE38.0 kmh SE 27.2 mph43.8 kmh 29.92 in1013.2 mb 0.00 in0.0 mm 0.00 in0.0 mm 0.03 in0.8 mm
01:28 PM 48.6°F9.2°C 42.0°F5.6°C 79% 22.6 mph NE36.4 kmh NE 24.1 mph38.8 kmh 29.92 in1013.2 mb 0.00 in0.0 mm 0.00 in0.0 mm 0.03 in0.8 mm
01:27 PM 48.6°F9.2°C 42.0°F5.6°C 78% 23.2 mph NE37.3 kmh NE 25.2 mph40.6 kmh 29.92 in1013.2 mb 0.00 in0.0 mm 0.00 in0.0 mm 0.03 in0.8 mm
01:26 PM 48.4°F9.1°C 42.0°F5.6°C 78% 22.6 mph ENE36.4 kmh ENE 24.2 mph38.9 kmh 29.92 in1013.2 mb 0.00 in0.0 mm 0.00 in0.0 mm 0.03 in0.8 mm
01:25 PM 48.2°F9.0°C 43.0°F6.1°C 81% 22.6 mph ESE36.4 kmh ESE 23.4 mph37.7 kmh 29.92 in1013.2 mb 0.00 in0.0 mm 0.00 in0.0 mm 0.03 in0.8 mm
01:24 PM 48.2°F9.0°C 43.0°F6.1°C 82% 22.0 mph ENE35.4 kmh ENE 23.4 mph37.7 kmh 29.92 in1013.2 mb 0.00 in0.0 mm 0.00 in0.0 mm 0.03 in0.8 mm
01:23 PM 48.2°F9.0°C 42.0°F5.6°C 79% 22.9 mph NE36.9 kmh NE 25.0 mph40.2 kmh 29.92 in1013.2 mb 0.00 in0.0 mm 0.00 in0.0 mm 0.03 in0.8 mm
01:22 PM 48.0°F8.9°C 42.0°F5.6°C 79% 22.4 mph E36.0 kmh E 24.0 mph38.6 kmh 29.92 in1013.2 mb 0.00 in0.0 mm 0.00 in0.0 mm 0.03 in0.8 mm
01:21 PM 48.0°F8.9°C 42.0°F5.6°C 81% 22.4 mph ESE36.0 kmh ESE 24.0 mph38.6 kmh 29.92 in1013.2 mb 0.00 in0.0 mm 0.00 in0.0 mm 0.03 in0.8 mm
01:20 PM 47.7°F8.7°C 42.0°F5.6°C 81% 22.1 mph ENE35.6 kmh ENE 23.5 mph37.8 kmh 29.92 in1013.2 mb 0.00 in0.0 mm 0.00 in0.0 mm 0.03 in0.8 mm
01:19 PM 47.8°F8.8°C 42.0°F5.6°C 80% 22.1 mph NE35.6 kmh NE 25.5 mph41.0 kmh 29.92 in1013.2 mb 0.00 in0.0 mm 0.00 in0.0 mm 0.03 in0.8 mm
01:18 PM 47.8°F8.8°C 42.0°F5.6°C 81% 22.4 mph ENE36.0 kmh ENE 23.8 mph38.3 kmh 29.92 in1013.2 mb 0.00 in0.0 mm 0.00 in0.0 mm 0.03 in0.8 mm
01:17 PM 47.8°F8.8°C 42.0°F5.6°C 80% 23.4 mph ENE37.7 kmh ENE 25.4 mph40.9 kmh 29.92 in1013.2 mb 0.00 in0.0 mm 0.00 in0.0 mm 0.03 in0.8 mm
01:16 PM 48.7°F9.3°C 42.0°F5.6°C 79% 22.1 mph ENE35.6 kmh ENE 23.3 mph37.5 kmh 29.92 in1013.2 mb 0.00 in0.0 mm 0.00 in0.0 mm 0.03 in0.8 mm
01:15 PM 48.7°F9.3°C 43.0°F6.1°C 81% 22.1 mph ESE35.6 kmh ESE 23.3 mph37.5 kmh 29.92 in1013.2 mb 0.00 in0.0 mm 0.00 in0.0 mm 0.03 in0.8 mm
01:14 PM 48.6°F9.2°C 42.0°F5.6°C 79% 21.5 mph ENE34.6 kmh ENE 22.5 mph36.2 kmh 29.92 in1013.2 mb 0.00 in0.0 mm 0.00 in0.0 mm 0.03 in0.8 mm
01:13 PM 48.7°F9.3°C 42.0°F5.6°C 79% 22.9 mph SE36.9 kmh SE 25.3 mph40.7 kmh 29.92 in1013.2 mb 0.00 in0.0 mm 0.00 in0.0 mm 0.03 in0.8 mm
01:12 PM 48.9°F9.4°C 42.0°F5.6°C 78% 22.9 mph E36.9 kmh E 25.9 mph41.7 kmh 29.92 in1013.2 mb 0.00 in0.0 mm 0.00 in0.0 mm 0.03 in0.8 mm
01:11 PM 48.4°F9.1°C 42.0°F5.6°C 80% 23.7 mph ESE38.1 kmh ESE 25.9 mph41.7 kmh 29.92 in1013.2 mb 0.02 in0.5 mm 0.00 in0.0 mm 0.03 in0.8 mm
01:10 PM 48.2°F9.0°C 42.0°F5.6°C 81% 21.5 mph ESE34.6 kmh ESE 22.5 mph36.2 kmh 29.92 in1013.2 mb 0.02 in0.5 mm 0.00 in0.0 mm 0.03 in0.8 mm
01:09 PM 48.0°F8.9°C 42.0°F5.6°C 81% 21.5 mph ENE34.6 kmh ENE 22.1 mph35.6 kmh 29.92 in1013.2 mb 0.02 in0.5 mm 0.00 in0.0 mm 0.03 in0.8 mm
01:08 PM 47.8°F8.8°C 42.0°F5.6°C 81% 22.9 mph ESE36.9 kmh ESE 25.0 mph40.2 kmh 29.92 in1013.2 mb 0.02 in0.5 mm 0.00 in0.0 mm 0.03 in0.8 mm
01:07 PM 47.5°F8.6°C 42.0°F5.6°C 82% 22.5 mph SE36.2 kmh SE 24.6 mph39.6 kmh 29.92 in1013.2 mb 0.02 in0.5 mm 0.00 in0.0 mm 0.03 in0.8 mm
01:06 PM 47.1°F8.4°C 42.0°F5.6°C 83% 22.5 mph SE36.2 kmh SE 22.8 mph36.7 kmh 29.92 in1013.2 mb 0.02 in0.5 mm 0.00 in0.0 mm 0.03 in0.8 mm
01:05 PM 46.9°F8.3°C 42.0°F5.6°C 83% 21.8 mph SE35.1 kmh SE 22.8 mph36.7 kmh 29.92 in1013.2 mb 0.02 in0.5 mm 0.00 in0.0 mm 0.03 in0.8 mm
01:04 PM 46.8°F8.2°C 42.0°F5.6°C 83% 23.4 mph SE37.7 kmh SE 25.6 mph41.2 kmh 29.92 in1013.2 mb 0.02 in0.5 mm 0.00 in0.0 mm 0.03 in0.8 mm
01:03 PM 46.9°F8.3°C 42.0°F5.6°C 83% 23.2 mph E37.3 kmh E 25.3 mph40.7 kmh 29.92 in1013.2 mb 0.02 in0.5 mm 0.00 in0.0 mm 0.03 in0.8 mm
01:02 PM 46.8°F8.2°C 42.0°F5.6°C 84% 22.6 mph SE36.4 kmh SE 24.3 mph39.1 kmh 29.92 in1013.2 mb 0.02 in0.5 mm 0.00 in0.0 mm 0.03 in0.8 mm
01:01 PM 46.9°F8.3°C 42.0°F5.6°C 83% 23.1 mph E37.2 kmh E 25.3 mph40.7 kmh 29.92 in1013.2 mb 0.02 in0.5 mm 0.00 in0.0 mm 0.03 in0.8 mm
01:00 PM 47.1°F8.4°C 42.0°F5.6°C 82% 23.2 mph NE37.3 kmh NE 25.3 mph40.7 kmh 29.92 in1013.2 mb 0.02 in0.5 mm 0.00 in0.0 mm 0.03 in0.8 mm
12:59 PM 47.3°F8.5°C 42.0°F5.6°C 83% 23.2 mph NE37.3 kmh NE 25.3 mph40.7 kmh 29.92 in1013.2 mb 0.02 in0.5 mm 0.00 in0.0 mm 0.03 in0.8 mm
12:58 PM 47.5°F8.6°C 42.0°F5.6°C 81% 22.3 mph NE35.9 kmh NE 23.7 mph38.1 kmh 29.92 in1013.2 mb 0.02 in0.5 mm 0.00 in0.0 mm 0.03 in0.8 mm
12:57 PM 47.7°F8.7°C 43.0°F6.1°C 83% 22.3 mph ESE35.9 kmh ESE 23.7 mph38.1 kmh 29.92 in1013.2 mb 0.02 in0.5 mm 0.00 in0.0 mm 0.03 in0.8 mm
12:56 PM 47.7°F8.7°C 42.0°F5.6°C 81% 23.5 mph E37.8 kmh E 25.8 mph41.5 kmh 29.92 in1013.2 mb 0.02 in0.5 mm 0.00 in0.0 mm 0.03 in0.8 mm
12:55 PM 48.4°F9.1°C 42.0°F5.6°C 79% 23.8 mph E38.3 kmh E 26.1 mph42.0 kmh 29.92 in1013.2 mb 0.02 in0.5 mm 0.00 in0.0 mm 0.03 in0.8 mm
12:54 PM 48.4°F9.1°C 42.0°F5.6°C 80% 23.8 mph E38.3 kmh E 26.1 mph42.0 kmh 29.92 in1013.2 mb 0.02 in0.5 mm 0.00 in0.0 mm 0.03 in0.8 mm
12:53 PM 48.2°F9.0°C 41.0°F5.0°C 78% 22.7 mph SE36.5 kmh SE 24.5 mph39.4 kmh 29.92 in1013.2 mb 0.02 in0.5 mm 0.00 in0.0 mm 0.03 in0.8 mm
12:52 PM 48.0°F8.9°C 41.0°F5.0°C 78% 22.3 mph E35.9 kmh E 22.8 mph36.7 kmh 29.92 in1013.2 mb 0.02 in0.5 mm 0.00 in0.0 mm 0.03 in0.8 mm
12:51 PM 48.0°F8.9°C 42.0°F5.6°C 79% 21.6 mph SE34.8 kmh SE 22.7 mph36.5 kmh 29.92 in1013.2 mb 0.02 in0.5 mm 0.00 in0.0 mm 0.03 in0.8 mm
12:50 PM 47.7°F8.7°C 41.0°F5.0°C 79% 22.3 mph SE35.9 kmh SE 23.6 mph38.0 kmh 29.92 in1013.2 mb 0.02 in0.5 mm 0.00 in0.0 mm 0.03 in0.8 mm
12:49 PM 47.3°F8.5°C 41.0°F5.0°C 80% 22.3 mph SE35.9 kmh SE 23.6 mph38.0 kmh 29.92 in1013.2 mb 0.02 in0.5 mm 0.00 in0.0 mm 0.03 in0.8 mm
12:48 PM 46.9°F8.3°C 42.0°F5.6°C 82% 23.4 mph E37.7 kmh E 25.4 mph40.9 kmh 29.92 in1013.2 mb 0.02 in0.5 mm 0.00 in0.0 mm 0.03 in0.8 mm
12:47 PM 47.1°F8.4°C 42.0°F5.6°C 82% 22.6 mph ENE36.4 kmh ENE 24.4 mph39.3 kmh 29.92 in1013.2 mb 0.02 in0.5 mm 0.00 in0.0 mm 0.03 in0.8 mm
12:46 PM 47.5°F8.6°C 42.0°F5.6°C 82% 22.9 mph ESE36.9 kmh ESE 24.7 mph39.8 kmh 29.92 in1013.2 mb 0.02 in0.5 mm 0.00 in0.0 mm 0.03 in0.8 mm
12:45 PM 47.7°F8.7°C 42.0°F5.6°C 81% 22.0 mph ESE35.4 kmh ESE 23.2 mph37.3 kmh 29.92 in1013.2 mb 0.02 in0.5 mm 0.00 in0.0 mm 0.03 in0.8 mm
12:44 PM 48.2°F9.0°C 42.0°F5.6°C 79% 22.0 mph ESE35.4 kmh ESE 23.2 mph37.3 kmh 29.92 in1013.2 mb 0.02 in0.5 mm 0.00 in0.0 mm 0.03 in0.8 mm
12:43 PM 48.0°F8.9°C 42.0°F5.6°C 79% 22.0 mph ENE35.4 kmh ENE 23.3 mph37.5 kmh 29.92 in1013.2 mb 0.02 in0.5 mm 0.00 in0.0 mm 0.03 in0.8 mm
12:42 PM 48.2°F9.0°C 42.0°F5.6°C 80% 22.0 mph ESE35.4 kmh ESE 24.3 mph39.1 kmh 29.92 in1013.2 mb 0.02 in0.5 mm 0.00 in0.0 mm 0.03 in0.8 mm
12:41 PM 47.5°F8.6°C 42.0°F5.6°C 80% 22.5 mph NE36.2 kmh NE 25.1 mph40.4 kmh 29.92 in1013.2 mb 0.02 in0.5 mm 0.00 in0.0 mm 0.03 in0.8 mm
12:40 PM 47.7°F8.7°C 42.0°F5.6°C 80% 22.5 mph NE36.2 kmh NE 24.2 mph38.9 kmh 29.92 in1013.2 mb 0.02 in0.5 mm 0.00 in0.0 mm 0.03 in0.8 mm
12:39 PM 47.8°F8.8°C 41.0°F5.0°C 77% 22.5 mph NE36.2 kmh NE 24.2 mph38.9 kmh 29.92 in1013.2 mb 0.02 in0.5 mm 0.00 in0.0 mm 0.03 in0.8 mm
12:38 PM 48.0°F8.9°C 42.0°F5.6°C 79% 22.6 mph E36.4 kmh E 24.3 mph39.1 kmh 29.92 in1013.2 mb 0.02 in0.5 mm 0.00 in0.0 mm 0.03 in0.8 mm
12:37 PM 48.2°F9.0°C 42.0°F5.6°C 79% 22.6 mph ENE36.4 kmh ENE 24.3 mph39.1 kmh 29.92 in1013.2 mb 0.02 in0.5 mm 0.00 in0.0 mm 0.03 in0.8 mm
12:36 PM 48.2°F9.0°C 41.0°F5.0°C 77% 23.6 mph SE38.0 kmh SE 26.1 mph42.0 kmh 29.92 in1013.2 mb 0.02 in0.5 mm 0.00 in0.0 mm 0.03 in0.8 mm
12:35 PM 47.8°F8.8°C 41.0°F5.0°C 76% 22.6 mph SE36.4 kmh SE 24.3 mph39.1 kmh 29.92 in1013.2 mb 0.02 in0.5 mm 0.00 in0.0 mm 0.03 in0.8 mm
12:34 PM 47.8°F8.8°C 42.0°F5.6°C 80% 22.6 mph ENE36.4 kmh ENE 24.3 mph39.1 kmh 29.92 in1013.2 mb 0.02 in0.5 mm 0.00 in0.0 mm 0.03 in0.8 mm
12:33 PM 47.3°F8.5°C 41.0°F5.0°C 79% 23.3 mph SE37.5 kmh SE 26.0 mph41.8 kmh 29.92 in1013.2 mb 0.02 in0.5 mm 0.00 in0.0 mm 0.03 in0.8 mm
12:32 PM 47.3°F8.5°C 41.0°F5.0°C 80% 22.4 mph E36.0 kmh E 24.3 mph39.1 kmh 29.92 in1013.2 mb 0.02 in0.5 mm 0.00 in0.0 mm 0.03 in0.8 mm
12:31 PM 47.1°F8.4°C 41.0°F5.0°C 79% 23.5 mph ENE37.8 kmh ENE 25.8 mph41.5 kmh 29.92 in1013.2 mb 0.02 in0.5 mm 0.00 in0.0 mm 0.03 in0.8 mm
12:30 PM 47.3°F8.5°C 41.0°F5.0°C 79% 22.8 mph ENE36.7 kmh ENE 24.6 mph39.6 kmh 29.92 in1013.2 mb 0.02 in0.5 mm 0.00 in0.0 mm 0.03 in0.8 mm
12:29 PM 47.3°F8.5°C 40.0°F4.4°C 77% 22.8 mph ENE36.7 kmh ENE 24.6 mph39.6 kmh 29.92 in1013.2 mb 0.02 in0.5 mm 0.00 in0.0 mm 0.03 in0.8 mm
12:28 PM 47.8°F8.8°C 41.0°F5.0°C 78% 21.5 mph SE34.6 kmh SE 22.4 mph36.0 kmh 29.92 in1013.2 mb 0.02 in0.5 mm 0.00 in0.0 mm 0.03 in0.8 mm
12:27 PM 47.8°F8.8°C 41.0°F5.0°C 77% 21.8 mph E35.1 kmh E 23.1 mph37.2 kmh 29.92 in1013.2 mb 0.02 in0.5 mm 0.00 in0.0 mm 0.03 in0.8 mm
12:26 PM 47.8°F8.8°C 41.0°F5.0°C 77% 21.9 mph E35.2 kmh E 23.2 mph37.3 kmh 29.92 in1013.2 mb 0.02 in0.5 mm 0.00 in0.0 mm 0.03 in0.8 mm
12:25 PM 47.7°F8.7°C 41.0°F5.0°C 79% 22.2 mph ESE35.7 kmh ESE 23.7 mph38.1 kmh 29.92 in1013.2 mb 0.02 in0.5 mm 0.00 in0.0 mm 0.03 in0.8 mm
12:24 PM 47.7°F8.7°C 41.0°F5.0°C 78% 21.9 mph ESE35.2 kmh ESE 23.7 mph38.1 kmh 29.92 in1013.2 mb 0.02 in0.5 mm 0.00 in0.0 mm 0.03 in0.8 mm
12:23 PM 47.5°F8.6°C 41.0°F5.0°C 79% 21.9 mph E35.2 kmh E 23.0 mph37.0 kmh 29.92 in1013.2 mb 0.02 in0.5 mm 0.00 in0.0 mm 0.03 in0.8 mm
12:22 PM 47.5°F8.6°C 41.0°F5.0°C 79% 22.0 mph E35.4 kmh E 23.4 mph37.7 kmh 29.92 in1013.2 mb 0.02 in0.5 mm 0.00 in0.0 mm 0.03 in0.8 mm
12:21 PM 47.3°F8.5°C 41.0°F5.0°C 78% 22.0 mph E35.4 kmh E 23.3 mph37.5 kmh 29.92 in1013.2 mb 0.02 in0.5 mm 0.00 in0.0 mm 0.03 in0.8 mm
12:20 PM 47.5°F8.6°C 41.0°F5.0°C 78% 22.5 mph NE36.2 kmh NE 23.9 mph38.5 kmh 29.92 in1013.2 mb 0.02 in0.5 mm 0.00 in0.0 mm 0.03 in0.8 mm
12:19 PM 47.8°F8.8°C 41.0°F5.0°C 78% 22.5 mph E36.2 kmh E 24.7 mph39.8 kmh 29.92 in1013.2 mb 0.02 in0.5 mm 0.00 in0.0 mm 0.03 in0.8 mm
12:18 PM 47.8°F8.8°C 41.0°F5.0°C 77% 22.8 mph SE36.7 kmh SE 24.5 mph39.4 kmh 29.92 in1013.2 mb 0.02 in0.5 mm 0.00 in0.0 mm 0.03 in0.8 mm
12:17 PM 48.2°F9.0°C 42.0°F5.6°C 78% 23.8 mph E38.3 kmh E 26.7 mph43.0 kmh 29.92 in1013.2 mb 0.02 in0.5 mm 0.00 in0.0 mm 0.03 in0.8 mm
12:16 PM 48.2°F9.0°C 41.0°F5.0°C 77% 23.8 mph ENE38.3 kmh ENE 23.7 mph38.1 kmh 29.92 in1013.2 mb 0.02 in0.5 mm 0.00 in0.0 mm 0.03 in0.8 mm
12:15 PM 48.4°F9.1°C 41.0°F5.0°C 75% 22.2 mph ESE35.7 kmh ESE 23.7 mph38.1 kmh 29.92 in1013.2 mb 0.02 in0.5 mm 0.00 in0.0 mm 0.03 in0.8 mm
12:14 PM 48.2°F9.0°C 41.0°F5.0°C 77% 22.1 mph ESE35.6 kmh ESE 23.4 mph37.7 kmh 29.92 in1013.2 mb 0.02 in0.5 mm 0.00 in0.0 mm 0.03 in0.8 mm
12:13 PM 48.0°F8.9°C 41.0°F5.0°C 76% 22.6 mph SE36.4 kmh SE 24.2 mph38.9 kmh 29.92 in1013.2 mb 0.02 in0.5 mm 1.20 in30.5 mm 0.03 in0.8 mm
12:12 PM 48.0°F8.9°C 41.0°F5.0°C 77% 22.7 mph ENE36.5 kmh ENE 24.2 mph38.9 kmh 29.92 in1013.2 mb 0.00 in0.0 mm 0.00 in0.0 mm 0.01 in0.3 mm
12:11 PM 48.0°F8.9°C 41.0°F5.0°C 76% 22.7 mph E36.5 kmh E 24.4 mph39.3 kmh 29.92 in1013.2 mb 0.00 in0.0 mm 0.00 in0.0 mm 0.01 in0.3 mm
12:10 PM 48.0°F8.9°C 41.0°F5.0°C 76% 23.0 mph SE37.0 kmh SE 25.0 mph40.2 kmh 29.92 in1013.2 mb 0.00 in0.0 mm 0.00 in0.0 mm 0.01 in0.3 mm
12:09 PM 47.7°F8.7°C 40.0°F4.4°C 76% 23.0 mph SE37.0 kmh SE 25.0 mph40.2 kmh 29.92 in1013.2 mb 0.00 in0.0 mm 0.00 in0.0 mm 0.01 in0.3 mm
12:08 PM 47.7°F8.7°C 41.0°F5.0°C 77% 24.4 mph SE39.3 kmh SE 27.5 mph44.3 kmh 29.92 in1013.2 mb 0.00 in0.0 mm 0.00 in0.0 mm 0.01 in0.3 mm
12:07 PM 47.5°F8.6°C 40.0°F4.4°C 76% 26.5 mph SE42.6 kmh SE 31.4 mph50.5 kmh 29.92 in1013.2 mb 0.00 in0.0 mm 0.00 in0.0 mm 0.01 in0.3 mm
12:06 PM 47.8°F8.8°C 40.0°F4.4°C 74% 23.1 mph ESE37.2 kmh ESE 25.4 mph40.9 kmh 29.92 in1013.2 mb 0.00 in0.0 mm 0.00 in0.0 mm 0.01 in0.3 mm
12:05 PM 47.7°F8.7°C 40.0°F4.4°C 74% 22.6 mph ENE36.4 kmh ENE 24.5 mph39.4 kmh 29.92 in1013.2 mb 0.00 in0.0 mm 0.00 in0.0 mm 0.01 in0.3 mm
12:04 PM 47.8°F8.8°C 39.0°F3.9°C 73% 22.6 mph E36.4 kmh E 23.3 mph37.5 kmh 29.92 in1013.2 mb 0.00 in0.0 mm 0.00 in0.0 mm 0.01 in0.3 mm
12:03 PM 47.8°F8.8°C 40.0°F4.4°C 73% 23.6 mph SE38.0 kmh SE 25.9 mph41.7 kmh 29.92 in1013.2 mb 0.00 in0.0 mm 0.00 in0.0 mm 0.01 in0.3 mm
12:02 PM 48.0°F8.9°C 40.0°F4.4°C 73% 24.8 mph SE39.9 kmh SE 27.8 mph44.7 kmh 29.92 in1013.2 mb 0.00 in0.0 mm 0.00 in0.0 mm 0.01 in0.3 mm
12:01 PM 48.6°F9.2°C 40.0°F4.4°C 73% 26.3 mph SE42.3 kmh SE 30.4 mph48.9 kmh 29.92 in1013.2 mb 0.00 in0.0 mm 0.00 in0.0 mm 0.01 in0.3 mm
12:00 PM 48.7°F9.3°C 40.0°F4.4°C 71% 21.8 mph SE35.1 kmh SE 23.2 mph37.3 kmh 29.92 in1013.2 mb 0.00 in0.0 mm 0.00 in0.0 mm 0.01 in0.3 mm
11:59 AM 48.6°F9.2°C 42.0°F5.6°C 77% 21.8 mph E35.1 kmh E 23.2 mph37.3 kmh 29.92 in1013.2 mb 0.00 in0.0 mm 0.00 in0.0 mm 0.01 in0.3 mm
11:58 AM 48.0°F8.9°C 41.0°F5.0°C 76% 20.6 mph NE33.2 kmh NE 21.0 mph33.8 kmh 29.92 in1013.2 mb 0.00 in0.0 mm 0.00 in0.0 mm 0.01 in0.3 mm
11:57 AM 47.8°F8.8°C 41.0°F5.0°C 76% 20.6 mph SE33.2 kmh SE 23.1 mph37.2 kmh 29.92 in1013.2 mb 0.00 in0.0 mm 0.00 in0.0 mm 0.01 in0.3 mm
11:56 AM 47.8°F8.8°C 41.0°F5.0°C 77% 22.4 mph E36.0 kmh E 24.0 mph38.6 kmh 29.92 in1013.2 mb 0.00 in0.0 mm 0.00 in0.0 mm 0.01 in0.3 mm
11:55 AM 47.8°F8.8°C 42.0°F5.6°C 79% 21.9 mph SE35.2 kmh SE 23.0 mph37.0 kmh 29.92 in1013.2 mb 0.00 in0.0 mm 0.00 in0.0 mm 0.01 in0.3 mm
11:54 AM 48.0°F8.9°C 41.0°F5.0°C 76% 21.9 mph SE35.2 kmh SE 23.0 mph37.0 kmh 29.92 in1013.2 mb 0.00 in0.0 mm 0.00 in0.0 mm 0.01 in0.3 mm
11:53 AM 48.0°F8.9°C 40.0°F4.4°C 75% 21.5 mph SE34.6 kmh SE 22.3 mph35.9 kmh 29.92 in1013.2 mb 0.00 in0.0 mm 0.00 in0.0 mm 0.01 in0.3 mm
11:52 AM 47.7°F8.7°C 40.0°F4.4°C 76% 21.1 mph SE34.0 kmh SE 21.9 mph35.2 kmh 29.92 in1013.2 mb 0.00 in0.0 mm 0.00 in0.0 mm 0.01 in0.3 mm
11:51 AM 47.7°F8.7°C 40.0°F4.4°C 74% 22.7 mph E36.5 kmh E 24.4 mph39.3 kmh 29.92 in1013.2 mb 0.00 in0.0 mm 0.00 in0.0 mm 0.01 in0.3 mm
11:50 AM 47.3°F8.5°C 39.0°F3.9°C 74% 21.5 mph E34.6 kmh E 22.6 mph36.4 kmh 29.92 in1013.2 mb 0.00 in0.0 mm 0.00 in0.0 mm 0.01 in0.3 mm
11:49 AM 47.1°F8.4°C 40.0°F4.4°C 76% 21.5 mph E34.6 kmh E 22.6 mph36.4 kmh 29.92 in1013.2 mb 0.00 in0.0 mm 0.00 in0.0 mm 0.01 in0.3 mm
11:48 AM 47.1°F8.4°C 40.0°F4.4°C 75% 22.0 mph NE35.4 kmh NE 23.3 mph37.5 kmh 29.92 in1013.2 mb 0.00 in0.0 mm 0.00 in0.0 mm 0.01 in0.3 mm
11:47 AM 47.3°F8.5°C 41.0°F5.0°C 78% 22.0 mph ENE35.4 kmh ENE 24.1 mph38.8 kmh 29.92 in1013.2 mb 0.00 in0.0 mm 0.00 in0.0 mm 0.01 in0.3 mm
11:46 AM 47.3°F8.5°C 40.0°F4.4°C 77% 22.5 mph NE36.2 kmh NE 24.2 mph38.9 kmh 29.92 in1013.2 mb 0.00 in0.0 mm 0.00 in0.0 mm 0.01 in0.3 mm
11:45 AM 47.3°F8.5°C 40.0°F4.4°C 77% 21.9 mph NE35.2 kmh NE 23.1 mph37.2 kmh 29.92 in1013.2 mb 0.00 in0.0 mm 0.00 in0.0 mm 0.01 in0.3 mm
11:44 AM 47.3°F8.5°C 40.0°F4.4°C 76% 21.9 mph NNE35.2 kmh NNE 23.1 mph37.2 kmh 29.92 in1013.2 mb 0.00 in0.0 mm 0.00 in0.0 mm 0.01 in0.3 mm
11:43 AM 47.7°F8.7°C 41.0°F5.0°C 78% 23.2 mph NNE37.3 kmh NNE 25.4 mph40.9 kmh 29.92 in1013.2 mb 0.00 in0.0 mm 0.00 in0.0 mm 0.01 in0.3 mm
11:42 AM 47.3°F8.5°C 41.0°F5.0°C 79% 22.1 mph NE35.6 kmh NE 23.5 mph37.8 kmh 29.92 in1013.2 mb 0.00 in0.0 mm 0.00 in0.0 mm 0.01 in0.3 mm
11:41 AM 47.3°F8.5°C 41.0°F5.0°C 80% 21.5 mph NE34.6 kmh NE 22.4 mph36.0 kmh 29.92 in1013.2 mb 0.00 in0.0 mm 0.00 in0.0 mm 0.01 in0.3 mm
11:40 AM 47.3°F8.5°C 42.0°F5.6°C 81% 21.7 mph ENE34.9 kmh ENE 22.7 mph36.5 kmh 29.92 in1013.2 mb 0.00 in0.0 mm 0.00 in0.0 mm 0.01 in0.3 mm
11:39 AM 47.5°F8.6°C 41.0°F5.0°C 79% 22.3 mph NNE35.9 kmh NNE 23.8 mph38.3 kmh 29.92 in1013.2 mb 0.00 in0.0 mm 0.00 in0.0 mm 0.01 in0.3 mm
11:38 AM 47.3°F8.5°C 41.0°F5.0°C 79% 21.7 mph 34.9 kmh 22.8 mph36.7 kmh 29.92 in1013.2 mb 0.00 in0.0 mm 0.00 in0.0 mm 0.01 in0.3 mm
11:37 AM 47.1°F8.4°C 42.0°F5.6°C 83% 21.4 mph ENE34.4 kmh ENE 22.3 mph35.9 kmh 29.92 in1013.2 mb 0.00 in0.0 mm 0.00 in0.0 mm 0.01 in0.3 mm
11:36 AM 47.1°F8.4°C 42.0°F5.6°C 81% 21.3 mph E34.3 kmh E 22.1 mph35.6 kmh 29.92 in1013.2 mb 0.00 in0.0 mm 0.00 in0.0 mm 0.01 in0.3 mm
11:35 AM 47.3°F8.5°C 42.0°F5.6°C 81% 21.9 mph NE35.2 kmh NE 23.0 mph37.0 kmh 29.92 in1013.2 mb 0.00 in0.0 mm 0.00 in0.0 mm 0.01 in0.3 mm
11:34 AM 47.3°F8.5°C 42.0°F5.6°C 80% 21.7 mph E34.9 kmh E 22.8 mph36.7 kmh 29.92 in1013.2 mb 0.00 in0.0 mm 0.00 in0.0 mm 0.01 in0.3 mm
11:33 AM 46.9°F8.3°C 41.0°F5.0°C 81% 22.8 mph ENE36.7 kmh ENE 24.5 mph39.4 kmh 29.92 in1013.2 mb 0.00 in0.0 mm 0.00 in0.0 mm 0.01 in0.3 mm
11:32 AM 46.9°F8.3°C 42.0°F5.6°C 82% 21.7 mph ENE34.9 kmh ENE 23.1 mph37.2 kmh 29.92 in1013.2 mb 0.00 in0.0 mm 0.00 in0.0 mm 0.01 in0.3 mm
11:31 AM 46.8°F8.2°C 41.0°F5.0°C 82% 21.4 mph NE34.4 kmh NE 22.4 mph36.0 kmh 29.92 in1013.2 mb 0.00 in0.0 mm 0.00 in0.0 mm 0.01 in0.3 mm
11:30 AM 46.8°F8.2°C 42.0°F5.6°C 84% 20.5 mph NNE33.0 kmh NNE 20.8 mph33.5 kmh 29.92 in1013.2 mb 0.00 in0.0 mm 0.00 in0.0 mm 0.01 in0.3 mm
11:29 AM 46.4°F8.0°C 42.0°F5.6°C 84% 20.5 mph NNE33.0 kmh NNE 20.8 mph33.5 kmh 29.92 in1013.2 mb 0.00 in0.0 mm 0.00 in0.0 mm 0.01 in0.3 mm
11:28 AM 46.2°F7.9°C 40.0°F4.4°C 81% 20.7 mph E33.3 kmh E 21.1 mph34.0 kmh 29.93 in1013.5 mb 0.00 in0.0 mm 0.00 in0.0 mm 0.01 in0.3 mm
11:27 AM 46.0°F7.8°C 41.0°F5.0°C 81% 21.4 mph NE34.4 kmh NE 22.3 mph35.9 kmh 29.93 in1013.5 mb 0.00 in0.0 mm 0.00 in0.0 mm 0.01 in0.3 mm
11:26 AM 46.2°F7.9°C 41.0°F5.0°C 83% 21.4 mph SE34.4 kmh SE 22.9 mph36.9 kmh 29.93 in1013.5 mb 0.00 in0.0 mm 0.00 in0.0 mm 0.01 in0.3 mm
11:25 AM 46.4°F8.0°C 40.0°F4.4°C 80% 21.8 mph E35.1 kmh E 22.5 mph36.2 kmh 29.93 in1013.5 mb 0.00 in0.0 mm 0.00 in0.0 mm 0.01 in0.3 mm
11:24 AM 46.8°F8.2°C 41.0°F5.0°C 81% 21.6 mph E34.8 kmh E 22.8 mph36.7 kmh 29.92 in1013.2 mb 0.00 in0.0 mm 0.00 in0.0 mm 0.01 in0.3 mm
11:23 AM 46.8°F8.2°C 42.0°F5.6°C 84% 21.7 mph NE34.9 kmh NE 22.8 mph36.7 kmh 29.93 in1013.5 mb 0.00 in0.0 mm 0.00 in0.0 mm 0.01 in0.3 mm
11:22 AM 46.2°F7.9°C 42.0°F5.6°C 86% 21.8 mph NNE35.1 kmh NNE 22.8 mph36.7 kmh 29.93 in1013.5 mb 0.00 in0.0 mm 0.00 in0.0 mm 0.01 in0.3 mm
11:21 AM 46.2°F7.9°C 41.0°F5.0°C 83% 21.7 mph NE34.9 kmh NE 22.7 mph36.5 kmh 29.93 in1013.5 mb 0.00 in0.0 mm 0.00 in0.0 mm 0.01 in0.3 mm
11:20 AM 46.2°F7.9°C 41.0°F5.0°C 83% 21.3 mph 34.3 kmh 22.2 mph35.7 kmh 29.93 in1013.5 mb 0.00 in0.0 mm 0.00 in0.0 mm 0.01 in0.3 mm
11:19 AM 45.9°F7.7°C 42.0°F5.6°C 86% 21.3 mph 34.3 kmh 22.2 mph35.7 kmh 29.93 in1013.5 mb 0.00 in0.0 mm 0.00 in0.0 mm 0.01 in0.3 mm
11:18 AM 45.5°F7.5°C 42.0°F5.6°C 86% 22.4 mph NNE36.0 kmh NNE 23.8 mph38.3 kmh 29.93 in1013.5 mb 0.00 in0.0 mm 0.00 in0.0 mm 0.01 in0.3 mm
11:17 AM 45.0°F7.2°C 41.0°F5.0°C 86% 22.4 mph E36.0 kmh E 23.8 mph38.3 kmh 29.93 in1013.5 mb 0.00 in0.0 mm 0.00 in0.0 mm 0.01 in0.3 mm
11:16 AM 45.1°F7.3°C 41.0°F5.0°C 86% 21.8 mph NE35.1 kmh NE 23.0 mph37.0 kmh 29.93 in1013.5 mb 0.00 in0.0 mm 0.00 in0.0 mm 0.01 in0.3 mm
11:15 AM 44.8°F7.1°C 41.0°F5.0°C 86% 21.7 mph NE34.9 kmh NE 22.6 mph36.4 kmh 29.93 in1013.5 mb 0.00 in0.0 mm 0.00 in0.0 mm 0.01 in0.3 mm
11:14 AM 45.3°F7.4°C 41.0°F5.0°C 85% 21.7 mph ENE34.9 kmh ENE 23.7 mph38.1 kmh 29.93 in1013.5 mb 0.00 in0.0 mm 0.00 in0.0 mm 0.01 in0.3 mm
11:13 AM 45.3°F7.4°C 42.0°F5.6°C 87% 21.5 mph 34.6 kmh 22.4 mph36.0 kmh 29.93 in1013.5 mb 0.00 in0.0 mm 0.00 in0.0 mm 0.01 in0.3 mm
11:12 AM 45.0°F7.2°C 41.0°F5.0°C 87% 21.6 mph ENE34.8 kmh ENE 22.7 mph36.5 kmh 29.94 in1013.9 mb 0.00 in0.0 mm 0.00 in0.0 mm 0.01 in0.3 mm
11:11 AM 44.6°F7.0°C 42.0°F5.6°C 89% 21.9 mph NNE35.2 kmh NNE 23.2 mph37.3 kmh 29.94 in1013.9 mb 0.00 in0.0 mm 0.00 in0.0 mm 0.01 in0.3 mm
11:10 AM 44.6°F7.0°C 41.0°F5.0°C 88% 22.6 mph NNE36.4 kmh NNE 24.5 mph39.4 kmh 29.94 in1013.9 mb 0.00 in0.0 mm 0.00 in0.0 mm 0.01 in0.3 mm
11:09 AM 45.3°F7.4°C 42.0°F5.6°C 87% 22.6 mph NNE36.4 kmh NNE 24.5 mph39.4 kmh 29.94 in1013.9 mb 0.00 in0.0 mm 0.00 in0.0 mm 0.01 in0.3 mm
11:08 AM 45.3°F7.4°C 41.0°F5.0°C 86% 22.4 mph NE36.0 kmh NE 24.3 mph39.1 kmh 29.94 in1013.9 mb 0.00 in0.0 mm 0.00 in0.0 mm 0.01 in0.3 mm
11:07 AM 45.5°F7.5°C 41.0°F5.0°C 85% 23.0 mph NNE37.0 kmh NNE 25.0 mph40.2 kmh 29.94 in1013.9 mb 0.00 in0.0 mm 0.00 in0.0 mm 0.01 in0.3 mm
11:06 AM 45.7°F7.6°C 42.0°F5.6°C 86% 22.9 mph NE36.9 kmh NE 24.9 mph40.1 kmh 29.94 in1013.9 mb 0.00 in0.0 mm 0.00 in0.0 mm 0.01 in0.3 mm
11:05 AM 45.7°F7.6°C 41.0°F5.0°C 85% 22.1 mph NNE35.6 kmh NNE 23.4 mph37.7 kmh 29.94 in1013.9 mb 0.00 in0.0 mm 0.00 in0.0 mm 0.01 in0.3 mm
11:04 AM 45.9°F7.7°C 42.0°F5.6°C 86% 22.1 mph NNE35.6 kmh NNE 23.4 mph37.7 kmh 29.94 in1013.9 mb 0.00 in0.0 mm 0.00 in0.0 mm 0.01 in0.3 mm
11:03 AM 45.5°F7.5°C 43.0°F6.1°C 91% 22.4 mph N36.0 kmh N 24.2 mph38.9 kmh 29.94 in1013.9 mb 0.00 in0.0 mm 0.00 in0.0 mm 0.01 in0.3 mm
11:02 AM 45.9°F7.7°C 42.0°F5.6°C 85% 21.4 mph E34.4 kmh E 22.3 mph35.9 kmh 29.94 in1013.9 mb 0.00 in0.0 mm 0.00 in0.0 mm 0.01 in0.3 mm
11:01 AM 45.7°F7.6°C 42.0°F5.6°C 87% 21.4 mph SE34.4 kmh SE 22.3 mph35.9 kmh 29.94 in1013.9 mb 0.00 in0.0 mm 0.00 in0.0 mm 0.01 in0.3 mm
11:00 AM 45.7°F7.6°C 43.0°F6.1°C 89% 21.5 mph NE34.6 kmh NE 22.5 mph36.2 kmh 29.94 in1013.9 mb 0.00 in0.0 mm 0.00 in0.0 mm 0.01 in0.3 mm
10:59 AM 45.7°F7.6°C 43.0°F6.1°C 90% 21.4 mph NNE34.4 kmh NNE 22.2 mph35.7 kmh 29.94 in1013.9 mb 0.00 in0.0 mm 0.00 in0.0 mm 0.01 in0.3 mm
10:58 AM 45.3°F7.4°C 42.0°F5.6°C 88% 22.2 mph E35.7 kmh E 23.7 mph38.1 kmh 29.94 in1013.9 mb 0.00 in0.0 mm 0.00 in0.0 mm 0.01 in0.3 mm
10:57 AM 45.3°F7.4°C 42.0°F5.6°C 88% 21.7 mph ESE34.9 kmh ESE 22.9 mph36.9 kmh 29.94 in1013.9 mb 0.00 in0.0 mm 0.00 in0.0 mm 0.01 in0.3 mm
10:56 AM 45.5°F7.5°C 42.0°F5.6°C 89% 21.2 mph ENE34.1 kmh ENE 22.0 mph35.4 kmh 29.94 in1013.9 mb 0.00 in0.0 mm 0.00 in0.0 mm 0.01 in0.3 mm
10:55 AM 45.5°F7.5°C 42.0°F5.6°C 87% 21.7 mph E34.9 kmh E 22.7 mph36.5 kmh 29.94 in1013.9 mb 0.00 in0.0 mm 0.00 in0.0 mm 0.01 in0.3 mm
10:54 AM 45.5°F7.5°C 42.0°F5.6°C 87% 21.7 mph E34.9 kmh E 22.7 mph36.5 kmh 29.94 in1013.9 mb 0.00 in0.0 mm 0.00 in0.0 mm 0.01 in0.3 mm
10:53 AM 45.1°F7.3°C 41.0°F5.0°C 87% 22.5 mph E36.2 kmh E 24.1 mph38.8 kmh 29.94 in1013.9 mb 0.00 in0.0 mm 0.00 in0.0 mm 0.01 in0.3 mm
10:52 AM 45.1°F7.3°C 42.0°F5.6°C 90% 21.8 mph ENE35.1 kmh ENE 22.9 mph36.9 kmh 29.94 in1013.9 mb 0.00 in0.0 mm 0.00 in0.0 mm 0.01 in0.3 mm
10:51 AM 44.8°F7.1°C 42.0°F5.6°C 89% 22.1 mph ESE35.6 kmh ESE 23.3 mph37.5 kmh 29.94 in1013.9 mb 0.00 in0.0 mm 0.00 in0.0 mm 0.01 in0.3 mm
10:50 AM 44.8°F7.1°C 41.0°F5.0°C 88% 22.1 mph SE35.6 kmh SE 27.1 mph43.6 kmh 29.94 in1013.9 mb 0.00 in0.0 mm 0.00 in0.0 mm 0.01 in0.3 mm
10:49 AM 44.4°F6.9°C 41.0°F5.0°C 88% 22.9 mph SSE36.9 kmh SSE 24.9 mph40.1 kmh 29.94 in1013.9 mb 0.00 in0.0 mm 0.00 in0.0 mm 0.01 in0.3 mm
10:48 AM 44.4°F6.9°C 42.0°F5.6°C 90% 22.7 mph NE36.5 kmh NE 24.3 mph39.1 kmh 29.94 in1013.9 mb 0.00 in0.0 mm 0.00 in0.0 mm 0.01 in0.3 mm
10:47 AM 44.4°F6.9°C 42.0°F5.6°C 91% 22.1 mph ESE35.6 kmh ESE 23.5 mph37.8 kmh 29.94 in1013.9 mb 0.00 in0.0 mm 0.00 in0.0 mm 0.01 in0.3 mm
10:46 AM 44.6°F7.0°C 42.0°F5.6°C 90% 21.7 mph SE34.9 kmh SE 22.6 mph36.4 kmh 29.95 in1014.2 mb 0.00 in0.0 mm 0.00 in0.0 mm 0.01 in0.3 mm
10:45 AM 43.9°F6.6°C 41.0°F5.0°C 90% 22.6 mph ESE36.4 kmh ESE 24.2 mph38.9 kmh 29.95 in1014.2 mb 0.00 in0.0 mm 0.00 in0.0 mm 0.01 in0.3 mm
10:44 AM 43.7°F6.5°C 41.0°F5.0°C 89% 22.6 mph ESE36.4 kmh ESE 24.2 mph38.9 kmh 29.95 in1014.2 mb 0.00 in0.0 mm 0.00 in0.0 mm 0.01 in0.3 mm
10:43 AM 43.7°F6.5°C 41.0°F5.0°C 89% 22.4 mph NE36.0 kmh NE 23.9 mph38.5 kmh 29.95 in1014.2 mb 0.00 in0.0 mm 0.00 in0.0 mm 0.01 in0.3 mm
10:42 AM 43.5°F6.4°C 41.0°F5.0°C 91% 21.3 mph E34.3 kmh E 22.1 mph35.6 kmh 29.95 in1014.2 mb 0.00 in0.0 mm 0.00 in0.0 mm 0.01 in0.3 mm
10:41 AM 43.3°F6.3°C 41.0°F5.0°C 91% 21.7 mph NE34.9 kmh NE 22.7 mph36.5 kmh 29.95 in1014.2 mb 0.00 in0.0 mm 0.00 in0.0 mm 0.01 in0.3 mm
10:40 AM 43.3°F6.3°C 40.0°F4.4°C 90% 21.9 mph E35.2 kmh E 23.2 mph37.3 kmh 29.95 in1014.2 mb 0.00 in0.0 mm 0.00 in0.0 mm 0.01 in0.3 mm
10:39 AM 43.5°F6.4°C 41.0°F5.0°C 92% 21.9 mph E35.2 kmh E 23.2 mph37.3 kmh 29.95 in1014.2 mb 0.00 in0.0 mm 0.00 in0.0 mm 0.01 in0.3 mm
10:38 AM 43.9°F6.6°C 41.0°F5.0°C 88% 21.2 mph ESE34.1 kmh ESE 22.0 mph35.4 kmh 29.95 in1014.2 mb 0.00 in0.0 mm 0.00 in0.0 mm 0.01 in0.3 mm
10:37 AM 43.7°F6.5°C 40.0°F4.4°C 89% 21.9 mph ESE35.2 kmh ESE 23.0 mph37.0 kmh 29.95 in1014.2 mb 0.00 in0.0 mm 0.00 in0.0 mm 0.01 in0.3 mm
10:36 AM 43.7°F6.5°C 41.0°F5.0°C 89% 21.3 mph NE34.3 kmh NE 22.2 mph35.7 kmh 29.95 in1014.2 mb 0.00 in0.0 mm 0.00 in0.0 mm 0.01 in0.3 mm
10:35 AM 43.7°F6.5°C 41.0°F5.0°C 89% 21.1 mph NNE34.0 kmh NNE 21.8 mph35.1 kmh 29.95 in1014.2 mb 0.00 in0.0 mm 0.00 in0.0 mm 0.01 in0.3 mm
10:34 AM 44.1°F6.7°C 41.0°F5.0°C 89% 21.1 mph NE34.0 kmh NE 22.6 mph36.4 kmh 29.95 in1014.2 mb 0.00 in0.0 mm 0.00 in0.0 mm 0.01 in0.3 mm
10:33 AM 44.2°F6.8°C 41.0°F5.0°C 89% 21.0 mph ENE33.8 kmh ENE 21.7 mph34.9 kmh 29.95 in1014.2 mb 0.00 in0.0 mm 0.00 in0.0 mm 0.01 in0.3 mm
10:32 AM 43.5°F6.4°C 40.0°F4.4°C 88% 21.3 mph NE34.3 kmh NE 22.1 mph35.6 kmh 29.95 in1014.2 mb 0.00 in0.0 mm 0.00 in0.0 mm 0.01 in0.3 mm
10:31 AM 43.5°F6.4°C 41.0°F5.0°C 90% 21.5 mph 34.6 kmh 22.3 mph35.9 kmh 29.95 in1014.2 mb 0.00 in0.0 mm 0.00 in0.0 mm 0.01 in0.3 mm
10:30 AM 43.3°F6.3°C 41.0°F5.0°C 92% 21.1 mph NE34.0 kmh NE 21.9 mph35.2 kmh 29.95 in1014.2 mb 0.00 in0.0 mm 0.00 in0.0 mm 0.01 in0.3 mm
10:29 AM 44.2°F6.8°C 41.0°F5.0°C 88% 21.1 mph NE34.0 kmh NE 21.9 mph35.2 kmh 29.95 in1014.2 mb 0.00 in0.0 mm 0.00 in0.0 mm 0.01 in0.3 mm
10:28 AM 44.2°F6.8°C 42.0°F5.6°C 91% 21.6 mph NE34.8 kmh NE 22.5 mph36.2 kmh 29.95 in1014.2 mb 0.00 in0.0 mm 0.00 in0.0 mm 0.01 in0.3 mm
10:27 AM 44.2°F6.8°C 41.0°F5.0°C 89% 21.5 mph ENE34.6 kmh ENE 22.5 mph36.2 kmh 29.95 in1014.2 mb 0.00 in0.0 mm 0.00 in0.0 mm 0.01 in0.3 mm
10:26 AM 44.1°F6.7°C 41.0°F5.0°C 90% 21.6 mph NE34.8 kmh NE 22.7 mph36.5 kmh 29.95 in1014.2 mb 0.00 in0.0 mm 0.00 in0.0 mm 0.01 in0.3 mm
10:25 AM 44.1°F6.7°C 41.0°F5.0°C 90% 21.1 mph ENE34.0 kmh ENE 21.7 mph34.9 kmh 29.95 in1014.2 mb 0.00 in0.0 mm 0.00 in0.0 mm 0.01 in0.3 mm
10:24 AM 44.1°F6.7°C 41.0°F5.0°C 89% 21.1 mph NE34.0 kmh NE 21.7 mph34.9 kmh 29.95 in1014.2 mb 0.00 in0.0 mm 0.00 in0.0 mm 0.01 in0.3 mm
10:23 AM 43.9°F6.6°C 41.0°F5.0°C 89% 23.2 mph NE37.3 kmh NE 25.1 mph40.4 kmh 29.95 in1014.2 mb 0.00 in0.0 mm 0.00 in0.0 mm 0.01 in0.3 mm
10:22 AM 43.9°F6.6°C 41.0°F5.0°C 89% 21.5 mph NE34.6 kmh NE 22.4 mph36.0 kmh 29.95 in1014.2 mb 0.00 in0.0 mm 0.00 in0.0 mm 0.01 in0.3 mm
10:21 AM 44.1°F6.7°C 41.0°F5.0°C 89% 22.6 mph 36.4 kmh 24.3 mph39.1 kmh 29.95 in1014.2 mb 0.00 in0.0 mm 0.00 in0.0 mm 0.01 in0.3 mm
10:20 AM 43.9°F6.6°C 41.0°F5.0°C 91% 21.2 mph NE34.1 kmh NE 21.9 mph35.2 kmh 29.95 in1014.2 mb 0.00 in0.0 mm 0.00 in0.0 mm 0.01 in0.3 mm
10:19 AM 43.7°F6.5°C 41.0°F5.0°C 92% 21.2 mph NE34.1 kmh NE 21.9 mph35.2 kmh 29.95 in1014.2 mb 0.00 in0.0 mm 0.00 in0.0 mm 0.01 in0.3 mm
10:18 AM 43.7°F6.5°C 41.0°F5.0°C 89% 21.8 mph SE35.1 kmh SE 23.0 mph37.0 kmh 29.95 in1014.2 mb 0.00 in0.0 mm 0.00 in0.0 mm 0.01 in0.3 mm
10:17 AM 43.9°F6.6°C 41.0°F5.0°C 88% 21.6 mph SE34.8 kmh SE 22.5 mph36.2 kmh 29.96 in1014.6 mb 0.00 in0.0 mm 0.00 in0.0 mm 0.01 in0.3 mm
10:16 AM 43.9°F6.6°C 41.0°F5.0°C 89% 21.5 mph E34.6 kmh E 22.3 mph35.9 kmh 29.96 in1014.6 mb 0.00 in0.0 mm 0.00 in0.0 mm 0.01 in0.3 mm
10:15 AM 43.9°F6.6°C 41.0°F5.0°C 91% 21.5 mph NNE34.6 kmh NNE 22.3 mph35.9 kmh 29.96 in1014.6 mb 0.00 in0.0 mm 0.00 in0.0 mm 0.01 in0.3 mm
10:14 AM 43.9°F6.6°C 41.0°F5.0°C 91% 22.1 mph ENE35.6 kmh ENE 23.4 mph37.7 kmh 29.96 in1014.6 mb 0.00 in0.0 mm 0.00 in0.0 mm 0.01 in0.3 mm
10:13 AM 44.1°F6.7°C 42.0°F5.6°C 91% 22.1 mph ESE35.6 kmh ESE 22.7 mph36.5 kmh 29.96 in1014.6 mb 0.00 in0.0 mm 0.00 in0.0 mm 0.01 in0.3 mm
10:12 AM 44.1°F6.7°C 41.0°F5.0°C 91% 21.1 mph SE34.0 kmh SE 21.9 mph35.2 kmh 29.96 in1014.6 mb 0.00 in0.0 mm 0.00 in0.0 mm 0.01 in0.3 mm
10:11 AM 43.9°F6.6°C 41.0°F5.0°C 88% 21.6 mph SE34.8 kmh SE 22.6 mph36.4 kmh 29.95 in1014.2 mb 0.00 in0.0 mm 0.00 in0.0 mm 0.01 in0.3 mm
10:10 AM 43.9°F6.6°C 42.0°F5.6°C 93% 20.8 mph SE33.5 kmh SE 21.2 mph34.1 kmh 29.96 in1014.6 mb 0.00 in0.0 mm 0.00 in0.0 mm 0.01 in0.3 mm
10:09 AM 43.7°F6.5°C 41.0°F5.0°C 90% 20.7 mph SE33.3 kmh SE 21.2 mph34.1 kmh 29.95 in1014.2 mb 0.00 in0.0 mm 0.00 in0.0 mm 0.01 in0.3 mm
10:08 AM 43.5°F6.4°C 42.0°F5.6°C 93% 20.7 mph SE33.3 kmh SE 21.9 mph35.2 kmh 29.95 in1014.2 mb 0.00 in0.0 mm 0.00 in0.0 mm 0.01 in0.3 mm
10:07 AM 43.5°F6.4°C 42.0°F5.6°C 95% 21.2 mph SE34.1 kmh SE 21.9 mph35.2 kmh 29.96 in1014.6 mb 0.00 in0.0 mm 0.00 in0.0 mm 0.01 in0.3 mm
10:06 AM 43.3°F6.3°C 42.0°F5.6°C 93% 21.3 mph SE34.3 kmh SE 22.1 mph35.6 kmh 29.96 in1014.6 mb 0.00 in0.0 mm 0.00 in0.0 mm 0.01 in0.3 mm
10:05 AM 43.2°F6.2°C 41.0°F5.0°C 92% 21.9 mph SE35.2 kmh SE 23.1 mph37.2 kmh 29.95 in1014.2 mb 0.00 in0.0 mm 0.00 in0.0 mm 0.01 in0.3 mm
10:04 AM 43.2°F6.2°C 41.0°F5.0°C 92% 21.0 mph SE33.8 kmh SE 21.7 mph34.9 kmh 29.95 in1014.2 mb 0.00 in0.0 mm 0.00 in0.0 mm 0.01 in0.3 mm
10:03 AM 43.2°F6.2°C 41.0°F5.0°C 93% 21.4 mph SE34.4 kmh SE 22.2 mph35.7 kmh 29.96 in1014.6 mb 0.00 in0.0 mm 0.00 in0.0 mm 0.01 in0.3 mm
10:02 AM 43.3°F6.3°C 42.0°F5.6°C 94% 20.9 mph SE33.6 kmh SE 21.4 mph34.4 kmh 29.95 in1014.2 mb 0.00 in0.0 mm 0.00 in0.0 mm 0.01 in0.3 mm
10:01 AM 43.2°F6.2°C 41.0°F5.0°C 92% 21.0 mph SE33.8 kmh SE 21.7 mph34.9 kmh 29.96 in1014.6 mb 0.00 in0.0 mm 0.00 in0.0 mm 0.01 in0.3 mm
10:00 AM 43.3°F6.3°C 41.0°F5.0°C 90% 21.1 mph SE34.0 kmh SE 21.9 mph35.2 kmh 29.96 in1014.6 mb 0.00 in0.0 mm 0.00 in0.0 mm 0.01 in0.3 mm
09:59 AM 43.3°F6.3°C 41.0°F5.0°C 93% 21.1 mph SE34.0 kmh SE 21.9 mph35.2 kmh 29.96 in1014.6 mb 0.00 in0.0 mm 0.00 in0.0 mm 0.01 in0.3 mm
09:58 AM 43.2°F6.2°C 42.0°F5.6°C 94% 21.7 mph SE34.9 kmh SE 22.7 mph36.5 kmh 29.96 in1014.6 mb 0.00 in0.0 mm 0.00 in0.0 mm 0.01 in0.3 mm
09:57 AM 43.2°F6.2°C 40.0°F4.4°C 90% 21.0 mph SE33.8 kmh SE 21.6 mph34.8 kmh 29.96 in1014.6 mb 0.00 in0.0 mm 0.00 in0.0 mm 0.01 in0.3 mm
09:56 AM 43.2°F6.2°C 42.0°F5.6°C 95% 21.0 mph SE33.8 kmh SE 21.6 mph34.8 kmh 29.96 in1014.6 mb 0.00 in0.0 mm 0.00 in0.0 mm 0.01 in0.3 mm
09:55 AM 43.0°F6.1°C 42.0°F5.6°C 96% 21.4 mph SE34.4 kmh SE 22.3 mph35.9 kmh 29.96 in1014.6 mb 0.00 in0.0 mm 0.00 in0.0 mm 0.01 in0.3 mm
09:54 AM 42.8°F6.0°C 42.0°F5.6°C 96% 21.4 mph SE34.4 kmh SE 22.3 mph35.9 kmh 29.96 in1014.6 mb 0.00 in0.0 mm 0.00 in0.0 mm 0.01 in0.3 mm
09:53 AM 42.8°F6.0°C 41.0°F5.0°C 92% 21.0 mph SE33.8 kmh SE 21.5 mph34.6 kmh 29.96 in1014.6 mb 0.00 in0.0 mm 0.00 in0.0 mm 0.01 in0.3 mm
09:52 AM 42.8°F6.0°C 41.0°F5.0°C 95% 20.9 mph E33.6 kmh E 21.5 mph34.6 kmh 29.95 in1014.2 mb 0.00 in0.0 mm 0.00 in0.0 mm 0.01 in0.3 mm
09:51 AM 42.8°F6.0°C 41.0°F5.0°C 95% 20.9 mph E33.6 kmh E 21.5 mph34.6 kmh 29.95 in1014.2 mb 0.00 in0.0 mm 0.00 in0.0 mm 0.01 in0.3 mm
09:50 AM 42.8°F6.0°C 42.0°F5.6°C 95% 20.6 mph E33.2 kmh E 21.0 mph33.8 kmh 29.95 in1014.2 mb 0.00 in0.0 mm 0.00 in0.0 mm 0.01 in0.3 mm
09:49 AM 42.6°F5.9°C 41.0°F5.0°C 94% 20.6 mph E33.2 kmh E 21.0 mph33.8 kmh 29.95 in1014.2 mb 0.00 in0.0 mm 0.00 in0.0 mm 0.01 in0.3 mm
09:48 AM 43.2°F6.2°C 42.0°F5.6°C 96% 20.7 mph NNE33.3 kmh NNE 21.2 mph34.1 kmh 29.95 in1014.2 mb 0.00 in0.0 mm 0.00 in0.0 mm 0.01 in0.3 mm
09:47 AM 43.3°F6.3°C 42.0°F5.6°C 95% 20.2 mph ESE32.5 kmh ESE 20.5 mph33.0 kmh 29.95 in1014.2 mb 0.00 in0.0 mm 0.00 in0.0 mm 0.01 in0.3 mm
09:46 AM 43.3°F6.3°C 41.0°F5.0°C 90% 20.1 mph SE32.3 kmh SE 20.2 mph32.5 kmh 29.95 in1014.2 mb 0.00 in0.0 mm 0.00 in0.0 mm 0.01 in0.3 mm
09:45 AM 43.2°F6.2°C 41.0°F5.0°C 92% 20.2 mph SE32.5 kmh SE 20.4 mph32.8 kmh 29.95 in1014.2 mb 0.01 in0.3 mm 0.00 in0.0 mm 0.01 in0.3 mm
09:44 AM 43.0°F6.1°C 41.0°F5.0°C 93% 20.2 mph SE32.5 kmh SE 20.4 mph32.8 kmh 29.95 in1014.2 mb 0.01 in0.3 mm 0.00 in0.0 mm 0.01 in0.3 mm
09:43 AM 42.8°F6.0°C 41.0°F5.0°C 92% 20.5 mph SE33.0 kmh SE 20.8 mph33.5 kmh 29.95 in1014.2 mb 0.01 in0.3 mm 0.00 in0.0 mm 0.01 in0.3 mm
09:42 AM 42.6°F5.9°C 40.0°F4.4°C 92% 20.4 mph SE32.8 kmh SE 20.7 mph33.3 kmh 29.95 in1014.2 mb 0.01 in0.3 mm 0.00 in0.0 mm 0.01 in0.3 mm
09:41 AM 42.6°F5.9°C 40.0°F4.4°C 92% 20.4 mph SE32.8 kmh SE 20.8 mph33.5 kmh 29.95 in1014.2 mb 0.01 in0.3 mm 0.00 in0.0 mm 0.01 in0.3 mm
09:40 AM 42.3°F5.7°C 41.0°F5.0°C 95% 20.8 mph SE33.5 kmh SE 21.3 mph34.3 kmh 29.95 in1014.2 mb 0.01 in0.3 mm 0.00 in0.0 mm 0.01 in0.3 mm
09:39 AM 42.3°F5.7°C 42.0°F5.6°C 97% 21.3 mph SE34.3 kmh SE 22.1 mph35.6 kmh 29.95 in1014.2 mb 0.01 in0.3 mm 0.00 in0.0 mm 0.01 in0.3 mm
09:38 AM 41.9°F5.5°C 41.0°F5.0°C 96% 21.3 mph SE34.3 kmh SE 21.8 mph35.1 kmh 29.95 in1014.2 mb 0.01 in0.3 mm 0.00 in0.0 mm 0.01 in0.3 mm
09:37 AM 41.7°F5.4°C 40.0°F4.4°C 95% 21.1 mph SE34.0 kmh SE 20.3 mph32.7 kmh 29.95 in1014.2 mb 0.01 in0.3 mm 0.00 in0.0 mm 0.01 in0.3 mm
09:36 AM 41.4°F5.2°C 40.0°F4.4°C 97% 20.8 mph SE33.5 kmh SE 21.2 mph34.1 kmh 29.95 in1014.2 mb 0.01 in0.3 mm 0.00 in0.0 mm 0.01 in0.3 mm
09:35 AM 41.2°F5.1°C 41.0°F5.0°C 98% 21.1 mph SE34.0 kmh SE 21.8 mph35.1 kmh 29.95 in1014.2 mb 0.01 in0.3 mm 0.00 in0.0 mm 0.01 in0.3 mm
09:34 AM 41.2°F5.1°C 41.0°F5.0°C 99% 21.1 mph SE34.0 kmh SE 21.8 mph35.1 kmh 29.95 in1014.2 mb 0.01 in0.3 mm 0.00 in0.0 mm 0.01 in0.3 mm
09:33 AM 41.0°F5.0°C 41.0°F5.0°C 100% 21.3 mph SE34.3 kmh SE 22.1 mph35.6 kmh 29.95 in1014.2 mb 0.01 in0.3 mm 0.00 in0.0 mm 0.01 in0.3 mm
09:32 AM 40.6°F4.8°C 40.0°F4.4°C 98% 20.9 mph SE33.6 kmh SE 21.5 mph34.6 kmh 29.95 in1014.2 mb 0.01 in0.3 mm 0.00 in0.0 mm 0.01 in0.3 mm
09:31 AM 40.8°F4.9°C 40.0°F4.4°C 98% 20.9 mph SE33.6 kmh SE 22.1 mph35.6 kmh 29.95 in1014.2 mb 0.01 in0.3 mm 0.00 in0.0 mm 0.01 in0.3 mm
09:30 AM 40.8°F4.9°C 41.0°F5.0°C 99% 21.0 mph SE33.8 kmh SE 21.6 mph34.8 kmh 29.96 in1014.6 mb 0.01 in0.3 mm 0.00 in0.0 mm 0.01 in0.3 mm
09:29 AM 40.6°F4.8°C 41.0°F5.0°C 100% 21.0 mph SE33.8 kmh SE 21.6 mph34.8 kmh 29.96 in1014.6 mb 0.01 in0.3 mm 0.00 in0.0 mm 0.01 in0.3 mm
09:28 AM 40.5°F4.7°C 40.0°F4.4°C 100% 21.1 mph SE34.0 kmh SE 22.2 mph35.7 kmh 29.95 in1014.2 mb 0.01 in0.3 mm 0.00 in0.0 mm 0.01 in0.3 mm
09:27 AM 40.1°F4.5°C 40.0°F4.4°C 100% 20.8 mph SE33.5 kmh SE 21.3 mph34.3 kmh 29.96 in1014.6 mb 0.01 in0.3 mm 0.00 in0.0 mm 0.01 in0.3 mm
09:26 AM 40.1°F4.5°C 40.0°F4.4°C 100% 20.4 mph SE32.8 kmh SE 20.7 mph33.3 kmh 29.96 in1014.6 mb 0.01 in0.3 mm 0.00 in0.0 mm 0.01 in0.3 mm
09:25 AM 40.3°F4.6°C 40.0°F4.4°C 100% 21.2 mph SE34.1 kmh SE 21.9 mph35.2 kmh 29.96 in1014.6 mb 0.01 in0.3 mm 0.00 in0.0 mm 0.01 in0.3 mm
09:24 AM 40.3°F4.6°C 40.0°F4.4°C 100% 20.9 mph SE33.6 kmh SE 21.5 mph34.6 kmh 29.96 in1014.6 mb 0.01 in0.3 mm 0.00 in0.0 mm 0.01 in0.3 mm
09:23 AM 40.5°F4.7°C 40.0°F4.4°C 100% 20.9 mph SE33.6 kmh SE 21.5 mph34.6 kmh 29.96 in1014.6 mb 0.01 in0.3 mm 0.00 in0.0 mm 0.01 in0.3 mm
09:22 AM 40.6°F4.8°C 41.0°F5.0°C 100% 21.3 mph SE34.3 kmh SE 22.0 mph35.4 kmh 29.96 in1014.6 mb 0.01 in0.3 mm 0.00 in0.0 mm 0.01 in0.3 mm
09:21 AM 40.5°F4.7°C 40.0°F4.4°C 100% 20.9 mph SE33.6 kmh SE 21.5 mph34.6 kmh 29.96 in1014.6 mb 0.01 in0.3 mm 0.00 in0.0 mm 0.01 in0.3 mm
09:20 AM 40.5°F4.7°C 40.0°F4.4°C 100% 21.3 mph SE34.3 kmh SE 22.0 mph35.4 kmh 29.95 in1014.2 mb 0.01 in0.3 mm 0.00 in0.0 mm 0.01 in0.3 mm
09:19 AM 40.5°F4.7°C 40.0°F4.4°C 100% 21.3 mph SE34.3 kmh SE 22.0 mph35.4 kmh 29.96 in1014.6 mb 0.01 in0.3 mm 0.00 in0.0 mm 0.01 in0.3 mm
09:18 AM 40.1°F4.5°C 40.0°F4.4°C 100% 20.1 mph SE32.3 kmh SE 20.3 mph32.7 kmh 29.95 in1014.2 mb 0.01 in0.3 mm 0.00 in0.0 mm 0.01 in0.3 mm
09:17 AM 40.3°F4.6°C 40.0°F4.4°C 100% 20.2 mph SE32.5 kmh SE 20.3 mph32.7 kmh 29.95 in1014.2 mb 0.01 in0.3 mm 0.00 in0.0 mm 0.01 in0.3 mm
09:16 AM 40.3°F4.6°C 40.0°F4.4°C 100% 21.1 mph E34.0 kmh E 21.9 mph35.2 kmh 29.95 in1014.2 mb 0.01 in0.3 mm 0.00 in0.0 mm 0.01 in0.3 mm
09:15 AM 40.3°F4.6°C 40.0°F4.4°C 100% 21.0 mph ENE33.8 kmh ENE 21.5 mph34.6 kmh 29.95 in1014.2 mb 0.01 in0.3 mm 0.00 in0.0 mm 0.01 in0.3 mm
09:14 AM 40.1°F4.5°C 40.0°F4.4°C 100% 20.4 mph ESE32.8 kmh ESE 20.7 mph33.3 kmh 29.95 in1014.2 mb 0.01 in0.3 mm 0.00 in0.0 mm 0.01 in0.3 mm
09:13 AM 40.1°F4.5°C 40.0°F4.4°C 100% 21.1 mph NE34.0 kmh NE 21.8 mph35.1 kmh 29.95 in1014.2 mb 0.01 in0.3 mm 0.00 in0.0 mm 0.01 in0.3 mm
09:12 AM 40.3°F4.6°C 40.0°F4.4°C 100% 20.7 mph NNE33.3 kmh NNE 21.2 mph34.1 kmh 29.95 in1014.2 mb 0.01 in0.3 mm 0.00 in0.0 mm 0.01 in0.3 mm
09:11 AM 40.3°F4.6°C 40.0°F4.4°C 100% 20.7 mph NE33.3 kmh NE 21.1 mph34.0 kmh 29.95 in1014.2 mb 0.01 in0.3 mm 0.00 in0.0 mm 0.01 in0.3 mm
09:10 AM 40.1°F4.5°C 40.0°F4.4°C 100% 20.7 mph NE33.3 kmh NE 21.0 mph33.8 kmh 29.95 in1014.2 mb 0.01 in0.3 mm 0.00 in0.0 mm 0.01 in0.3 mm
09:09 AM 40.1°F4.5°C 40.0°F4.4°C 100% 20.7 mph ESE33.3 kmh ESE 21.1 mph34.0 kmh 29.95 in1014.2 mb 0.01 in0.3 mm 0.00 in0.0 mm 0.01 in0.3 mm
09:08 AM 39.6°F4.2°C 40.0°F4.4°C 100% 20.1 mph SE32.3 kmh SE 20.1 mph32.3 kmh 29.95 in1014.2 mb 0.01 in0.3 mm 0.00 in0.0 mm 0.01 in0.3 mm
09:07 AM 39.6°F4.2°C 40.0°F4.4°C 100% 20.1 mph ENE32.3 kmh ENE 20.1 mph32.3 kmh 29.95 in1014.2 mb 0.01 in0.3 mm 0.00 in0.0 mm 0.01 in0.3 mm
09:06 AM 39.4°F4.1°C 39.0°F3.9°C 100% 20.1 mph SE32.3 kmh SE 20.1 mph32.3 kmh 29.95 in1014.2 mb 0.01 in0.3 mm 0.00 in0.0 mm 0.01 in0.3 mm
09:05 AM 38.8°F3.8°C 39.0°F3.9°C 100% 20.1 mph NNE32.3 kmh NNE 20.3 mph32.7 kmh 29.95 in1014.2 mb 0.01 in0.3 mm 0.00 in0.0 mm 0.01 in0.3 mm
09:04 AM 38.8°F3.8°C 39.0°F3.9°C 100% 21.5 mph NNE34.6 kmh NNE 22.4 mph36.0 kmh 29.95 in1014.2 mb 0.01 in0.3 mm 0.00 in0.0 mm 0.01 in0.3 mm
09:03 AM 38.8°F3.8°C 39.0°F3.9°C 100% 20.2 mph SE32.5 kmh SE 20.4 mph32.8 kmh 29.95 in1014.2 mb 0.01 in0.3 mm 0.00 in0.0 mm 0.01 in0.3 mm
09:02 AM 38.7°F3.7°C 39.0°F3.9°C 100% 20.1 mph SE32.3 kmh SE 20.1 mph32.3 kmh 29.95 in1014.2 mb 0.01 in0.3 mm 0.00 in0.0 mm 0.01 in0.3 mm
09:01 AM 38.7°F3.7°C 39.0°F3.9°C 100% 20.1 mph SE32.3 kmh SE 20.1 mph32.3 kmh 29.95 in1014.2 mb 0.01 in0.3 mm 0.00 in0.0 mm 0.01 in0.3 mm
09:00 AM 38.5°F3.6°C 38.0°F3.3°C 100% 20.1 mph SE32.3 kmh SE 20.2 mph32.5 kmh 29.95 in1014.2 mb 0.01 in0.3 mm 0.00 in0.0 mm 0.01 in0.3 mm
08:59 AM 38.5°F3.6°C 38.0°F3.3°C 100% 20.1 mph SE32.3 kmh SE 20.2 mph32.5 kmh 29.95 in1014.2 mb 0.01 in0.3 mm 0.00 in0.0 mm 0.01 in0.3 mm
08:58 AM 38.5°F3.6°C 38.0°F3.3°C 100% 19.9 mph NNE32.0 kmh NNE 19.9 mph32.0 kmh 29.95 in1014.2 mb 0.01 in0.3 mm 0.00 in0.0 mm 0.01 in0.3 mm
08:57 AM 38.1°F3.4°C 38.0°F3.3°C 100% 19.9 mph E32.0 kmh E 19.9 mph32.0 kmh 29.95 in1014.2 mb 0.01 in0.3 mm 0.00 in0.0 mm 0.01 in0.3 mm
08:56 AM 37.9°F3.3°C 38.0°F3.3°C 100% 20.2 mph SE32.5 kmh SE 20.4 mph32.8 kmh 29.95 in1014.2 mb 0.01 in0.3 mm 0.00 in0.0 mm 0.01 in0.3 mm
08:55 AM 37.6°F3.1°C 38.0°F3.3°C 100% 20.9 mph SE33.6 kmh SE 21.6 mph34.8 kmh 29.95 in1014.2 mb 0.01 in0.3 mm 0.00 in0.0 mm 0.01 in0.3 mm
08:54 AM 37.6°F3.1°C 38.0°F3.3°C 100% 20.6 mph ESE33.2 kmh ESE 21.0 mph33.8 kmh 29.95 in1014.2 mb 0.01 in0.3 mm 0.00 in0.0 mm 0.01 in0.3 mm
08:53 AM 37.8°F3.2°C 38.0°F3.3°C 100% 20.6 mph E33.2 kmh E 21.3 mph34.3 kmh 29.95 in1014.2 mb 0.01 in0.3 mm 0.00 in0.0 mm 0.01 in0.3 mm
08:52 AM 37.4°F3.0°C 37.0°F2.8°C 100% 19.9 mph 32.0 kmh 19.9 mph32.0 kmh 29.95 in1014.2 mb 0.01 in0.3 mm 0.00 in0.0 mm 0.01 in0.3 mm
08:51 AM 37.4°F3.0°C 37.0°F2.8°C 100% 20.0 mph NE32.2 kmh NE 20.1 mph32.3 kmh 29.95 in1014.2 mb 0.01 in0.3 mm 0.00 in0.0 mm 0.01 in0.3 mm
08:50 AM 37.2°F2.9°C 37.0°F2.8°C 100% 20.8 mph NE33.5 kmh NE 21.3 mph34.3 kmh 29.95 in1014.2 mb 0.01 in0.3 mm 0.00 in0.0 mm 0.01 in0.3 mm
08:49 AM 37.2°F2.9°C 37.0°F2.8°C 100% 20.8 mph NE33.5 kmh NE 21.3 mph34.3 kmh 29.95 in1014.2 mb 0.01 in0.3 mm 0.00 in0.0 mm 0.01 in0.3 mm
08:48 AM 37.0°F2.8°C 37.0°F2.8°C 100% 20.5 mph NE33.0 kmh NE 20.8 mph33.5 kmh 29.95 in1014.2 mb 0.01 in0.3 mm 0.00 in0.0 mm 0.01 in0.3 mm
08:47 AM 36.9°F2.7°C 37.0°F2.8°C 100% 20.3 mph ENE32.7 kmh ENE 20.5 mph33.0 kmh 29.95 in1014.2 mb 0.01 in0.3 mm 0.60 in15.2 mm 0.01 in0.3 mm
08:46 AM 36.9°F2.7°C 37.0°F2.8°C 100% 20.1 mph ENE32.3 kmh ENE 20.1 mph32.3 kmh 29.95 in1014.2 mb 0.00 in0.0 mm 0.00 in0.0 mm 0.00 in0.0 mm
08:45 AM 36.7°F2.6°C 37.0°F2.8°C 100% 19.9 mph E32.0 kmh E 19.9 mph32.0 kmh 29.95 in1014.2 mb 0.00 in0.0 mm 0.00 in0.0 mm 0.00 in0.0 mm
08:44 AM 36.3°F2.4°C 36.0°F2.2°C 100% 19.9 mph SE32.0 kmh SE 19.9 mph32.0 kmh 29.95 in1014.2 mb 0.00 in0.0 mm 0.00 in0.0 mm 0.00 in0.0 mm
08:43 AM 36.3°F2.4°C 36.0°F2.2°C 100% 19.9 mph ESE32.0 kmh ESE 19.9 mph32.0 kmh 29.95 in1014.2 mb 0.00 in0.0 mm 0.00 in0.0 mm 0.00 in0.0 mm
08:42 AM 36.3°F2.4°C 36.0°F2.2°C 100% 19.9 mph 32.0 kmh 19.9 mph32.0 kmh 29.95 in1014.2 mb 0.00 in0.0 mm 0.00 in0.0 mm 0.00 in0.0 mm
08:41 AM 36.0°F2.2°C 36.0°F2.2°C 100% 19.9 mph 32.0 kmh 19.9 mph32.0 kmh 29.95 in1014.2 mb 0.00 in0.0 mm 0.00 in0.0 mm 0.00 in0.0 mm
08:40 AM 35.8°F2.1°C 36.0°F2.2°C 100% 19.9 mph 32.0 kmh 19.9 mph32.0 kmh 29.95 in1014.2 mb 0.00 in0.0 mm 0.00 in0.0 mm 0.00 in0.0 mm
08:39 AM 35.8°F2.1°C 36.0°F2.2°C 100% 19.9 mph 32.0 kmh 19.9 mph32.0 kmh 29.95 in1014.2 mb 0.00 in0.0 mm 0.00 in0.0 mm 0.00 in0.0 mm
08:38 AM 35.8°F2.1°C 36.0°F2.2°C 100% 19.9 mph NNE32.0 kmh NNE 19.9 mph32.0 kmh 29.95 in1014.2 mb 0.00 in0.0 mm 0.00 in0.0 mm 0.00 in0.0 mm
08:37 AM 35.8°F2.1°C 36.0°F2.2°C 100% 19.9 mph NE32.0 kmh NE 19.9 mph32.0 kmh 29.95 in1014.2 mb 0.00 in0.0 mm 0.00 in0.0 mm 0.00 in0.0 mm
08:36 AM 35.6°F2.0°C 36.0°F2.2°C 100% 20.3 mph S32.7 kmh S 21.0 mph33.8 kmh 29.95 in1014.2 mb 0.00 in0.0 mm 0.00 in0.0 mm 0.00 in0.0 mm
08:35 AM 35.6°F2.0°C 36.0°F2.2°C 100% 20.6 mph ESE33.2 kmh ESE 20.9 mph33.6 kmh 29.95 in1014.2 mb 0.00 in0.0 mm 0.00 in0.0 mm 0.00 in0.0 mm
08:34 AM 35.6°F2.0°C 36.0°F2.2°C 100% 20.6 mph ESE33.2 kmh ESE 20.9 mph33.6 kmh 29.95 in1014.2 mb 0.00 in0.0 mm 0.00 in0.0 mm 0.00 in0.0 mm
08:33 AM 34.9°F1.6°C 35.0°F1.7°C 100% 19.9 mph SE32.0 kmh SE 19.9 mph32.0 kmh 29.95 in1014.2 mb 0.00 in0.0 mm 0.00 in0.0 mm 0.00 in0.0 mm
08:32 AM 34.7°F1.5°C 35.0°F1.7°C 100% 19.9 mph SE32.0 kmh SE 19.9 mph32.0 kmh 29.95 in1014.2 mb 0.00 in0.0 mm 0.00 in0.0 mm 0.00 in0.0 mm
08:31 AM 34.7°F1.5°C 35.0°F1.7°C 100% 19.9 mph SE32.0 kmh SE 19.9 mph32.0 kmh 29.95 in1014.2 mb 0.00 in0.0 mm 0.00 in0.0 mm 0.00 in0.0 mm
08:30 AM 34.5°F1.4°C 35.0°F1.7°C 100% 19.9 mph NNE32.0 kmh NNE 19.9 mph32.0 kmh 29.95 in1014.2 mb 0.00 in0.0 mm 0.00 in0.0 mm 0.00 in0.0 mm
08:29 AM 34.2°F1.2°C 34.0°F1.1°C 100% 19.9 mph 32.0 kmh 19.9 mph32.0 kmh 29.95 in1014.2 mb 0.00 in0.0 mm 0.00 in0.0 mm 0.00 in0.0 mm
08:28 AM 34.0°F1.1°C 34.0°F1.1°C 100% 19.9 mph N32.0 kmh N 19.9 mph32.0 kmh 29.95 in1014.2 mb 0.00 in0.0 mm 0.00 in0.0 mm 0.00 in0.0 mm
08:27 AM 34.0°F1.1°C 34.0°F1.1°C 100% 19.9 mph N32.0 kmh N 19.9 mph32.0 kmh 29.95 in1014.2 mb 0.00 in0.0 mm 0.00 in0.0 mm 0.00 in0.0 mm
08:26 AM 33.8°F1.0°C 34.0°F1.1°C 100% 20.3 mph 32.7 kmh 20.5 mph33.0 kmh 29.95 in1014.2 mb 0.00 in0.0 mm 0.00 in0.0 mm 0.00 in0.0 mm
08:25 AM 33.8°F1.0°C 34.0°F1.1°C 100% 19.9 mph 32.0 kmh 19.9 mph32.0 kmh 29.95 in1014.2 mb 0.00 in0.0 mm 0.00 in0.0 mm 0.00 in0.0 mm
08:24 AM 33.8°F1.0°C 34.0°F1.1°C 100% 19.9 mph 32.0 kmh 19.9 mph32.0 kmh 29.95 in1014.2 mb 0.00 in0.0 mm 0.00 in0.0 mm 0.00 in0.0 mm
08:23 AM 33.8°F1.0°C 34.0°F1.1°C 100% 19.9 mph ENE32.0 kmh ENE 19.9 mph32.0 kmh 29.95 in1014.2 mb 0.00 in0.0 mm 0.00 in0.0 mm 0.00 in0.0 mm
08:22 AM 33.6°F0.9°C 34.0°F1.1°C 100% 19.9 mph NE32.0 kmh NE 19.9 mph32.0 kmh 29.95 in1014.2 mb 0.00 in0.0 mm 0.00 in0.0 mm 0.00 in0.0 mm
08:21 AM 33.8°F1.0°C 34.0°F1.1°C 100% 19.9 mph NNE32.0 kmh NNE 19.9 mph32.0 kmh 29.95 in1014.2 mb 0.00 in0.0 mm 0.00 in0.0 mm 0.00 in0.0 mm
08:20 AM 33.4°F0.8°C 33.0°F0.6°C 100% 19.9 mph 32.0 kmh 19.9 mph32.0 kmh 29.95 in1014.2 mb 0.00 in0.0 mm 0.00 in0.0 mm 0.00 in0.0 mm
08:19 AM 33.3°F0.7°C 33.0°F0.6°C 100% 19.9 mph 32.0 kmh 19.9 mph32.0 kmh 29.95 in1014.2 mb 0.00 in0.0 mm 0.00 in0.0 mm 0.00 in0.0 mm
08:18 AM 33.1°F0.6°C 33.0°F0.6°C 100% 19.9 mph N32.0 kmh N 19.9 mph32.0 kmh 29.95 in1014.2 mb 0.00 in0.0 mm 0.00 in0.0 mm 0.00 in0.0 mm
08:17 AM 32.9°F0.5°C 33.0°F0.6°C 100% 19.9 mph E32.0 kmh E 19.9 mph32.0 kmh 29.95 in1014.2 mb 0.00 in0.0 mm 0.00 in0.0 mm 0.00 in0.0 mm
08:16 AM 32.9°F0.5°C 33.0°F0.6°C 100% 19.9 mph SE32.0 kmh SE 19.9 mph32.0 kmh 29.95 in1014.2 mb 0.00 in0.0 mm 0.00 in0.0 mm 0.00 in0.0 mm
08:15 AM 32.5°F0.3°C 33.0°F0.6°C 100% 19.9 mph ESE32.0 kmh ESE 19.9 mph32.0 kmh 29.95 in1014.2 mb 0.00 in0.0 mm 0.00 in0.0 mm 0.00 in0.0 mm
08:14 AM 32.4°F0.2°C 32.0°F0.0°C 100% 19.9 mph ESE32.0 kmh ESE 19.9 mph32.0 kmh 29.95 in1014.2 mb 0.00 in0.0 mm 0.00 in0.0 mm 0.00 in0.0 mm
08:13 AM 32.2°F0.1°C 32.0°F0.0°C 100% 19.9 mph SE32.0 kmh SE 19.9 mph32.0 kmh 29.95 in1014.2 mb 0.00 in0.0 mm 0.00 in0.0 mm 0.00 in0.0 mm
08:12 AM 32.0°F0.0°C 32.0°F0.0°C 100% 19.9 mph SE32.0 kmh SE 19.9 mph32.0 kmh 29.95 in1014.2 mb 0.00 in0.0 mm 0.00 in0.0 mm 0.00 in0.0 mm
08:11 AM 32.0°F0.0°C 32.0°F0.0°C 100% 19.9 mph ESE32.0 kmh ESE 19.9 mph32.0 kmh 29.95 in1014.2 mb 0.00 in0.0 mm 0.00 in0.0 mm 0.00 in0.0 mm
08:10 AM 31.8°F-0.1°C 32.0°F0.0°C 100% 19.9 mph ESE32.0 kmh ESE 19.9 mph32.0 kmh 29.95 in1014.2 mb 0.00 in0.0 mm 0.00 in0.0 mm 0.00 in0.0 mm
08:09 AM 31.6°F-0.2°C 32.0°F0.0°C 100% 19.9 mph ESE32.0 kmh ESE 19.9 mph32.0 kmh 29.95 in1014.2 mb 0.00 in0.0 mm 0.00 in0.0 mm 0.00 in0.0 mm
08:08 AM 31.5°F-0.3°C 31.0°F-0.6°C 100% 19.9 mph ESE32.0 kmh ESE 19.9 mph32.0 kmh 29.95 in1014.2 mb 0.00 in0.0 mm 0.00 in0.0 mm 0.00 in0.0 mm
08:07 AM 31.5°F-0.3°C 31.0°F-0.6°C 100% 19.9 mph E32.0 kmh E 19.9 mph32.0 kmh 29.95 in1014.2 mb 0.00 in0.0 mm 0.00 in0.0 mm 0.00 in0.0 mm
08:06 AM 31.5°F-0.3°C 31.0°F-0.6°C 100% 19.9 mph E32.0 kmh E 19.9 mph32.0 kmh 29.95 in1014.2 mb 0.00 in0.0 mm 0.00 in0.0 mm 0.00 in0.0 mm
08:05 AM 31.1°F-0.5°C 31.0°F-0.6°C 100% 19.9 mph NE32.0 kmh NE 19.9 mph32.0 kmh 29.95 in1014.2 mb 0.00 in0.0 mm 0.00 in0.0 mm 0.00 in0.0 mm
08:04 AM 31.1°F-0.5°C 31.0°F-0.6°C 100% 19.9 mph NE32.0 kmh NE 19.9 mph32.0 kmh 29.95 in1014.2 mb 0.00 in0.0 mm 0.00 in0.0 mm 0.00 in0.0 mm
08:03 AM 30.9°F-0.6°C 31.0°F-0.6°C 100% 19.9 mph NE32.0 kmh NE 19.9 mph32.0 kmh 29.95 in1014.2 mb 0.00 in0.0 mm 0.00 in0.0 mm 0.00 in0.0 mm
08:02 AM 30.7°F-0.7°C 31.0°F-0.6°C 100% 19.9 mph NE32.0 kmh NE 19.9 mph32.0 kmh 29.95 in1014.2 mb 0.00 in0.0 mm 0.00 in0.0 mm 0.00 in0.0 mm
08:01 AM 30.6°F-0.8°C 31.0°F-0.6°C 100% 19.9 mph NE32.0 kmh NE 19.9 mph32.0 kmh 29.95 in1014.2 mb 0.00 in0.0 mm 0.00 in0.0 mm 0.00 in0.0 mm
08:00 AM 30.6°F-0.8°C 31.0°F-0.6°C 100% 19.9 mph NE32.0 kmh NE 19.9 mph32.0 kmh 29.95 in1014.2 mb 0.00 in0.0 mm 0.00 in0.0 mm 0.00 in0.0 mm
07:59 AM 30.4°F-0.9°C 30.0°F-1.1°C 100% 19.9 mph NE32.0 kmh NE 19.9 mph32.0 kmh 29.95 in1014.2 mb 0.00 in0.0 mm 0.00 in0.0 mm 0.00 in0.0 mm
07:58 AM 30.4°F-0.9°C 30.0°F-1.1°C 100% 19.9 mph ENE32.0 kmh ENE 19.9 mph32.0 kmh 29.95 in1014.2 mb 0.00 in0.0 mm 0.00 in0.0 mm 0.00 in0.0 mm
07:57 AM 30.4°F-0.9°C 30.0°F-1.1°C 100% 19.9 mph NE32.0 kmh NE 19.9 mph32.0 kmh 29.95 in1014.2 mb 0.00 in0.0 mm 0.00 in0.0 mm 0.00 in0.0 mm
07:56 AM 30.4°F-0.9°C 30.0°F-1.1°C 100% 19.9 mph ENE32.0 kmh ENE 19.9 mph32.0 kmh 29.95 in1014.2 mb 0.00 in0.0 mm 0.00 in0.0 mm 0.00 in0.0 mm
07:55 AM 30.4°F-0.9°C 30.0°F-1.1°C 100% 19.9 mph ENE32.0 kmh ENE 19.9 mph32.0 kmh 29.95 in1014.2 mb 0.00 in0.0 mm 0.00 in0.0 mm 0.00 in0.0 mm
07:54 AM 30.4°F-0.9°C 30.0°F-1.1°C 100% 19.9 mph ENE32.0 kmh ENE 19.9 mph32.0 kmh 29.95 in1014.2 mb 0.00 in0.0 mm 0.00 in0.0 mm 0.00 in0.0 mm
07:53 AM 30.2°F-1.0°C 30.0°F-1.1°C 100% 19.9 mph 32.0 kmh 19.9 mph32.0 kmh 29.95 in1014.2 mb 0.00 in0.0 mm 0.00 in0.0 mm 0.00 in0.0 mm
07:52 AM 30.4°F-0.9°C 30.0°F-1.1°C 100% 19.9 mph 32.0 kmh 19.9 mph32.0 kmh 29.95 in1014.2 mb 0.00 in0.0 mm 0.00 in0.0 mm 0.00 in0.0 mm
07:51 AM 30.2°F-1.0°C 30.0°F-1.1°C 100% 19.9 mph 32.0 kmh 19.9 mph32.0 kmh 29.95 in1014.2 mb 0.00 in0.0 mm 0.00 in0.0 mm 0.00 in0.0 mm
07:50 AM 30.2°F-1.0°C 30.0°F-1.1°C 100% 19.9 mph 32.0 kmh 19.9 mph32.0 kmh 29.95 in1014.2 mb 0.00 in0.0 mm 0.00 in0.0 mm 0.00 in0.0 mm
07:49 AM 30.0°F-1.1°C 30.0°F-1.1°C 100% 19.9 mph 32.0 kmh 19.9 mph32.0 kmh 29.95 in1014.2 mb 0.00 in0.0 mm 0.00 in0.0 mm 0.00 in0.0 mm
07:48 AM 30.0°F-1.1°C 30.0°F-1.1°C 100% 19.9 mph 32.0 kmh 19.9 mph32.0 kmh 29.95 in1014.2 mb 0.00 in0.0 mm 0.00 in0.0 mm 0.00 in0.0 mm
07:47 AM 30.0°F-1.1°C 30.0°F-1.1°C 100% 19.9 mph 32.0 kmh 19.9 mph32.0 kmh 29.95 in1014.2 mb 0.00 in0.0 mm 0.00 in0.0 mm 0.00 in0.0 mm
07:46 AM 30.0°F-1.1°C 30.0°F-1.1°C 100% 19.9 mph 32.0 kmh 19.9 mph32.0 kmh 29.95 in1014.2 mb 0.00 in0.0 mm 0.00 in0.0 mm 0.00 in0.0 mm
07:45 AM 30.0°F-1.1°C 30.0°F-1.1°C 100% 19.9 mph 32.0 kmh 19.9 mph32.0 kmh 29.95 in1014.2 mb 0.00 in0.0 mm 0.00 in0.0 mm 0.00 in0.0 mm
07:44 AM 30.0°F-1.1°C 30.0°F-1.1°C 100% 19.9 mph 32.0 kmh 19.9 mph32.0 kmh 29.95 in1014.2 mb 0.00 in0.0 mm 0.00 in0.0 mm 0.00 in0.0 mm
07:43 AM 30.0°F-1.1°C 30.0°F-1.1°C 100% 19.9 mph 32.0 kmh 19.9 mph32.0 kmh 29.94 in1013.9 mb 0.00 in0.0 mm 0.00 in0.0 mm 0.00 in0.0 mm
07:42 AM 30.0°F-1.1°C 30.0°F-1.1°C 100% 19.9 mph 32.0 kmh 19.9 mph32.0 kmh 29.94 in1013.9 mb 0.00 in0.0 mm 0.00 in0.0 mm 0.00 in0.0 mm
07:41 AM 30.0°F-1.1°C 30.0°F-1.1°C 100% 19.9 mph 32.0 kmh 19.9 mph32.0 kmh 29.95 in1014.2 mb 0.00 in0.0 mm 0.00 in0.0 mm 0.00 in0.0 mm
07:40 AM 30.0°F-1.1°C 30.0°F-1.1°C 100% 19.9 mph 32.0 kmh 19.9 mph32.0 kmh 29.94 in1013.9 mb 0.00 in0.0 mm 0.00 in0.0 mm 0.00 in0.0 mm
07:39 AM 30.0°F-1.1°C 30.0°F-1.1°C 100% 19.9 mph 32.0 kmh 19.9 mph32.0 kmh 29.94 in1013.9 mb 0.00 in0.0 mm 0.00 in0.0 mm 0.00 in0.0 mm
07:38 AM 30.0°F-1.1°C 30.0°F-1.1°C 100% 19.9 mph 32.0 kmh 19.9 mph32.0 kmh 29.94 in1013.9 mb 0.00 in0.0 mm 0.00 in0.0 mm 0.00 in0.0 mm
07:37 AM 29.8°F-1.2°C 30.0°F-1.1°C 100% 20.2 mph N32.5 kmh N 20.4 mph32.8 kmh 29.94 in1013.9 mb 0.00 in0.0 mm 0.00 in0.0 mm 0.00 in0.0 mm
07:36 AM 30.0°F-1.1°C 30.0°F-1.1°C 100% 20.3 mph 32.7 kmh 20.5 mph33.0 kmh 29.94 in1013.9 mb 0.00 in0.0 mm 0.00 in0.0 mm 0.00 in0.0 mm
07:35 AM 30.0°F-1.1°C 30.0°F-1.1°C 100% 20.0 mph 32.2 kmh 20.1 mph32.3 kmh 29.94 in1013.9 mb 0.00 in0.0 mm 0.00 in0.0 mm 0.00 in0.0 mm
07:34 AM 30.0°F-1.1°C 30.0°F-1.1°C 100% 20.1 mph 32.3 kmh 20.1 mph32.3 kmh 29.94 in1013.9 mb 0.00 in0.0 mm 0.00 in0.0 mm 0.00 in0.0 mm
07:33 AM 30.0°F-1.1°C 30.0°F-1.1°C 100% 20.5 mph 33.0 kmh 20.8 mph33.5 kmh 29.94 in1013.9 mb 0.00 in0.0 mm 0.00 in0.0 mm 0.00 in0.0 mm
07:32 AM 30.0°F-1.1°C 30.0°F-1.1°C 100% 20.8 mph N33.5 kmh N 21.4 mph34.4 kmh 29.94 in1013.9 mb 0.00 in0.0 mm 0.00 in0.0 mm 0.00 in0.0 mm
07:31 AM 30.0°F-1.1°C 30.0°F-1.1°C 100% 21.0 mph 33.8 kmh 21.6 mph34.8 kmh 29.94 in1013.9 mb 0.00 in0.0 mm 0.00 in0.0 mm 0.00 in0.0 mm
07:30 AM 29.7°F-1.3°C 30.0°F-1.1°C 100% 20.8 mph 33.5 kmh 21.2 mph34.1 kmh 29.94 in1013.9 mb 0.00 in0.0 mm 0.00 in0.0 mm 0.00 in0.0 mm
07:29 AM 29.7°F-1.3°C 30.0°F-1.1°C 100% 20.8 mph 33.5 kmh 21.2 mph34.1 kmh 29.94 in1013.9 mb 0.00 in0.0 mm 0.00 in0.0 mm 0.00 in0.0 mm
07:28 AM 29.5°F-1.4°C 29.0°F-1.7°C 100% 20.6 mph 33.2 kmh 21.0 mph33.8 kmh 29.94 in1013.9 mb 0.00 in0.0 mm 0.00 in0.0 mm 0.00 in0.0 mm
07:27 AM 29.3°F-1.5°C 29.0°F-1.7°C 100% 20.8 mph 33.5 kmh 21.2 mph34.1 kmh 29.94 in1013.9 mb 0.00 in0.0 mm 0.00 in0.0 mm 0.00 in0.0 mm
07:26 AM 29.1°F-1.6°C 29.0°F-1.7°C 100% 20.7 mph 33.3 kmh 21.2 mph34.1 kmh 29.94 in1013.9 mb 0.00 in0.0 mm 0.00 in0.0 mm 0.00 in0.0 mm
07:25 AM 29.3°F-1.5°C 29.0°F-1.7°C 100% 20.9 mph 33.6 kmh 21.5 mph34.6 kmh 29.94 in1013.9 mb 0.00 in0.0 mm 0.00 in0.0 mm 0.00 in0.0 mm
07:24 AM 29.3°F-1.5°C 29.0°F-1.7°C 100% 21.1 mph 34.0 kmh 21.7 mph34.9 kmh 29.94 in1013.9 mb 0.00 in0.0 mm 0.00 in0.0 mm 0.00 in0.0 mm
07:23 AM 29.3°F-1.5°C 29.0°F-1.7°C 100% 21.1 mph 34.0 kmh 21.7 mph34.9 kmh 29.94 in1013.9 mb 0.00 in0.0 mm 0.00 in0.0 mm 0.00 in0.0 mm
07:22 AM 29.3°F-1.5°C 29.0°F-1.7°C 100% 20.9 mph 33.6 kmh 21.5 mph34.6 kmh 29.94 in1013.9 mb 0.00 in0.0 mm 0.00 in0.0 mm 0.00 in0.0 mm
07:21 AM 29.3°F-1.5°C 29.0°F-1.7°C 100% 20.7 mph 33.3 kmh 21.1 mph34.0 kmh 29.94 in1013.9 mb 0.00 in0.0 mm 0.00 in0.0 mm 0.00 in0.0 mm
07:20 AM 29.3°F-1.5°C 29.0°F-1.7°C 100% 20.8 mph 33.5 kmh 21.4 mph34.4 kmh 29.94 in1013.9 mb 0.00 in0.0 mm 0.00 in0.0 mm 0.00 in0.0 mm
07:19 AM 29.3°F-1.5°C 29.0°F-1.7°C 100% 20.8 mph 33.5 kmh 21.4 mph34.4 kmh 29.94 in1013.9 mb 0.00 in0.0 mm 0.00 in0.0 mm 0.00 in0.0 mm
07:18 AM 29.3°F-1.5°C 29.0°F-1.7°C 100% 20.8 mph 33.5 kmh 21.3 mph34.3 kmh 29.94 in1013.9 mb 0.00 in0.0 mm 0.00 in0.0 mm 0.00 in0.0 mm
07:17 AM 29.1°F-1.6°C 29.0°F-1.7°C 100% 20.8 mph 33.5 kmh 21.3 mph34.3 kmh 29.94 in1013.9 mb 0.00 in0.0 mm 0.00 in0.0 mm 0.00 in0.0 mm
07:16 AM 29.3°F-1.5°C 29.0°F-1.7°C 100% 20.9 mph 33.6 kmh 21.6 mph34.8 kmh 29.94 in1013.9 mb 0.00 in0.0 mm 0.00 in0.0 mm 0.00 in0.0 mm
07:15 AM 29.3°F-1.5°C 29.0°F-1.7°C 100% 21.1 mph 34.0 kmh 21.7 mph34.9 kmh 29.94 in1013.9 mb 0.00 in0.0 mm 0.00 in0.0 mm 0.00 in0.0 mm
07:14 AM 29.3°F-1.5°C 29.0°F-1.7°C 100% 21.1 mph 34.0 kmh 22.0 mph35.4 kmh 29.94 in1013.9 mb 0.00 in0.0 mm 0.00 in0.0 mm 0.00 in0.0 mm
07:13 AM 29.5°F-1.4°C 29.0°F-1.7°C 100% 21.0 mph 33.8 kmh 21.6 mph34.8 kmh 29.94 in1013.9 mb 0.00 in0.0 mm 0.00 in0.0 mm 0.00 in0.0 mm
07:12 AM 29.3°F-1.5°C 29.0°F-1.7°C 100% 21.0 mph 33.8 kmh 21.5 mph34.6 kmh 29.94 in1013.9 mb 0.00 in0.0 mm 0.00 in0.0 mm 0.00 in0.0 mm
07:11 AM 29.7°F-1.3°C 30.0°F-1.1°C 100% 20.2 mph 32.5 kmh 20.4 mph32.8 kmh 29.94 in1013.9 mb 0.00 in0.0 mm 0.00 in0.0 mm 0.00 in0.0 mm
07:10 AM 29.7°F-1.3°C 30.0°F-1.1°C 100% 19.9 mph N32.0 kmh N 19.9 mph32.0 kmh 29.94 in1013.9 mb 0.00 in0.0 mm 0.00 in0.0 mm 0.00 in0.0 mm
07:09 AM 29.7°F-1.3°C 30.0°F-1.1°C 100% 19.9 mph N32.0 kmh N 19.9 mph32.0 kmh 29.94 in1013.9 mb 0.00 in0.0 mm 0.00 in0.0 mm 0.00 in0.0 mm
07:08 AM 29.7°F-1.3°C 30.0°F-1.1°C 100% 19.9 mph E32.0 kmh E 19.9 mph32.0 kmh 29.94 in1013.9 mb 0.00 in0.0 mm 0.00 in0.0 mm 0.00 in0.0 mm
07:07 AM 29.5°F-1.4°C 29.0°F-1.7°C 100% 20.1 mph E32.3 kmh E 20.2 mph32.5 kmh 29.94 in1013.9 mb 0.00 in0.0 mm 0.00 in0.0 mm 0.00 in0.0 mm
07:06 AM 29.7°F-1.3°C 30.0°F-1.1°C 100% 20.3 mph E32.7 kmh E 20.5 mph33.0 kmh 29.94 in1013.9 mb 0.00 in0.0 mm 0.00 in0.0 mm 0.00 in0.0 mm
07:05 AM 29.7°F-1.3°C 30.0°F-1.1°C 100% 20.7 mph ENE33.3 kmh ENE 21.2 mph34.1 kmh 29.93 in1013.5 mb 0.00 in0.0 mm 0.00 in0.0 mm 0.00 in0.0 mm
07:04 AM 29.7°F-1.3°C 30.0°F-1.1°C 100% 20.7 mph E33.3 kmh E 19.9 mph32.0 kmh 29.93 in1013.5 mb 0.00 in0.0 mm 0.00 in0.0 mm 0.00 in0.0 mm
07:03 AM 29.7°F-1.3°C 30.0°F-1.1°C 100% 20.0 mph E32.2 kmh E 20.1 mph32.3 kmh 29.93 in1013.5 mb 0.00 in0.0 mm 0.00 in0.0 mm 0.00 in0.0 mm
07:02 AM 29.7°F-1.3°C 30.0°F-1.1°C 100% 20.2 mph ESE32.5 kmh ESE 20.4 mph32.8 kmh 29.93 in1013.5 mb 0.00 in0.0 mm 0.00 in0.0 mm 0.00 in0.0 mm
07:01 AM 29.7°F-1.3°C 30.0°F-1.1°C 100% 20.2 mph ESE32.5 kmh ESE 20.4 mph32.8 kmh 29.94 in1013.9 mb 0.00 in0.0 mm 0.00 in0.0 mm 0.00 in0.0 mm
07:00 AM 29.7°F-1.3°C 30.0°F-1.1°C 100% 20.1 mph E32.3 kmh E 20.2 mph32.5 kmh 29.94 in1013.9 mb 0.00 in0.0 mm 0.00 in0.0 mm 0.00 in0.0 mm
06:59 AM 29.7°F-1.3°C 30.0°F-1.1°C 100% 20.2 mph SE32.5 kmh SE 20.4 mph32.8 kmh 29.94 in1013.9 mb 0.00 in0.0 mm 0.00 in0.0 mm 0.00 in0.0 mm
06:58 AM 29.7°F-1.3°C 30.0°F-1.1°C 100% 20.4 mph E32.8 kmh E 20.7 mph33.3 kmh 29.94 in1013.9 mb 0.00 in0.0 mm 0.00 in0.0 mm 0.00 in0.0 mm
06:57 AM 29.7°F-1.3°C 30.0°F-1.1°C 100% 20.4 mph E32.8 kmh E 20.7 mph33.3 kmh 29.94 in1013.9 mb 0.00 in0.0 mm 0.00 in0.0 mm 0.00 in0.0 mm
06:56 AM 29.7°F-1.3°C 30.0°F-1.1°C 100% 20.5 mph E33.0 kmh E 20.8 mph33.5 kmh 29.94 in1013.9 mb 0.00 in0.0 mm 0.00 in0.0 mm 0.00 in0.0 mm
06:55 AM 29.3°F-1.5°C 29.0°F-1.7°C 100% 20.7 mph ENE33.3 kmh ENE 21.2 mph34.1 kmh 29.94 in1013.9 mb 0.00 in0.0 mm 0.00 in0.0 mm 0.00 in0.0 mm
06:54 AM 29.3°F-1.5°C 29.0°F-1.7°C 100% 20.7 mph ENE33.3 kmh ENE 21.2 mph34.1 kmh 29.94 in1013.9 mb 0.00 in0.0 mm 0.00 in0.0 mm 0.00 in0.0 mm
06:53 AM 29.3°F-1.5°C 29.0°F-1.7°C 100% 21.0 mph E33.8 kmh E 21.6 mph34.8 kmh 29.94 in1013.9 mb 0.00 in0.0 mm 0.00 in0.0 mm 0.00 in0.0 mm
06:52 AM 29.1°F-1.6°C 29.0°F-1.7°C 100% 20.4 mph ESE32.8 kmh ESE 20.6 mph33.2 kmh 29.94 in1013.9 mb 0.00 in0.0 mm 0.00 in0.0 mm 0.00 in0.0 mm
06:51 AM 29.1°F-1.6°C 29.0°F-1.7°C 100% 20.4 mph ENE32.8 kmh ENE 20.2 mph32.5 kmh 29.93 in1013.5 mb 0.00 in0.0 mm 0.00 in0.0 mm 0.00 in0.0 mm
06:50 AM 28.9°F-1.7°C 29.0°F-1.7°C 100% 20.1 mph ESE32.3 kmh ESE 20.4 mph32.8 kmh 29.94 in1013.9 mb 0.00 in0.0 mm 0.00 in0.0 mm 0.00 in0.0 mm
06:49 AM 28.9°F-1.7°C 29.0°F-1.7°C 100% 20.2 mph ESE32.5 kmh ESE 20.4 mph32.8 kmh 29.94 in1013.9 mb 0.00 in0.0 mm 0.00 in0.0 mm 0.00 in0.0 mm
06:48 AM 28.9°F-1.7°C 29.0°F-1.7°C 100% 20.7 mph E33.3 kmh E 21.2 mph34.1 kmh 29.94 in1013.9 mb 0.00 in0.0 mm 0.00 in0.0 mm 0.00 in0.0 mm
06:47 AM 28.8°F-1.8°C 29.0°F-1.7°C 100% 20.7 mph E33.3 kmh E 20.8 mph33.5 kmh 29.94 in1013.9 mb 0.00 in0.0 mm 0.00 in0.0 mm 0.00 in0.0 mm
06:46 AM 28.8°F-1.8°C 29.0°F-1.7°C 100% 20.6 mph ENE33.2 kmh ENE 21.0 mph33.8 kmh 29.94 in1013.9 mb 0.00 in0.0 mm 0.00 in0.0 mm 0.00 in0.0 mm
06:45 AM 28.9°F-1.7°C 29.0°F-1.7°C 100% 20.7 mph E33.3 kmh E 21.1 mph34.0 kmh 29.94 in1013.9 mb 0.00 in0.0 mm 0.00 in0.0 mm 0.00 in0.0 mm
06:44 AM 29.1°F-1.6°C 29.0°F-1.7°C 100% 20.1 mph E32.3 kmh E 20.3 mph32.7 kmh 29.93 in1013.5 mb 0.00 in0.0 mm 0.00 in0.0 mm 0.00 in0.0 mm
06:43 AM 29.1°F-1.6°C 29.0°F-1.7°C 100% 19.9 mph 32.0 kmh 19.9 mph32.0 kmh 29.93 in1013.5 mb 0.00 in0.0 mm 0.00 in0.0 mm 0.00 in0.0 mm
06:42 AM 29.1°F-1.6°C 29.0°F-1.7°C 100% 20.2 mph 32.5 kmh 20.3 mph32.7 kmh 29.93 in1013.5 mb 0.00 in0.0 mm 0.00 in0.0 mm 0.00 in0.0 mm
06:41 AM 29.1°F-1.6°C 29.0°F-1.7°C 100% 20.9 mph 33.6 kmh 21.5 mph34.6 kmh 29.93 in1013.5 mb 0.00 in0.0 mm 0.00 in0.0 mm 0.00 in0.0 mm
06:40 AM 29.3°F-1.5°C 29.0°F-1.7°C 100% 21.3 mph 34.3 kmh 22.1 mph35.6 kmh 29.93 in1013.5 mb 0.00 in0.0 mm 0.00 in0.0 mm 0.00 in0.0 mm
06:39 AM 29.3°F-1.5°C 29.0°F-1.7°C 100% 21.2 mph 34.1 kmh 21.9 mph35.2 kmh 29.93 in1013.5 mb 0.00 in0.0 mm 0.00 in0.0 mm 0.00 in0.0 mm
06:38 AM 29.5°F-1.4°C 29.0°F-1.7°C 100% 21.1 mph 34.0 kmh 21.8 mph35.1 kmh 29.93 in1013.5 mb 0.00 in0.0 mm 0.00 in0.0 mm 0.00 in0.0 mm
06:37 AM 29.5°F-1.4°C 29.0°F-1.7°C 100% 20.2 mph 32.5 kmh 20.3 mph32.7 kmh 29.93 in1013.5 mb 0.00 in0.0 mm 0.00 in0.0 mm 0.00 in0.0 mm
06:36 AM 29.7°F-1.3°C 30.0°F-1.1°C 100% 20.6 mph 33.2 kmh 21.0 mph33.8 kmh 29.93 in1013.5 mb 0.00 in0.0 mm 0.00 in0.0 mm 0.00 in0.0 mm
06:35 AM 29.7°F-1.3°C 30.0°F-1.1°C 100% 20.6 mph 33.2 kmh 21.0 mph33.8 kmh 29.93 in1013.5 mb 0.00 in0.0 mm 0.00 in0.0 mm 0.00 in0.0 mm
06:34 AM 29.8°F-1.2°C 30.0°F-1.1°C 100% 21.3 mph 34.3 kmh 22.2 mph35.7 kmh 29.93 in1013.5 mb 0.00 in0.0 mm 0.00 in0.0 mm 0.00 in0.0 mm
06:33 AM 29.8°F-1.2°C 30.0°F-1.1°C 100% 20.2 mph NE32.5 kmh NE 20.4 mph32.8 kmh 29.93 in1013.5 mb 0.00 in0.0 mm 0.00 in0.0 mm 0.00 in0.0 mm
06:32 AM 29.8°F-1.2°C 30.0°F-1.1°C 100% 19.9 mph SE32.0 kmh SE 19.9 mph32.0 kmh 29.93 in1013.5 mb 0.00 in0.0 mm 0.00 in0.0 mm 0.00 in0.0 mm
06:31 AM 29.8°F-1.2°C 30.0°F-1.1°C 100% 19.9 mph E32.0 kmh E 19.9 mph32.0 kmh 29.93 in1013.5 mb 0.00 in0.0 mm 0.00 in0.0 mm 0.00 in0.0 mm
06:30 AM 29.8°F-1.2°C 30.0°F-1.1°C 100% 19.9 mph E32.0 kmh E 19.9 mph32.0 kmh 29.93 in1013.5 mb 0.00 in0.0 mm 0.00 in0.0 mm 0.00 in0.0 mm
06:29 AM 29.8°F-1.2°C 30.0°F-1.1°C 100% 19.9 mph E32.0 kmh E 19.9 mph32.0 kmh 29.93 in1013.5 mb 0.00 in0.0 mm 0.00 in0.0 mm 0.00 in0.0 mm
06:28 AM 29.8°F-1.2°C 30.0°F-1.1°C 100% 19.9 mph E32.0 kmh E 19.9 mph32.0 kmh 29.93 in1013.5 mb 0.00 in0.0 mm 0.00 in0.0 mm 0.00 in0.0 mm
06:27 AM 30.0°F-1.1°C 30.0°F-1.1°C 100% 19.9 mph E32.0 kmh E 19.9 mph32.0 kmh 29.93 in1013.5 mb 0.00 in0.0 mm 0.00 in0.0 mm 0.00 in0.0 mm
06:26 AM 29.8°F-1.2°C 30.0°F-1.1°C 100% 19.9 mph E32.0 kmh E 19.9 mph32.0 kmh 29.92 in1013.2 mb 0.00 in0.0 mm 0.00 in0.0 mm 0.00 in0.0 mm
06:25 AM 29.8°F-1.2°C 30.0°F-1.1°C 100% 19.9 mph E32.0 kmh E 19.9 mph32.0 kmh 29.93 in1013.5 mb 0.00 in0.0 mm 0.00 in0.0 mm 0.00 in0.0 mm
06:24 AM 29.7°F-1.3°C 30.0°F-1.1°C 100% 19.9 mph E32.0 kmh E 19.9 mph32.0 kmh 29.93 in1013.5 mb 0.00 in0.0 mm 0.00 in0.0 mm 0.00 in0.0 mm
06:23 AM 29.8°F-1.2°C 30.0°F-1.1°C 100% 19.9 mph E32.0 kmh E 19.9 mph32.0 kmh 29.92 in1013.2 mb 0.00 in0.0 mm 0.00 in0.0 mm 0.00 in0.0 mm
06:22 AM 29.8°F-1.2°C 30.0°F-1.1°C 100% 19.9 mph ENE32.0 kmh ENE 19.9 mph32.0 kmh 29.92 in1013.2 mb 0.00 in0.0 mm 0.00 in0.0 mm 0.00 in0.0 mm
06:21 AM 29.7°F-1.3°C 30.0°F-1.1°C 100% 19.9 mph E32.0 kmh E 19.9 mph32.0 kmh 29.92 in1013.2 mb 0.00 in0.0 mm 0.00 in0.0 mm 0.00 in0.0 mm
06:20 AM 29.5°F-1.4°C 29.0°F-1.7°C 100% 20.1 mph E32.3 kmh E 20.3 mph32.7 kmh 29.92 in1013.2 mb 0.00 in0.0 mm 0.00 in0.0 mm 0.00 in0.0 mm
06:19 AM 29.5°F-1.4°C 29.0°F-1.7°C 100% 20.1 mph E32.3 kmh E 20.3 mph32.7 kmh 29.92 in1013.2 mb 0.00 in0.0 mm 0.00 in0.0 mm 0.00 in0.0 mm
06:18 AM 29.7°F-1.3°C 30.0°F-1.1°C 100% 21.3 mph ENE34.3 kmh ENE 22.1 mph35.6 kmh 29.92 in1013.2 mb 0.00 in0.0 mm 0.00 in0.0 mm 0.00 in0.0 mm
06:17 AM 29.5°F-1.4°C 29.0°F-1.7°C 100% 21.3 mph E34.3 kmh E 22.5 mph36.2 kmh 29.92 in1013.2 mb 0.00 in0.0 mm 0.00 in0.0 mm 0.00 in0.0 mm
06:16 AM 29.5°F-1.4°C 29.0°F-1.7°C 100% 21.6 mph SE34.8 kmh SE 22.5 mph36.2 kmh 29.92 in1013.2 mb 0.00 in0.0 mm 0.00 in0.0 mm 0.00 in0.0 mm
06:15 AM 29.5°F-1.4°C 29.0°F-1.7°C 100% 21.3 mph SE34.3 kmh SE 22.0 mph35.4 kmh 29.92 in1013.2 mb 0.00 in0.0 mm 0.00 in0.0 mm 0.00 in0.0 mm
06:14 AM 29.5°F-1.4°C 29.0°F-1.7°C 100% 21.3 mph SE34.3 kmh SE 22.0 mph35.4 kmh 29.92 in1013.2 mb 0.00 in0.0 mm 0.00 in0.0 mm 0.00 in0.0 mm
06:13 AM 29.5°F-1.4°C 29.0°F-1.7°C 100% 21.2 mph E34.1 kmh E 21.8 mph35.1 kmh 29.92 in1013.2 mb 0.00 in0.0 mm 0.00 in0.0 mm 0.00 in0.0 mm
06:12 AM 29.7°F-1.3°C 30.0°F-1.1°C 100% 21.1 mph E34.0 kmh E 21.7 mph34.9 kmh 29.92 in1013.2 mb 0.00 in0.0 mm 0.00 in0.0 mm 0.00 in0.0 mm
06:11 AM 29.5°F-1.4°C 29.0°F-1.7°C 100% 21.1 mph ESE34.0 kmh ESE 21.8 mph35.1 kmh 29.92 in1013.2 mb 0.00 in0.0 mm 0.00 in0.0 mm 0.00 in0.0 mm
06:10 AM 29.5°F-1.4°C 29.0°F-1.7°C 100% 21.1 mph E34.0 kmh E 21.7 mph34.9 kmh 29.92 in1013.2 mb 0.00 in0.0 mm 0.00 in0.0 mm 0.00 in0.0 mm
06:09 AM 29.5°F-1.4°C 29.0°F-1.7°C 100% 21.1 mph SE34.0 kmh SE 21.7 mph34.9 kmh 29.92 in1013.2 mb 0.00 in0.0 mm 0.00 in0.0 mm 0.00 in0.0 mm
06:08 AM 29.7°F-1.3°C 30.0°F-1.1°C 100% 20.9 mph E33.6 kmh E 21.5 mph34.6 kmh 29.92 in1013.2 mb 0.00 in0.0 mm 0.00 in0.0 mm 0.00 in0.0 mm
06:07 AM 29.7°F-1.3°C 30.0°F-1.1°C 100% 20.8 mph ESE33.5 kmh ESE 21.3 mph34.3 kmh 29.92 in1013.2 mb 0.00 in0.0 mm 0.00 in0.0 mm 0.00 in0.0 mm
06:06 AM 29.7°F-1.3°C 30.0°F-1.1°C 100% 20.8 mph E33.5 kmh E 21.1 mph34.0 kmh 29.92 in1013.2 mb 0.00 in0.0 mm 0.00 in0.0 mm 0.00 in0.0 mm
06:05 AM 29.7°F-1.3°C 30.0°F-1.1°C 100% 20.6 mph ESE33.2 kmh ESE 21.0 mph33.8 kmh 29.92 in1013.2 mb 0.00 in0.0 mm 0.00 in0.0 mm 0.00 in0.0 mm
06:04 AM 29.7°F-1.3°C 30.0°F-1.1°C 100% 20.6 mph ESE33.2 kmh ESE 21.0 mph33.8 kmh 29.92 in1013.2 mb 0.00 in0.0 mm 0.00 in0.0 mm 0.00 in0.0 mm
06:03 AM 29.7°F-1.3°C 30.0°F-1.1°C 100% 20.5 mph E33.0 kmh E 20.8 mph33.5 kmh 29.92 in1013.2 mb 0.00 in0.0 mm 0.00 in0.0 mm 0.00 in0.0 mm
06:02 AM 29.7°F-1.3°C 30.0°F-1.1°C 100% 20.5 mph E33.0 kmh E 21.0 mph33.8 kmh 29.91 in1012.9 mb 0.00 in0.0 mm 0.00 in0.0 mm 0.00 in0.0 mm
06:01 AM 29.7°F-1.3°C 30.0°F-1.1°C 100% 20.4 mph ESE32.8 kmh ESE 20.7 mph33.3 kmh 29.91 in1012.9 mb 0.00 in0.0 mm 0.00 in0.0 mm 0.00 in0.0 mm
06:00 AM 29.7°F-1.3°C 30.0°F-1.1°C 100% 20.4 mph E32.8 kmh E 20.7 mph33.3 kmh 29.91 in1012.9 mb 0.00 in0.0 mm 0.00 in0.0 mm 0.00 in0.0 mm
05:59 AM 29.7°F-1.3°C 30.0°F-1.1°C 100% 20.4 mph ESE32.8 kmh ESE 20.2 mph32.5 kmh 29.91 in1012.9 mb 0.00 in0.0 mm 0.00 in0.0 mm 0.00 in0.0 mm
05:58 AM 29.7°F-1.3°C 30.0°F-1.1°C 100% 19.9 mph ESE32.0 kmh ESE 19.9 mph32.0 kmh 29.91 in1012.9 mb 0.00 in0.0 mm 0.00 in0.0 mm 0.00 in0.0 mm
05:57 AM 29.8°F-1.2°C 30.0°F-1.1°C 100% 19.9 mph ENE32.0 kmh ENE 19.9 mph32.0 kmh 29.92 in1013.2 mb 0.00 in0.0 mm 0.00 in0.0 mm 0.00 in0.0 mm
05:56 AM 29.7°F-1.3°C 30.0°F-1.1°C 100% 19.9 mph 32.0 kmh 19.9 mph32.0 kmh 29.92 in1013.2 mb 0.00 in0.0 mm 0.00 in0.0 mm 0.00 in0.0 mm
05:55 AM 29.8°F-1.2°C 30.0°F-1.1°C 100% 19.9 mph 32.0 kmh 19.9 mph32.0 kmh 29.92 in1013.2 mb 0.00 in0.0 mm 0.00 in0.0 mm 0.00 in0.0 mm
05:54 AM 29.8°F-1.2°C 30.0°F-1.1°C 100% 20.0 mph NNE32.2 kmh NNE 20.0 mph32.2 kmh 29.92 in1013.2 mb 0.00 in0.0 mm 0.00 in0.0 mm 0.00 in0.0 mm
05:53 AM 30.0°F-1.1°C 30.0°F-1.1°C 100% 20.7 mph NE33.3 kmh NE 21.1 mph34.0 kmh 29.91 in1012.9 mb 0.00 in0.0 mm 0.00 in0.0 mm 0.00 in0.0 mm
05:52 AM 30.0°F-1.1°C 30.0°F-1.1°C 100% 21.0 mph NE33.8 kmh NE 21.7 mph34.9 kmh 29.91 in1012.9 mb 0.00 in0.0 mm 0.00 in0.0 mm 0.00 in0.0 mm
05:51 AM 30.2°F-1.0°C 30.0°F-1.1°C 100% 21.1 mph NNE34.0 kmh NNE 21.8 mph35.1 kmh 29.91 in1012.9 mb 0.00 in0.0 mm 0.00 in0.0 mm 0.00 in0.0 mm
05:50 AM 30.2°F-1.0°C 30.0°F-1.1°C 100% 21.6 mph NNE34.8 kmh NNE 22.5 mph36.2 kmh 29.91 in1012.9 mb 0.00 in0.0 mm 0.00 in0.0 mm 0.00 in0.0 mm
05:49 AM 30.0°F-1.1°C 30.0°F-1.1°C 100% 21.6 mph NNE34.8 kmh NNE 22.5 mph36.2 kmh 29.91 in1012.9 mb 0.00 in0.0 mm 0.00 in0.0 mm 0.00 in0.0 mm
05:48 AM 30.0°F-1.1°C 30.0°F-1.1°C 100% 21.4 mph 34.4 kmh 22.3 mph35.9 kmh 29.91 in1012.9 mb 0.00 in0.0 mm 0.00 in0.0 mm 0.00 in0.0 mm
05:47 AM 30.0°F-1.1°C 30.0°F-1.1°C 100% 20.6 mph 33.2 kmh 21.0 mph33.8 kmh 29.91 in1012.9 mb 0.00 in0.0 mm 0.00 in0.0 mm 0.00 in0.0 mm
05:46 AM 29.8°F-1.2°C 30.0°F-1.1°C 100% 19.9 mph 32.0 kmh 19.9 mph32.0 kmh 29.91 in1012.9 mb 0.00 in0.0 mm 0.00 in0.0 mm 0.00 in0.0 mm
05:45 AM 29.7°F-1.3°C 30.0°F-1.1°C 100% 19.9 mph E32.0 kmh E 19.9 mph32.0 kmh 29.92 in1013.2 mb 0.00 in0.0 mm 0.00 in0.0 mm 0.00 in0.0 mm
05:44 AM 29.8°F-1.2°C 30.0°F-1.1°C 100% 19.9 mph E32.0 kmh E 19.9 mph32.0 kmh 29.91 in1012.9 mb 0.00 in0.0 mm 0.00 in0.0 mm 0.00 in0.0 mm
05:43 AM 29.8°F-1.2°C 30.0°F-1.1°C 100% 19.9 mph NNE32.0 kmh NNE 19.9 mph32.0 kmh 29.91 in1012.9 mb 0.00 in0.0 mm 0.00 in0.0 mm 0.00 in0.0 mm
05:42 AM 29.8°F-1.2°C 30.0°F-1.1°C 100% 19.9 mph 32.0 kmh 19.9 mph32.0 kmh 29.92 in1013.2 mb 0.00 in0.0 mm 0.00 in0.0 mm 0.00 in0.0 mm
05:41 AM 29.8°F-1.2°C 30.0°F-1.1°C 100% 19.9 mph NNE32.0 kmh NNE 19.9 mph32.0 kmh 29.92 in1013.2 mb 0.00 in0.0 mm 0.00 in0.0 mm 0.00 in0.0 mm
05:40 AM 30.0°F-1.1°C 30.0°F-1.1°C 100% 19.9 mph N32.0 kmh N 19.9 mph32.0 kmh 29.92 in1013.2 mb 0.00 in0.0 mm 0.00 in0.0 mm 0.00 in0.0 mm
05:39 AM 30.0°F-1.1°C 30.0°F-1.1°C 100% 19.9 mph N32.0 kmh N 19.9 mph32.0 kmh 29.92 in1013.2 mb 0.00 in0.0 mm 0.00 in0.0 mm 0.00 in0.0 mm
05:38 AM 30.0°F-1.1°C 30.0°F-1.1°C 100% 19.9 mph N32.0 kmh N 19.9 mph32.0 kmh 29.92 in1013.2 mb 0.00 in0.0 mm 0.00 in0.0 mm 0.00 in0.0 mm
05:37 AM 30.2°F-1.0°C 30.0°F-1.1°C 100% 19.9 mph N32.0 kmh N 19.9 mph32.0 kmh 29.92 in1013.2 mb 0.00 in0.0 mm 0.00 in0.0 mm 0.00 in0.0 mm
05:36 AM 30.2°F-1.0°C 30.0°F-1.1°C 100% 19.9 mph 32.0 kmh 19.9 mph32.0 kmh 29.92 in1013.2 mb 0.00 in0.0 mm 0.00 in0.0 mm 0.00 in0.0 mm
05:35 AM 30.4°F-0.9°C 30.0°F-1.1°C 100% 19.9 mph 32.0 kmh 19.9 mph32.0 kmh 29.91 in1012.9 mb 0.00 in0.0 mm 0.00 in0.0 mm 0.00 in0.0 mm
05:34 AM 30.4°F-0.9°C 30.0°F-1.1°C 100% 19.9 mph 32.0 kmh 19.9 mph32.0 kmh 29.91 in1012.9 mb 0.00 in0.0 mm 0.00 in0.0 mm 0.00 in0.0 mm
05:33 AM 30.4°F-0.9°C 30.0°F-1.1°C 100% 19.9 mph N32.0 kmh N 19.9 mph32.0 kmh 29.91 in1012.9 mb 0.00 in0.0 mm 0.00 in0.0 mm 0.00 in0.0 mm
05:32 AM 30.2°F-1.0°C 30.0°F-1.1°C 100% 19.9 mph NE32.0 kmh NE 19.9 mph32.0 kmh 29.91 in1012.9 mb 0.00 in0.0 mm 0.00 in0.0 mm 0.00 in0.0 mm
05:31 AM 30.0°F-1.1°C 30.0°F-1.1°C 100% 19.9 mph NE32.0 kmh NE 19.9 mph32.0 kmh 29.92 in1013.2 mb 0.00 in0.0 mm 0.00 in0.0 mm 0.00 in0.0 mm
05:30 AM 30.0°F-1.1°C 30.0°F-1.1°C 100% 19.9 mph NE32.0 kmh NE 19.9 mph32.0 kmh 29.92 in1013.2 mb 0.00 in0.0 mm 0.00 in0.0 mm 0.00 in0.0 mm
05:29 AM 30.2°F-1.0°C 30.0°F-1.1°C 100% 19.9 mph NE32.0 kmh NE 19.9 mph32.0 kmh 29.92 in1013.2 mb 0.00 in0.0 mm 0.00 in0.0 mm 0.00 in0.0 mm
05:28 AM 30.2°F-1.0°C 30.0°F-1.1°C 100% 19.9 mph NE32.0 kmh NE 19.9 mph32.0 kmh 29.92 in1013.2 mb 0.00 in0.0 mm 0.00 in0.0 mm 0.00 in0.0 mm
05:27 AM 30.2°F-1.0°C 30.0°F-1.1°C 100% 19.9 mph 32.0 kmh 19.9 mph32.0 kmh 29.91 in1012.9 mb 0.00 in0.0 mm 0.00 in0.0 mm 0.00 in0.0 mm
05:26 AM 30.2°F-1.0°C 30.0°F-1.1°C 100% 19.9 mph 32.0 kmh 19.9 mph32.0 kmh 29.91 in1012.9 mb 0.00 in0.0 mm 0.00 in0.0 mm 0.00 in0.0 mm
05:25 AM 30.2°F-1.0°C 30.0°F-1.1°C 100% 19.9 mph 32.0 kmh 19.9 mph32.0 kmh 29.91 in1012.9 mb 0.00 in0.0 mm 0.00 in0.0 mm 0.00 in0.0 mm
05:24 AM 30.4°F-0.9°C 30.0°F-1.1°C 100% 19.9 mph N32.0 kmh N 19.9 mph32.0 kmh 29.91 in1012.9 mb 0.00 in0.0 mm 0.00 in0.0 mm 0.00 in0.0 mm
05:23 AM 30.4°F-0.9°C 30.0°F-1.1°C 100% 19.9 mph 32.0 kmh 19.9 mph32.0 kmh 29.91 in1012.9 mb 0.00 in0.0 mm 0.00 in0.0 mm 0.00 in0.0 mm
05:22 AM 30.4°F-0.9°C 30.0°F-1.1°C 100% 19.9 mph 32.0 kmh 19.9 mph32.0 kmh 29.91 in1012.9 mb 0.00 in0.0 mm 0.00 in0.0 mm 0.00 in0.0 mm
05:21 AM 30.6°F-0.8°C 31.0°F-0.6°C 100% 19.9 mph 32.0 kmh 19.9 mph32.0 kmh 29.91 in1012.9 mb 0.00 in0.0 mm 0.00 in0.0 mm 0.00 in0.0 mm
05:20 AM 30.6°F-0.8°C 31.0°F-0.6°C 100% 19.9 mph 32.0 kmh 19.9 mph32.0 kmh 29.91 in1012.9 mb 0.00 in0.0 mm 0.00 in0.0 mm 0.00 in0.0 mm
05:19 AM 30.6°F-0.8°C 31.0°F-0.6°C 100% 19.9 mph 32.0 kmh 19.9 mph32.0 kmh 29.91 in1012.9 mb 0.00 in0.0 mm 0.00 in0.0 mm 0.00 in0.0 mm
05:18 AM 30.6°F-0.8°C 31.0°F-0.6°C 100% 19.9 mph 32.0 kmh 19.9 mph32.0 kmh 29.91 in1012.9 mb 0.00 in0.0 mm 0.00 in0.0 mm 0.00 in0.0 mm
05:17 AM 30.6°F-0.8°C 31.0°F-0.6°C 100% 19.9 mph 32.0 kmh 19.9 mph32.0 kmh 29.91 in1012.9 mb 0.00 in0.0 mm 0.00 in0.0 mm 0.00 in0.0 mm
05:16 AM 30.7°F-0.7°C 31.0°F-0.6°C 100% 19.9 mph 32.0 kmh 19.9 mph32.0 kmh 29.91 in1012.9 mb 0.00 in0.0 mm 0.00 in0.0 mm 0.00 in0.0 mm
05:15 AM 30.7°F-0.7°C 31.0°F-0.6°C 100% 19.9 mph 32.0 kmh 19.9 mph32.0 kmh 29.91 in1012.9 mb 0.00 in0.0 mm 0.00 in0.0 mm 0.00 in0.0 mm
05:14 AM 30.7°F-0.7°C 31.0°F-0.6°C 100% 19.9 mph 32.0 kmh 19.9 mph32.0 kmh 29.91 in1012.9 mb 0.00 in0.0 mm 0.00 in0.0 mm 0.00 in0.0 mm
05:13 AM 30.9°F-0.6°C 31.0°F-0.6°C 100% 19.9 mph 32.0 kmh 19.9 mph32.0 kmh 29.91 in1012.9 mb 0.00 in0.0 mm 0.00 in0.0 mm 0.00 in0.0 mm
05:12 AM 30.9°F-0.6°C 31.0°F-0.6°C 100% 19.9 mph NNE32.0 kmh NNE 19.9 mph32.0 kmh 29.91 in1012.9 mb 0.00 in0.0 mm 0.00 in0.0 mm 0.00 in0.0 mm
05:11 AM 31.1°F-0.5°C 31.0°F-0.6°C 100% 19.9 mph NNE32.0 kmh NNE 19.9 mph32.0 kmh 29.91 in1012.9 mb 0.00 in0.0 mm 0.00 in0.0 mm 0.00 in0.0 mm
05:10 AM 31.1°F-0.5°C 31.0°F-0.6°C 100% 19.9 mph NE32.0 kmh NE 19.9 mph32.0 kmh 29.91 in1012.9 mb 0.00 in0.0 mm 0.00 in0.0 mm 0.00 in0.0 mm
05:09 AM 31.3°F-0.4°C 31.0°F-0.6°C 100% 19.9 mph NE32.0 kmh NE 19.9 mph32.0 kmh 29.91 in1012.9 mb 0.00 in0.0 mm 0.00 in0.0 mm 0.00 in0.0 mm
05:08 AM 31.5°F-0.3°C 31.0°F-0.6°C 100% 19.9 mph NNE32.0 kmh NNE 19.9 mph32.0 kmh 29.91 in1012.9 mb 0.00 in0.0 mm 0.00 in0.0 mm 0.00 in0.0 mm
05:07 AM 31.5°F-0.3°C 31.0°F-0.6°C 100% 19.9 mph NE32.0 kmh NE 19.9 mph32.0 kmh 29.91 in1012.9 mb 0.00 in0.0 mm 0.00 in0.0 mm 0.00 in0.0 mm
05:06 AM 31.5°F-0.3°C 31.0°F-0.6°C 100% 20.7 mph NE33.3 kmh NE 21.1 mph34.0 kmh 29.91 in1012.9 mb 0.00 in0.0 mm 0.00 in0.0 mm 0.00 in0.0 mm
05:05 AM 31.5°F-0.3°C 31.0°F-0.6°C 100% 20.7 mph NNE33.3 kmh NNE 21.0 mph33.8 kmh 29.91 in1012.9 mb 0.00 in0.0 mm 0.00 in0.0 mm 0.00 in0.0 mm
05:04 AM 31.5°F-0.3°C 31.0°F-0.6°C 100% 20.5 mph NE33.0 kmh NE 20.8 mph33.5 kmh 29.91 in1012.9 mb 0.00 in0.0 mm 0.00 in0.0 mm 0.00 in0.0 mm
05:03 AM 31.3°F-0.4°C 31.0°F-0.6°C 100% 20.5 mph ENE33.0 kmh ENE 20.8 mph33.5 kmh 29.91 in1012.9 mb 0.00 in0.0 mm 0.00 in0.0 mm 0.00 in0.0 mm
05:02 AM 31.3°F-0.4°C 31.0°F-0.6°C 100% 20.7 mph NE33.3 kmh NE 21.1 mph34.0 kmh 29.91 in1012.9 mb 0.00 in0.0 mm 0.00 in0.0 mm 0.00 in0.0 mm
05:01 AM 31.1°F-0.5°C 31.0°F-0.6°C 100% 20.5 mph 33.0 kmh 20.9 mph33.6 kmh 29.91 in1012.9 mb 0.00 in0.0 mm 0.00 in0.0 mm 0.00 in0.0 mm
05:00 AM 31.3°F-0.4°C 31.0°F-0.6°C 100% 20.8 mph ENE33.5 kmh ENE 21.5 mph34.6 kmh 29.91 in1012.9 mb 0.00 in0.0 mm 0.00 in0.0 mm 0.00 in0.0 mm
04:59 AM 31.1°F-0.5°C 31.0°F-0.6°C 100% 20.8 mph ENE33.5 kmh ENE 21.5 mph34.6 kmh 29.91 in1012.9 mb 0.00 in0.0 mm 0.00 in0.0 mm 0.00 in0.0 mm
04:58 AM 31.1°F-0.5°C 31.0°F-0.6°C 100% 20.3 mph E32.7 kmh E 20.6 mph33.2 kmh 29.91 in1012.9 mb 0.00 in0.0 mm 0.00 in0.0 mm 0.00 in0.0 mm
04:57 AM 31.1°F-0.5°C 31.0°F-0.6°C 100% 20.3 mph E32.7 kmh E 20.5 mph33.0 kmh 29.91 in1012.9 mb 0.00 in0.0 mm 0.00 in0.0 mm 0.00 in0.0 mm
04:56 AM 31.1°F-0.5°C 31.0°F-0.6°C 100% 20.4 mph E32.8 kmh E 20.7 mph33.3 kmh 29.91 in1012.9 mb 0.00 in0.0 mm 0.00 in0.0 mm 0.00 in0.0 mm
04:55 AM 31.1°F-0.5°C 31.0°F-0.6°C 100% 20.5 mph ENE33.0 kmh ENE 20.7 mph33.3 kmh 29.91 in1012.9 mb 0.00 in0.0 mm 0.00 in0.0 mm 0.00 in0.0 mm
04:54 AM 31.1°F-0.5°C 31.0°F-0.6°C 100% 20.5 mph ENE33.0 kmh ENE 20.7 mph33.3 kmh 29.91 in1012.9 mb 0.00 in0.0 mm 0.00 in0.0 mm 0.00 in0.0 mm
04:53 AM 30.9°F-0.6°C 31.0°F-0.6°C 100% 20.8 mph ESE33.5 kmh ESE 21.3 mph34.3 kmh 29.91 in1012.9 mb 0.00 in0.0 mm 0.00 in0.0 mm 0.00 in0.0 mm
04:52 AM 30.9°F-0.6°C 31.0°F-0.6°C 100% 20.5 mph E33.0 kmh E 20.8 mph33.5 kmh 29.91 in1012.9 mb 0.00 in0.0 mm 0.00 in0.0 mm 0.00 in0.0 mm
04:51 AM 30.9°F-0.6°C 31.0°F-0.6°C 100% 20.6 mph E33.2 kmh E 21.0 mph33.8 kmh 29.91 in1012.9 mb 0.00 in0.0 mm 0.00 in0.0 mm 0.00 in0.0 mm
04:50 AM 30.9°F-0.6°C 31.0°F-0.6°C 100% 20.6 mph E33.2 kmh E 21.1 mph34.0 kmh 29.91 in1012.9 mb 0.00 in0.0 mm 0.00 in0.0 mm 0.00 in0.0 mm
04:49 AM 30.7°F-0.7°C 31.0°F-0.6°C 100% 20.8 mph E33.5 kmh E 21.3 mph34.3 kmh 29.91 in1012.9 mb 0.00 in0.0 mm 0.00 in0.0 mm 0.00 in0.0 mm
04:48 AM 30.7°F-0.7°C 31.0°F-0.6°C 100% 20.8 mph E33.5 kmh E 20.6 mph33.2 kmh 29.91 in1012.9 mb 0.00 in0.0 mm 0.00 in0.0 mm 0.00 in0.0 mm
04:47 AM 30.7°F-0.7°C 31.0°F-0.6°C 100% 20.3 mph ESE32.7 kmh ESE 20.8 mph33.5 kmh 29.91 in1012.9 mb 0.00 in0.0 mm 0.00 in0.0 mm 0.00 in0.0 mm
04:46 AM 30.9°F-0.6°C 31.0°F-0.6°C 100% 21.0 mph E33.8 kmh E 21.7 mph34.9 kmh 29.91 in1012.9 mb 0.00 in0.0 mm 0.00 in0.0 mm 0.00 in0.0 mm
04:45 AM 30.9°F-0.6°C 31.0°F-0.6°C 100% 20.9 mph E33.6 kmh E 21.5 mph34.6 kmh 29.91 in1012.9 mb 0.00 in0.0 mm 0.00 in0.0 mm 0.00 in0.0 mm
04:44 AM 30.7°F-0.7°C 31.0°F-0.6°C 100% 20.9 mph E33.6 kmh E 21.5 mph34.6 kmh 29.91 in1012.9 mb 0.00 in0.0 mm 0.00 in0.0 mm 0.00 in0.0 mm
04:43 AM 30.7°F-0.7°C 31.0°F-0.6°C 100% 19.9 mph ESE32.0 kmh ESE 19.9 mph32.0 kmh 29.91 in1012.9 mb 0.00 in0.0 mm 0.00 in0.0 mm 0.00 in0.0 mm
04:42 AM 30.9°F-0.6°C 31.0°F-0.6°C 100% 19.9 mph E32.0 kmh E 19.9 mph32.0 kmh 29.91 in1012.9 mb 0.00 in0.0 mm 0.00 in0.0 mm 0.00 in0.0 mm
04:41 AM 30.9°F-0.6°C 31.0°F-0.6°C 100% 19.9 mph NE32.0 kmh NE 19.9 mph32.0 kmh 29.91 in1012.9 mb 0.00 in0.0 mm 0.00 in0.0 mm 0.00 in0.0 mm
04:40 AM 30.7°F-0.7°C 31.0°F-0.6°C 100% 19.9 mph 32.0 kmh 19.9 mph32.0 kmh 29.91 in1012.9 mb 0.00 in0.0 mm 0.00 in0.0 mm 0.00 in0.0 mm
04:39 AM 30.9°F-0.6°C 31.0°F-0.6°C 100% 19.9 mph 32.0 kmh 19.9 mph32.0 kmh 29.91 in1012.9 mb 0.00 in0.0 mm 0.00 in0.0 mm 0.00 in0.0 mm
04:38 AM 30.7°F-0.7°C 31.0°F-0.6°C 100% 20.3 mph 32.7 kmh 20.5 mph33.0 kmh 29.91 in1012.9 mb 0.00 in0.0 mm 0.00 in0.0 mm 0.00 in0.0 mm
04:37 AM 30.9°F-0.6°C 31.0°F-0.6°C 100% 21.0 mph 33.8 kmh 21.5 mph34.6 kmh 29.90 in1012.5 mb 0.00 in0.0 mm 0.00 in0.0 mm 0.00 in0.0 mm
04:36 AM 31.1°F-0.5°C 31.0°F-0.6°C 100% 20.4 mph SE32.8 kmh SE 20.7 mph33.3 kmh 29.90 in1012.5 mb 0.00 in0.0 mm 0.00 in0.0 mm 0.00 in0.0 mm
04:35 AM 31.1°F-0.5°C 31.0°F-0.6°C 100% 20.3 mph ESE32.7 kmh ESE 20.6 mph33.2 kmh 29.90 in1012.5 mb 0.00 in0.0 mm 0.00 in0.0 mm 0.00 in0.0 mm
04:34 AM 31.1°F-0.5°C 31.0°F-0.6°C 100% 20.3 mph SE32.7 kmh SE 21.0 mph33.8 kmh 29.90 in1012.5 mb 0.00 in0.0 mm 0.00 in0.0 mm 0.00 in0.0 mm
04:33 AM 31.1°F-0.5°C 31.0°F-0.6°C 100% 20.6 mph ENE33.2 kmh ENE 21.6 mph34.8 kmh 29.91 in1012.9 mb 0.00 in0.0 mm 0.00 in0.0 mm 0.00 in0.0 mm
04:32 AM 30.7°F-0.7°C 31.0°F-0.6°C 100% 21.0 mph SSE33.8 kmh SSE 21.5 mph34.6 kmh 29.91 in1012.9 mb 0.00 in0.0 mm 0.00 in0.0 mm 0.00 in0.0 mm
04:31 AM 30.7°F-0.7°C 31.0°F-0.6°C 100% 19.9 mph NE32.0 kmh NE 19.9 mph32.0 kmh 29.91 in1012.9 mb 0.00 in0.0 mm 0.00 in0.0 mm 0.00 in0.0 mm
04:30 AM 30.7°F-0.7°C 31.0°F-0.6°C 100% 19.9 mph E32.0 kmh E 19.9 mph32.0 kmh 29.91 in1012.9 mb 0.00 in0.0 mm 0.00 in0.0 mm 0.00 in0.0 mm
04:29 AM 30.7°F-0.7°C 31.0°F-0.6°C 100% 19.9 mph NE32.0 kmh NE 19.9 mph32.0 kmh 29.91 in1012.9 mb 0.00 in0.0 mm 0.00 in0.0 mm 0.00 in0.0 mm
04:28 AM 30.7°F-0.7°C 31.0°F-0.6°C 100% 19.9 mph E32.0 kmh E 19.9 mph32.0 kmh 29.91 in1012.9 mb 0.00 in0.0 mm 0.00 in0.0 mm 0.00 in0.0 mm
04:27 AM 30.7°F-0.7°C 31.0°F-0.6°C 100% 20.3 mph SE32.7 kmh SE 20.4 mph32.8 kmh 29.91 in1012.9 mb 0.00 in0.0 mm 0.00 in0.0 mm 0.00 in0.0 mm
04:26 AM 30.7°F-0.7°C 31.0°F-0.6°C 100% 20.0 mph SE32.2 kmh SE 20.1 mph32.3 kmh 29.91 in1012.9 mb 0.00 in0.0 mm 0.00 in0.0 mm 0.00 in0.0 mm
04:25 AM 30.9°F-0.6°C 31.0°F-0.6°C 100% 20.7 mph SE33.3 kmh SE 21.1 mph34.0 kmh 29.90 in1012.5 mb 0.00 in0.0 mm 0.00 in0.0 mm 0.00 in0.0 mm
04:24 AM 31.1°F-0.5°C 31.0°F-0.6°C 100% 20.7 mph SE33.3 kmh SE 21.1 mph34.0 kmh 29.90 in1012.5 mb 0.00 in0.0 mm 0.00 in0.0 mm 0.00 in0.0 mm
04:23 AM 31.1°F-0.5°C 31.0°F-0.6°C 100% 21.4 mph E34.4 kmh E 22.1 mph35.6 kmh 29.91 in1012.9 mb 0.00 in0.0 mm 0.00 in0.0 mm 0.00 in0.0 mm
04:22 AM 31.1°F-0.5°C 31.0°F-0.6°C 100% 21.1 mph ESE34.0 kmh ESE 21.8 mph35.1 kmh 29.91 in1012.9 mb 0.00 in0.0 mm 0.00 in0.0 mm 0.00 in0.0 mm
04:21 AM 31.1°F-0.5°C 31.0°F-0.6°C 100% 21.1 mph ENE34.0 kmh ENE 21.5 mph34.6 kmh 29.91 in1012.9 mb 0.00 in0.0 mm 0.00 in0.0 mm 0.00 in0.0 mm
04:20 AM 31.1°F-0.5°C 31.0°F-0.6°C 100% 20.8 mph SSE33.5 kmh SSE 21.2 mph34.1 kmh 29.91 in1012.9 mb 0.00 in0.0 mm 0.00 in0.0 mm 0.00 in0.0 mm
04:19 AM 30.9°F-0.6°C 31.0°F-0.6°C 100% 20.8 mph SSE33.5 kmh SSE 21.2 mph34.1 kmh 29.91 in1012.9 mb 0.00 in0.0 mm 0.00 in0.0 mm 0.00 in0.0 mm
04:18 AM 30.9°F-0.6°C 31.0°F-0.6°C 100% 20.2 mph 32.5 kmh 19.9 mph32.0 kmh 29.91 in1012.9 mb 0.00 in0.0 mm 0.00 in0.0 mm 0.00 in0.0 mm
04:17 AM 30.9°F-0.6°C 31.0°F-0.6°C 100% 19.9 mph 32.0 kmh 20.0 mph32.2 kmh 29.91 in1012.9 mb 0.00 in0.0 mm 0.00 in0.0 mm 0.00 in0.0 mm
04:16 AM 30.9°F-0.6°C 31.0°F-0.6°C 100% 20.4 mph 32.8 kmh 20.7 mph33.3 kmh 29.91 in1012.9 mb 0.00 in0.0 mm 0.00 in0.0 mm 0.00 in0.0 mm
04:15 AM 30.9°F-0.6°C 31.0°F-0.6°C 100% 20.2 mph ESE32.5 kmh ESE 20.3 mph32.7 kmh 29.91 in1012.9 mb 0.00 in0.0 mm 0.00 in0.0 mm 0.00 in0.0 mm
04:14 AM 31.1°F-0.5°C 31.0°F-0.6°C 100% 20.2 mph ESE32.5 kmh ESE 20.3 mph32.7 kmh 29.91 in1012.9 mb 0.00 in0.0 mm 0.00 in0.0 mm 0.00 in0.0 mm
04:13 AM 31.3°F-0.4°C 31.0°F-0.6°C 100% 19.9 mph 32.0 kmh 19.9 mph32.0 kmh 29.91 in1012.9 mb 0.00 in0.0 mm 0.00 in0.0 mm 0.00 in0.0 mm
04:12 AM 31.3°F-0.4°C 31.0°F-0.6°C 100% 20.3 mph N32.7 kmh N 20.5 mph33.0 kmh 29.91 in1012.9 mb 0.00 in0.0 mm 0.00 in0.0 mm 0.00 in0.0 mm
04:11 AM 31.3°F-0.4°C 31.0°F-0.6°C 100% 20.3 mph NNE32.7 kmh NNE 20.5 mph33.0 kmh 29.91 in1012.9 mb 0.00 in0.0 mm 0.00 in0.0 mm 0.00 in0.0 mm
04:10 AM 31.3°F-0.4°C 31.0°F-0.6°C 100% 20.8 mph N33.5 kmh N 21.3 mph34.3 kmh 29.91 in1012.9 mb 0.00 in0.0 mm 0.00 in0.0 mm 0.00 in0.0 mm
04:09 AM 31.5°F-0.3°C 31.0°F-0.6°C 100% 20.9 mph N33.6 kmh N 21.5 mph34.6 kmh 29.91 in1012.9 mb 0.00 in0.0 mm 0.00 in0.0 mm 0.00 in0.0 mm
04:08 AM 31.5°F-0.3°C 31.0°F-0.6°C 100% 20.5 mph N33.0 kmh N 20.8 mph33.5 kmh 29.91 in1012.9 mb 0.00 in0.0 mm 0.00 in0.0 mm 0.00 in0.0 mm
04:07 AM 31.3°F-0.4°C 31.0°F-0.6°C 100% 21.3 mph NNE34.3 kmh NNE 22.1 mph35.6 kmh 29.91 in1012.9 mb 0.00 in0.0 mm 0.00 in0.0 mm 0.00 in0.0 mm
04:06 AM 31.3°F-0.4°C 31.0°F-0.6°C 100% 21.3 mph NE34.3 kmh NE 22.1 mph35.6 kmh 29.91 in1012.9 mb 0.00 in0.0 mm 0.00 in0.0 mm 0.00 in0.0 mm
04:05 AM 31.5°F-0.3°C 31.0°F-0.6°C 100% 21.3 mph NE34.3 kmh NE 22.1 mph35.6 kmh 29.91 in1012.9 mb 0.00 in0.0 mm 0.00 in0.0 mm 0.00 in0.0 mm
04:04 AM 31.3°F-0.4°C 31.0°F-0.6°C 100% 19.9 mph NNE32.0 kmh NNE 19.9 mph32.0 kmh 29.91 in1012.9 mb 0.00 in0.0 mm 0.00 in0.0 mm 0.00 in0.0 mm
04:03 AM 31.3°F-0.4°C 31.0°F-0.6°C 100% 19.9 mph NE32.0 kmh NE 19.9 mph32.0 kmh 29.91 in1012.9 mb 0.00 in0.0 mm 0.00 in0.0 mm 0.00 in0.0 mm
04:02 AM 31.5°F-0.3°C 31.0°F-0.6°C 100% 19.9 mph N32.0 kmh N 19.9 mph32.0 kmh 29.91 in1012.9 mb 0.00 in0.0 mm 0.00 in0.0 mm 0.00 in0.0 mm
04:01 AM 31.6°F-0.2°C 32.0°F0.0°C 100% 19.9 mph NE32.0 kmh NE 19.9 mph32.0 kmh 29.91 in1012.9 mb 0.00 in0.0 mm 0.00 in0.0 mm 0.00 in0.0 mm
04:00 AM 31.6°F-0.2°C 32.0°F0.0°C 100% 19.9 mph NNE32.0 kmh NNE 19.9 mph32.0 kmh 29.91 in1012.9 mb 0.00 in0.0 mm 0.00 in0.0 mm 0.00 in0.0 mm
03:59 AM 31.6°F-0.2°C 32.0°F0.0°C 100% 19.9 mph NNE32.0 kmh NNE 19.9 mph32.0 kmh 29.91 in1012.9 mb 0.00 in0.0 mm 0.00 in0.0 mm 0.00 in0.0 mm
03:58 AM 31.8°F-0.1°C 32.0°F0.0°C 100% 20.3 mph ESE32.7 kmh ESE 20.6 mph33.2 kmh 29.91 in1012.9 mb 0.00 in0.0 mm 0.00 in0.0 mm 0.00 in0.0 mm
03:57 AM 31.8°F-0.1°C 32.0°F0.0°C 100% 20.3 mph SE32.7 kmh SE 20.7 mph33.3 kmh 29.91 in1012.9 mb 0.00 in0.0 mm 0.00 in0.0 mm 0.00 in0.0 mm
03:56 AM 31.8°F-0.1°C 32.0°F0.0°C 100% 20.6 mph N33.2 kmh N 21.1 mph34.0 kmh 29.91 in1012.9 mb 0.00 in0.0 mm 0.00 in0.0 mm 0.00 in0.0 mm
03:55 AM 31.8°F-0.1°C 32.0°F0.0°C 100% 21.2 mph NNE34.1 kmh NNE 21.9 mph35.2 kmh 29.90 in1012.5 mb 0.00 in0.0 mm 0.00 in0.0 mm 0.00 in0.0 mm
03:54 AM 32.0°F0.0°C 32.0°F0.0°C 100% 21.2 mph NNE34.1 kmh NNE 21.9 mph35.2 kmh 29.91 in1012.9 mb 0.00 in0.0 mm 0.00 in0.0 mm 0.00 in0.0 mm
03:53 AM 31.8°F-0.1°C 32.0°F0.0°C 100% 20.9 mph N33.6 kmh N 21.5 mph34.6 kmh 29.91 in1012.9 mb 0.00 in0.0 mm 0.00 in0.0 mm 0.00 in0.0 mm
03:52 AM 32.0°F0.0°C 32.0°F0.0°C 100% 21.0 mph 33.8 kmh 21.6 mph34.8 kmh 29.91 in1012.9 mb 0.00 in0.0 mm 0.00 in0.0 mm 0.00 in0.0 mm
03:51 AM 32.0°F0.0°C 32.0°F0.0°C 100% 21.0 mph NE33.8 kmh NE 21.7 mph34.9 kmh 29.91 in1012.9 mb 0.00 in0.0 mm 0.00 in0.0 mm 0.00 in0.0 mm
03:50 AM 31.8°F-0.1°C 32.0°F0.0°C 100% 20.3 mph SSW32.7 kmh SSW 20.6 mph33.2 kmh 29.91 in1012.9 mb 0.00 in0.0 mm 0.00 in0.0 mm 0.00 in0.0 mm
03:49 AM 31.8°F-0.1°C 32.0°F0.0°C 100% 20.3 mph SSW32.7 kmh SSW 20.6 mph33.2 kmh 29.91 in1012.9 mb 0.00 in0.0 mm 0.00 in0.0 mm 0.00 in0.0 mm
03:48 AM 32.0°F0.0°C 32.0°F0.0°C 100% 19.9 mph SW32.0 kmh SW 19.9 mph32.0 kmh 29.91 in1012.9 mb 0.00 in0.0 mm 0.00 in0.0 mm 0.00 in0.0 mm
03:47 AM 31.8°F-0.1°C 32.0°F0.0°C 100% 19.9 mph SW32.0 kmh SW 19.9 mph32.0 kmh 29.91 in1012.9 mb 0.00 in0.0 mm 0.00 in0.0 mm 0.00 in0.0 mm
03:46 AM 32.0°F0.0°C 32.0°F0.0°C 100% 19.9 mph NNW32.0 kmh NNW 19.9 mph32.0 kmh 29.91 in1012.9 mb 0.00 in0.0 mm 0.00 in0.0 mm 0.00 in0.0 mm
03:45 AM 32.0°F0.0°C 32.0°F0.0°C 100% 19.9 mph SW32.0 kmh SW 19.9 mph32.0 kmh 29.91 in1012.9 mb 0.00 in0.0 mm 0.00 in0.0 mm 0.00 in0.0 mm
03:44 AM 32.0°F0.0°C 32.0°F0.0°C 100% 19.9 mph NNW32.0 kmh NNW 19.9 mph32.0 kmh 29.91 in1012.9 mb 0.00 in0.0 mm 0.00 in0.0 mm 0.00 in0.0 mm
03:43 AM 31.8°F-0.1°C 32.0°F0.0°C 100% 19.9 mph NNW32.0 kmh NNW 19.9 mph32.0 kmh 29.91 in1012.9 mb 0.00 in0.0 mm 0.00 in0.0 mm 0.00 in0.0 mm
03:42 AM 31.8°F-0.1°C 32.0°F0.0°C 100% 19.9 mph NW32.0 kmh NW 19.9 mph32.0 kmh 29.91 in1012.9 mb 0.00 in0.0 mm 0.00 in0.0 mm 0.00 in0.0 mm
03:41 AM 31.8°F-0.1°C 32.0°F0.0°C 100% 19.9 mph SW32.0 kmh SW 19.9 mph32.0 kmh 29.91 in1012.9 mb 0.00 in0.0 mm 0.00 in0.0 mm 0.00 in0.0 mm
03:40 AM 32.0°F0.0°C 32.0°F0.0°C 100% 20.4 mph 32.8 kmh 20.7 mph33.3 kmh 29.91 in1012.9 mb 0.00 in0.0 mm 0.00 in0.0 mm 0.00 in0.0 mm
03:39 AM 32.0°F0.0°C 32.0°F0.0°C 100% 20.4 mph 32.8 kmh 20.7 mph33.3 kmh 29.91 in1012.9 mb 0.00 in0.0 mm 0.00 in0.0 mm 0.00 in0.0 mm
03:38 AM 32.2°F0.1°C 32.0°F0.0°C 100% 20.8 mph ENE33.5 kmh ENE 21.3 mph34.3 kmh 29.91 in1012.9 mb 0.00 in0.0 mm 0.00 in0.0 mm 0.00 in0.0 mm
03:37 AM 32.2°F0.1°C 32.0°F0.0°C 100% 21.2 mph ENE34.1 kmh ENE 21.9 mph35.2 kmh 29.91 in1012.9 mb 0.00 in0.0 mm 0.00 in0.0 mm 0.00 in0.0 mm
03:36 AM 32.4°F0.2°C 32.0°F0.0°C 100% 21.3 mph E34.3 kmh E 22.1 mph35.6 kmh 29.91 in1012.9 mb 0.00 in0.0 mm 0.00 in0.0 mm 0.00 in0.0 mm
03:35 AM 32.2°F0.1°C 32.0°F0.0°C 100% 20.9 mph WNW33.6 kmh WNW 21.5 mph34.6 kmh 29.91 in1012.9 mb 0.00 in0.0 mm 0.00 in0.0 mm 0.00 in0.0 mm
03:34 AM 32.0°F0.0°C 32.0°F0.0°C 100% 20.8 mph WNW33.5 kmh WNW 21.3 mph34.3 kmh 29.91 in1012.9 mb 0.00 in0.0 mm 0.00 in0.0 mm 0.00 in0.0 mm
03:33 AM 32.0°F0.0°C 32.0°F0.0°C 100% 20.3 mph WNW32.7 kmh WNW 20.5 mph33.0 kmh 29.91 in1012.9 mb 0.00 in0.0 mm 0.00 in0.0 mm 0.00 in0.0 mm
03:32 AM 32.2°F0.1°C 32.0°F0.0°C 100% 19.9 mph WNW32.0 kmh WNW 19.9 mph32.0 kmh 29.91 in1012.9 mb 0.00 in0.0 mm 0.00 in0.0 mm 0.00 in0.0 mm
03:31 AM 32.2°F0.1°C 32.0°F0.0°C 100% 19.9 mph WNW32.0 kmh WNW 19.9 mph32.0 kmh 29.91 in1012.9 mb 0.00 in0.0 mm 0.00 in0.0 mm 0.00 in0.0 mm
03:30 AM 32.4°F0.2°C 32.0°F0.0°C 100% 20.2 mph WNW32.5 kmh WNW 20.4 mph32.8 kmh 29.91 in1012.9 mb 0.00 in0.0 mm 0.00 in0.0 mm 0.00 in0.0 mm
03:29 AM 32.4°F0.2°C 32.0°F0.0°C 100% 20.2 mph WNW32.5 kmh WNW 20.4 mph32.8 kmh 29.91 in1012.9 mb 0.00 in0.0 mm 0.00 in0.0 mm 0.00 in0.0 mm
03:28 AM 32.4°F0.2°C 32.0°F0.0°C 100% 20.9 mph WSW33.6 kmh WSW 21.4 mph34.4 kmh 29.91 in1012.9 mb 0.00 in0.0 mm 0.00 in0.0 mm 0.00 in0.0 mm
03:27 AM 32.4°F0.2°C 32.0°F0.0°C 100% 20.9 mph 33.6 kmh 21.8 mph35.1 kmh 29.91 in1012.9 mb 0.00 in0.0 mm 0.00 in0.0 mm 0.00 in0.0 mm
03:26 AM 32.4°F0.2°C 32.0°F0.0°C 100% 21.9 mph NNE35.2 kmh NNE 22.9 mph36.9 kmh 29.91 in1012.9 mb 0.00 in0.0 mm 0.00 in0.0 mm 0.00 in0.0 mm
03:25 AM 32.2°F0.1°C 32.0°F0.0°C 100% 20.8 mph NE33.5 kmh NE 21.3 mph34.3 kmh 29.91 in1012.9 mb 0.00 in0.0 mm 0.00 in0.0 mm 0.00 in0.0 mm
03:24 AM 32.4°F0.2°C 32.0°F0.0°C 100% 20.8 mph NE33.5 kmh NE 21.3 mph34.3 kmh 29.91 in1012.9 mb 0.00 in0.0 mm 0.00 in0.0 mm 0.00 in0.0 mm
03:23 AM 32.4°F0.2°C 32.0°F0.0°C 100% 20.3 mph NW32.7 kmh NW 20.6 mph33.2 kmh 29.91 in1012.9 mb 0.00 in0.0 mm 0.00 in0.0 mm 0.00 in0.0 mm
03:22 AM 32.4°F0.2°C 32.0°F0.0°C 100% 20.3 mph WNW32.7 kmh WNW 20.8 mph33.5 kmh 29.91 in1012.9 mb 0.00 in0.0 mm 0.00 in0.0 mm 0.00 in0.0 mm
03:21 AM 32.7°F0.4°C 33.0°F0.6°C 100% 20.8 mph WNW33.5 kmh WNW 21.2 mph34.1 kmh 29.91 in1012.9 mb 0.00 in0.0 mm 0.00 in0.0 mm 0.00 in0.0 mm
03:20 AM 32.7°F0.4°C 33.0°F0.6°C 100% 21.1 mph WNW34.0 kmh WNW 21.8 mph35.1 kmh 29.91 in1012.9 mb 0.00 in0.0 mm 0.00 in0.0 mm 0.00 in0.0 mm
03:19 AM 32.9°F0.5°C 33.0°F0.6°C 100% 21.1 mph WNW34.0 kmh WNW 21.8 mph35.1 kmh 29.91 in1012.9 mb 0.00 in0.0 mm 0.00 in0.0 mm 0.00 in0.0 mm
03:18 AM 32.9°F0.5°C 33.0°F0.6°C 100% 21.7 mph S34.9 kmh S 22.7 mph36.5 kmh 29.91 in1012.9 mb 0.00 in0.0 mm 0.00 in0.0 mm 0.00 in0.0 mm
03:17 AM 32.9°F0.5°C 33.0°F0.6°C 100% 21.2 mph NE34.1 kmh NE 21.9 mph35.2 kmh 29.91 in1012.9 mb 0.00 in0.0 mm 0.00 in0.0 mm 0.00 in0.0 mm
03:16 AM 33.1°F0.6°C 33.0°F0.6°C 100% 21.0 mph WNW33.8 kmh WNW 21.6 mph34.8 kmh 29.91 in1012.9 mb 0.00 in0.0 mm 0.00 in0.0 mm 0.00 in0.0 mm
03:15 AM 33.1°F0.6°C 33.0°F0.6°C 100% 21.1 mph WNW34.0 kmh WNW 21.8 mph35.1 kmh 29.91 in1012.9 mb 0.00 in0.0 mm 0.00 in0.0 mm 0.00 in0.0 mm
03:14 AM 33.1°F0.6°C 33.0°F0.6°C 100% 21.1 mph SSW34.0 kmh SSW 21.8 mph35.1 kmh 29.91 in1012.9 mb 0.00 in0.0 mm 0.00 in0.0 mm 0.00 in0.0 mm
03:13 AM 33.1°F0.6°C 33.0°F0.6°C 100% 21.3 mph SSE34.3 kmh SSE 22.0 mph35.4 kmh 29.90 in1012.5 mb 0.00 in0.0 mm 0.00 in0.0 mm 0.00 in0.0 mm
03:12 AM 33.3°F0.7°C 33.0°F0.6°C 100% 21.3 mph S34.3 kmh S 20.7 mph33.3 kmh 29.90 in1012.5 mb 0.00 in0.0 mm 0.00 in0.0 mm 0.00 in0.0 mm
03:11 AM 33.3°F0.7°C 33.0°F0.6°C 100% 20.4 mph NE32.8 kmh NE 21.7 mph34.9 kmh 29.90 in1012.5 mb 0.00 in0.0 mm 0.00 in0.0 mm 0.00 in0.0 mm
03:10 AM 33.3°F0.7°C 33.0°F0.6°C 100% 20.9 mph 33.6 kmh 21.4 mph34.4 kmh 29.90 in1012.5 mb 0.00 in0.0 mm 0.00 in0.0 mm 0.00 in0.0 mm
03:09 AM 33.4°F0.8°C 33.0°F0.6°C 100% 20.1 mph ENE32.3 kmh ENE 20.2 mph32.5 kmh 29.90 in1012.5 mb 0.00 in0.0 mm 0.00 in0.0 mm 0.00 in0.0 mm
03:08 AM 33.4°F0.8°C 33.0°F0.6°C 100% 19.9 mph 32.0 kmh 19.9 mph32.0 kmh 29.90 in1012.5 mb 0.00 in0.0 mm 0.00 in0.0 mm 0.00 in0.0 mm
03:07 AM 33.4°F0.8°C 33.0°F0.6°C 100% 19.9 mph 32.0 kmh 19.9 mph32.0 kmh 29.90 in1012.5 mb 0.00 in0.0 mm 0.00 in0.0 mm 0.00 in0.0 mm
03:06 AM 33.4°F0.8°C 33.0°F0.6°C 100% 19.9 mph NE32.0 kmh NE 19.9 mph32.0 kmh 29.90 in1012.5 mb 0.00 in0.0 mm 0.00 in0.0 mm 0.00 in0.0 mm
03:05 AM 33.4°F0.8°C 33.0°F0.6°C 100% 19.9 mph NNE32.0 kmh NNE 19.9 mph32.0 kmh 29.90 in1012.5 mb 0.00 in0.0 mm 0.00 in0.0 mm 0.00 in0.0 mm
03:04 AM 33.4°F0.8°C 33.0°F0.6°C 100% 19.9 mph NNE32.0 kmh NNE 19.9 mph32.0 kmh 29.90 in1012.5 mb 0.00 in0.0 mm 0.00 in0.0 mm 0.00 in0.0 mm
03:03 AM 33.4°F0.8°C 33.0°F0.6°C 100% 19.9 mph NE32.0 kmh NE 19.9 mph32.0 kmh 29.90 in1012.5 mb 0.00 in0.0 mm 0.00 in0.0 mm 0.00 in0.0 mm
03:02 AM 33.6°F0.9°C 34.0°F1.1°C 100% 19.9 mph NE32.0 kmh NE 19.9 mph32.0 kmh 29.90 in1012.5 mb 0.00 in0.0 mm 0.00 in0.0 mm 0.00 in0.0 mm
03:01 AM 33.8°F1.0°C 34.0°F1.1°C 100% 19.9 mph SE32.0 kmh SE 19.9 mph32.0 kmh 29.90 in1012.5 mb 0.00 in0.0 mm 0.00 in0.0 mm 0.00 in0.0 mm
03:00 AM 34.0°F1.1°C 34.0°F1.1°C 100% 19.9 mph S32.0 kmh S 19.9 mph32.0 kmh 29.90 in1012.5 mb 0.00 in0.0 mm 0.00 in0.0 mm 0.00 in0.0 mm
02:59 AM 34.0°F1.1°C 34.0°F1.1°C 100% 19.9 mph S32.0 kmh S 19.9 mph32.0 kmh 29.90 in1012.5 mb 0.00 in0.0 mm 0.00 in0.0 mm 0.00 in0.0 mm
02:58 AM 34.0°F1.1°C 34.0°F1.1°C 100% 20.3 mph SW32.7 kmh SW 20.6 mph33.2 kmh 29.90 in1012.5 mb 0.00 in0.0 mm 0.00 in0.0 mm 0.00 in0.0 mm
02:57 AM 34.0°F1.1°C 34.0°F1.1°C 100% 20.7 mph NNE33.3 kmh NNE 21.1 mph34.0 kmh 29.90 in1012.5 mb 0.00 in0.0 mm 0.00 in0.0 mm 0.00 in0.0 mm
02:56 AM 34.2°F1.2°C 34.0°F1.1°C 100% 20.7 mph NNE33.3 kmh NNE 21.7 mph34.9 kmh 29.90 in1012.5 mb 0.00 in0.0 mm 0.00 in0.0 mm 0.00 in0.0 mm
02:55 AM 34.2°F1.2°C 34.0°F1.1°C 100% 21.1 mph N34.0 kmh N 21.7 mph34.9 kmh 29.90 in1012.5 mb 0.00 in0.0 mm 0.00 in0.0 mm 0.00 in0.0 mm
02:54 AM 34.2°F1.2°C 34.0°F1.1°C 100% 20.2 mph NNE32.5 kmh NNE 20.3 mph32.7 kmh 29.90 in1012.5 mb 0.00 in0.0 mm 0.00 in0.0 mm 0.00 in0.0 mm
02:53 AM 34.0°F1.1°C 34.0°F1.1°C 100% 20.8 mph NE33.5 kmh NE 21.2 mph34.1 kmh 29.90 in1012.5 mb 0.00 in0.0 mm 0.00 in0.0 mm 0.00 in0.0 mm
02:52 AM 34.0°F1.1°C 34.0°F1.1°C 100% 20.2 mph SW32.5 kmh SW 20.3 mph32.7 kmh 29.90 in1012.5 mb 0.00 in0.0 mm 0.00 in0.0 mm 0.00 in0.0 mm
02:51 AM 34.0°F1.1°C 34.0°F1.1°C 100% 20.2 mph 32.5 kmh 20.3 mph32.7 kmh 29.90 in1012.5 mb 0.00 in0.0 mm 0.00 in0.0 mm 0.00 in0.0 mm
02:50 AM 34.2°F1.2°C 34.0°F1.1°C 100% 20.8 mph NE33.5 kmh NE 21.4 mph34.4 kmh 29.90 in1012.5 mb 0.00 in0.0 mm 0.00 in0.0 mm 0.00 in0.0 mm
02:49 AM 34.0°F1.1°C 34.0°F1.1°C 100% 20.8 mph NNE33.5 kmh NNE 21.4 mph34.4 kmh 29.90 in1012.5 mb 0.00 in0.0 mm 0.00 in0.0 mm 0.00 in0.0 mm
02:48 AM 34.0°F1.1°C 34.0°F1.1°C 100% 20.9 mph NE33.6 kmh NE 21.4 mph34.4 kmh 29.90 in1012.5 mb 0.00 in0.0 mm 0.00 in0.0 mm 0.00 in0.0 mm
02:47 AM 34.0°F1.1°C 34.0°F1.1°C 100% 21.8 mph 35.1 kmh 22.9 mph36.9 kmh 29.90 in1012.5 mb 0.00 in0.0 mm 0.00 in0.0 mm 0.00 in0.0 mm
02:46 AM 34.0°F1.1°C 34.0°F1.1°C 100% 21.8 mph NNE35.1 kmh NNE 22.9 mph36.9 kmh 29.90 in1012.5 mb 0.00 in0.0 mm 0.00 in0.0 mm 0.00 in0.0 mm
02:45 AM 34.0°F1.1°C 34.0°F1.1°C 100% 21.3 mph 34.3 kmh 22.1 mph35.6 kmh 29.90 in1012.5 mb 0.00 in0.0 mm 0.00 in0.0 mm 0.00 in0.0 mm
02:44 AM 34.0°F1.1°C 34.0°F1.1°C 100% 21.3 mph 34.3 kmh 22.1 mph35.6 kmh 29.90 in1012.5 mb 0.00 in0.0 mm 0.00 in0.0 mm 0.00 in0.0 mm
02:43 AM 34.2°F1.2°C 34.0°F1.1°C 100% 21.4 mph NE34.4 kmh NE 22.4 mph36.0 kmh 29.90 in1012.5 mb 0.00 in0.0 mm 0.00 in0.0 mm 0.00 in0.0 mm
02:42 AM 34.2°F1.2°C 34.0°F1.1°C 100% 21.5 mph 34.6 kmh 21.4 mph34.4 kmh 29.90 in1012.5 mb 0.00 in0.0 mm 0.00 in0.0 mm 0.00 in0.0 mm
02:41 AM 34.2°F1.2°C 34.0°F1.1°C 100% 20.1 mph NNE32.3 kmh NNE 20.2 mph32.5 kmh 29.90 in1012.5 mb 0.00 in0.0 mm 0.00 in0.0 mm 0.00 in0.0 mm
02:40 AM 34.3°F1.3°C 34.0°F1.1°C 100% 20.1 mph NNE32.3 kmh NNE 19.9 mph32.0 kmh 29.90 in1012.5 mb 0.00 in0.0 mm 0.00 in0.0 mm 0.00 in0.0 mm
02:39 AM 34.3°F1.3°C 34.0°F1.1°C 100% 19.9 mph 32.0 kmh 19.9 mph32.0 kmh 29.90 in1012.5 mb 0.00 in0.0 mm 0.00 in0.0 mm 0.00 in0.0 mm
02:38 AM 34.3°F1.3°C 34.0°F1.1°C 100% 20.2 mph NE32.5 kmh NE 20.5 mph33.0 kmh 29.90 in1012.5 mb 0.00 in0.0 mm 0.00 in0.0 mm 0.00 in0.0 mm
02:37 AM 34.5°F1.4°C 35.0°F1.7°C 100% 19.9 mph NE32.0 kmh NE 19.9 mph32.0 kmh 29.90 in1012.5 mb 0.00 in0.0 mm 0.00 in0.0 mm 0.00 in0.0 mm
02:36 AM 34.3°F1.3°C 34.0°F1.1°C 100% 19.9 mph WSW32.0 kmh WSW 19.9 mph32.0 kmh 29.90 in1012.5 mb 0.00 in0.0 mm 0.00 in0.0 mm 0.00 in0.0 mm
02:35 AM 34.3°F1.3°C 34.0°F1.1°C 100% 20.6 mph WSW33.2 kmh WSW 21.1 mph34.0 kmh 29.90 in1012.5 mb 0.00 in0.0 mm 0.00 in0.0 mm 0.00 in0.0 mm
02:34 AM 34.3°F1.3°C 34.0°F1.1°C 100% 20.6 mph SE33.2 kmh SE 21.1 mph34.0 kmh 29.90 in1012.5 mb 0.00 in0.0 mm 0.00 in0.0 mm 0.00 in0.0 mm
02:33 AM 34.3°F1.3°C 34.0°F1.1°C 100% 20.3 mph S32.7 kmh S 20.6 mph33.2 kmh 29.90 in1012.5 mb 0.00 in0.0 mm 0.00 in0.0 mm 0.00 in0.0 mm
02:32 AM 34.2°F1.2°C 34.0°F1.1°C 100% 20.7 mph E33.3 kmh E 21.1 mph34.0 kmh 29.90 in1012.5 mb 0.00 in0.0 mm 0.00 in0.0 mm 0.00 in0.0 mm
02:31 AM 34.2°F1.2°C 34.0°F1.1°C 100% 21.8 mph S35.1 kmh S 23.0 mph37.0 kmh 29.90 in1012.5 mb 0.00 in0.0 mm 0.00 in0.0 mm 0.00 in0.0 mm
02:30 AM 34.0°F1.1°C 34.0°F1.1°C 100% 20.7 mph SSW33.3 kmh SSW 21.3 mph34.3 kmh 29.90 in1012.5 mb 0.00 in0.0 mm 0.00 in0.0 mm 0.00 in0.0 mm
02:29 AM 34.0°F1.1°C 34.0°F1.1°C 100% 20.7 mph ESE33.3 kmh ESE 21.3 mph34.3 kmh 29.90 in1012.5 mb 0.00 in0.0 mm 0.00 in0.0 mm 0.00 in0.0 mm
02:28 AM 34.0°F1.1°C 34.0°F1.1°C 100% 20.0 mph 32.2 kmh 20.1 mph32.3 kmh 29.90 in1012.5 mb 0.00 in0.0 mm 0.00 in0.0 mm 0.00 in0.0 mm
02:27 AM 34.0°F1.1°C 34.0°F1.1°C 100% 20.0 mph ENE32.2 kmh ENE 20.1 mph32.3 kmh 29.90 in1012.5 mb 0.00 in0.0 mm 0.00 in0.0 mm 0.00 in0.0 mm
02:26 AM 33.6°F0.9°C 34.0°F1.1°C 100% 22.1 mph SE35.6 kmh SE 23.6 mph38.0 kmh 29.90 in1012.5 mb 0.00 in0.0 mm 0.00 in0.0 mm 0.00 in0.0 mm
02:25 AM 33.6°F0.9°C 34.0°F1.1°C 100% 22.0 mph SE35.4 kmh SE 23.5 mph37.8 kmh 29.90 in1012.5 mb 0.00 in0.0 mm 0.00 in0.0 mm 0.00 in0.0 mm
02:24 AM 33.6°F0.9°C 34.0°F1.1°C 100% 21.9 mph W35.2 kmh W 23.2 mph37.3 kmh 29.90 in1012.5 mb 0.00 in0.0 mm 0.00 in0.0 mm 0.00 in0.0 mm
02:23 AM 33.4°F0.8°C 33.0°F0.6°C 100% 20.7 mph W33.3 kmh W 21.2 mph34.1 kmh 29.90 in1012.5 mb 0.00 in0.0 mm 0.00 in0.0 mm 0.00 in0.0 mm
02:22 AM 33.4°F0.8°C 33.0°F0.6°C 100% 21.4 mph SE34.4 kmh SE 22.3 mph35.9 kmh 29.89 in1012.2 mb 0.00 in0.0 mm 0.00 in0.0 mm 0.00 in0.0 mm
02:21 AM 33.4°F0.8°C 33.0°F0.6°C 100% 22.3 mph E35.9 kmh E 23.7 mph38.1 kmh 29.89 in1012.2 mb 0.00 in0.0 mm 0.00 in0.0 mm 0.00 in0.0 mm
02:20 AM 33.6°F0.9°C 34.0°F1.1°C 100% 22.0 mph SW35.4 kmh SW 23.2 mph37.3 kmh 29.89 in1012.2 mb 0.00 in0.0 mm 0.00 in0.0 mm 0.00 in0.0 mm
02:19 AM 33.4°F0.8°C 33.0°F0.6°C 100% 21.7 mph W34.9 kmh W 22.7 mph36.5 kmh 29.89 in1012.2 mb 0.00 in0.0 mm 0.00 in0.0 mm 0.00 in0.0 mm
02:18 AM 33.6°F0.9°C 34.0°F1.1°C 100% 22.0 mph W35.4 kmh W 23.3 mph37.5 kmh 29.89 in1012.2 mb 0.00 in0.0 mm 0.00 in0.0 mm 0.00 in0.0 mm
02:17 AM 33.4°F0.8°C 33.0°F0.6°C 100% 22.2 mph WNW35.7 kmh WNW 23.6 mph38.0 kmh 29.89 in1012.2 mb 0.00 in0.0 mm 0.00 in0.0 mm 0.00 in0.0 mm
02:16 AM 33.4°F0.8°C 33.0°F0.6°C 100% 21.7 mph W34.9 kmh W 22.7 mph36.5 kmh 29.89 in1012.2 mb 0.00 in0.0 mm 0.00 in0.0 mm 0.00 in0.0 mm
02:15 AM 33.6°F0.9°C 34.0°F1.1°C 100% 21.8 mph WSW35.1 kmh WSW 22.8 mph36.7 kmh 29.89 in1012.2 mb 0.00 in0.0 mm 0.00 in0.0 mm 0.00 in0.0 mm
02:14 AM 33.6°F0.9°C 34.0°F1.1°C 100% 21.8 mph WSW35.1 kmh WSW 22.8 mph36.7 kmh 29.89 in1012.2 mb 0.00 in0.0 mm 0.00 in0.0 mm 0.00 in0.0 mm
02:13 AM 33.6°F0.9°C 34.0°F1.1°C 100% 21.9 mph SW35.2 kmh SW 23.1 mph37.2 kmh 29.89 in1012.2 mb 0.00 in0.0 mm 0.00 in0.0 mm 0.00 in0.0 mm
02:12 AM 33.6°F0.9°C 34.0°F1.1°C 100% 21.0 mph SE33.8 kmh SE 21.6 mph34.8 kmh 29.89 in1012.2 mb 0.00 in0.0 mm 0.00 in0.0 mm 0.00 in0.0 mm
02:11 AM 33.6°F0.9°C 34.0°F1.1°C 100% 21.0 mph S33.8 kmh S 21.6 mph34.8 kmh 29.89 in1012.2 mb 0.00 in0.0 mm 0.00 in0.0 mm 0.00 in0.0 mm
02:10 AM 33.6°F0.9°C 34.0°F1.1°C 100% 22.2 mph WNW35.7 kmh WNW 23.6 mph38.0 kmh 29.89 in1012.2 mb 0.00 in0.0 mm 0.00 in0.0 mm 0.00 in0.0 mm
02:09 AM 33.8°F1.0°C 34.0°F1.1°C 100% 22.2 mph SW35.7 kmh SW 23.6 mph38.0 kmh 29.89 in1012.2 mb 0.00 in0.0 mm 0.00 in0.0 mm 0.00 in0.0 mm
02:08 AM 33.8°F1.0°C 34.0°F1.1°C 100% 21.9 mph SW35.2 kmh SW 23.0 mph37.0 kmh 29.89 in1012.2 mb 0.00 in0.0 mm 0.00 in0.0 mm 0.00 in0.0 mm
02:07 AM 33.8°F1.0°C 34.0°F1.1°C 100% 21.3 mph S34.3 kmh S 22.0 mph35.4 kmh 29.89 in1012.2 mb 0.00 in0.0 mm 0.00 in0.0 mm 0.00 in0.0 mm
02:06 AM 34.0°F1.1°C 34.0°F1.1°C 100% 21.3 mph S34.3 kmh S 21.8 mph35.1 kmh 29.89 in1012.2 mb 0.00 in0.0 mm 0.00 in0.0 mm 0.00 in0.0 mm
02:05 AM 34.0°F1.1°C 34.0°F1.1°C 100% 20.8 mph SSE33.5 kmh SSE 21.3 mph34.3 kmh 29.89 in1012.2 mb 0.00 in0.0 mm 0.00 in0.0 mm 0.00 in0.0 mm
02:04 AM 34.0°F1.1°C 34.0°F1.1°C 100% 20.8 mph SSE33.5 kmh SSE 21.3 mph34.3 kmh 29.89 in1012.2 mb 0.00 in0.0 mm 0.00 in0.0 mm 0.00 in0.0 mm
02:03 AM 34.0°F1.1°C 34.0°F1.1°C 100% 21.6 mph SSW34.8 kmh SSW 22.6 mph36.4 kmh 29.89 in1012.2 mb 0.00 in0.0 mm 0.00 in0.0 mm 0.00 in0.0 mm
02:02 AM 34.0°F1.1°C 34.0°F1.1°C 100% 21.7 mph ESE34.9 kmh ESE 22.7 mph36.5 kmh 29.89 in1012.2 mb 0.00 in0.0 mm 0.00 in0.0 mm 0.00 in0.0 mm
02:01 AM 34.2°F1.2°C 34.0°F1.1°C 100% 21.7 mph NE34.9 kmh NE 22.7 mph36.5 kmh 29.89 in1012.2 mb 0.00 in0.0 mm 0.00 in0.0 mm 0.00 in0.0 mm
02:00 AM 34.0°F1.1°C 34.0°F1.1°C 100% 21.9 mph SSW35.2 kmh SSW 23.1 mph37.2 kmh 29.89 in1012.2 mb 0.00 in0.0 mm 0.00 in0.0 mm 0.00 in0.0 mm
01:59 AM 34.0°F1.1°C 34.0°F1.1°C 100% 22.3 mph SE35.9 kmh SE 23.7 mph38.1 kmh 29.89 in1012.2 mb 0.00 in0.0 mm 0.00 in0.0 mm 0.00 in0.0 mm
01:58 AM 34.2°F1.2°C 34.0°F1.1°C 100% 22.3 mph E35.9 kmh E 22.8 mph36.7 kmh 29.89 in1012.2 mb 0.00 in0.0 mm 0.00 in0.0 mm 0.00 in0.0 mm
01:57 AM 34.2°F1.2°C 34.0°F1.1°C 100% 21.8 mph NNE35.1 kmh NNE 22.9 mph36.9 kmh 29.89 in1012.2 mb 0.00 in0.0 mm 0.00 in0.0 mm 0.00 in0.0 mm
01:56 AM 34.3°F1.3°C 34.0°F1.1°C 100% 20.9 mph W33.6 kmh W 21.5 mph34.6 kmh 29.89 in1012.2 mb 0.00 in0.0 mm 0.00 in0.0 mm 0.00 in0.0 mm
01:55 AM 34.5°F1.4°C 35.0°F1.7°C 100% 20.9 mph S33.6 kmh S 21.5 mph34.6 kmh 29.89 in1012.2 mb 0.00 in0.0 mm 0.00 in0.0 mm 0.00 in0.0 mm
01:54 AM 34.5°F1.4°C 35.0°F1.7°C 100% 20.9 mph S33.6 kmh S 21.5 mph34.6 kmh 29.89 in1012.2 mb 0.00 in0.0 mm 0.00 in0.0 mm 0.00 in0.0 mm
01:53 AM 34.5°F1.4°C 35.0°F1.7°C 100% 20.8 mph S33.5 kmh S 22.2 mph35.7 kmh 29.89 in1012.2 mb 0.00 in0.0 mm 0.00 in0.0 mm 0.00 in0.0 mm
01:52 AM 34.7°F1.5°C 35.0°F1.7°C 100% 21.0 mph NNW33.8 kmh NNW 21.6 mph34.8 kmh 29.89 in1012.2 mb 0.00 in0.0 mm 0.00 in0.0 mm 0.00 in0.0 mm
01:51 AM 34.7°F1.5°C 35.0°F1.7°C 100% 21.0 mph SW33.8 kmh SW 22.2 mph35.7 kmh 29.89 in1012.2 mb 0.00 in0.0 mm 0.00 in0.0 mm 0.00 in0.0 mm
01:50 AM 34.5°F1.4°C 35.0°F1.7°C 100% 21.3 mph SW34.3 kmh SW 22.2 mph35.7 kmh 29.89 in1012.2 mb 0.00 in0.0 mm 0.00 in0.0 mm 0.00 in0.0 mm
01:49 AM 34.7°F1.5°C 35.0°F1.7°C 100% 21.5 mph SE34.6 kmh SE 22.4 mph36.0 kmh 29.89 in1012.2 mb 0.00 in0.0 mm 0.00 in0.0 mm 0.00 in0.0 mm
01:48 AM 34.7°F1.5°C 35.0°F1.7°C 100% 21.6 mph E34.8 kmh E 22.4 mph36.0 kmh 29.89 in1012.2 mb 0.00 in0.0 mm 0.00 in0.0 mm 0.00 in0.0 mm
01:47 AM 34.9°F1.6°C 35.0°F1.7°C 100% 21.6 mph E34.8 kmh E 22.4 mph36.0 kmh 29.89 in1012.2 mb 0.00 in0.0 mm 0.00 in0.0 mm 0.00 in0.0 mm
01:46 AM 34.9°F1.6°C 35.0°F1.7°C 100% 20.6 mph NNE33.2 kmh NNE 20.9 mph33.6 kmh 29.89 in1012.2 mb 0.00 in0.0 mm 0.00 in0.0 mm 0.00 in0.0 mm
01:45 AM 35.1°F1.7°C 35.0°F1.7°C 100% 21.1 mph 34.0 kmh 21.7 mph34.9 kmh 29.89 in1012.2 mb 0.00 in0.0 mm 0.00 in0.0 mm 0.00 in0.0 mm
01:44 AM 35.1°F1.7°C 35.0°F1.7°C 100% 21.1 mph 34.0 kmh 21.7 mph34.9 kmh 29.89 in1012.2 mb 0.00 in0.0 mm 0.00 in0.0 mm 0.00 in0.0 mm
01:43 AM 35.1°F1.7°C 35.0°F1.7°C 100% 20.6 mph NE33.2 kmh NE 21.1 mph34.0 kmh 29.89 in1012.2 mb 0.00 in0.0 mm 0.00 in0.0 mm 0.00 in0.0 mm
01:42 AM 34.7°F1.5°C 35.0°F1.7°C 100% 20.4 mph N32.8 kmh N 20.7 mph33.3 kmh 29.89 in1012.2 mb 0.00 in0.0 mm 0.00 in0.0 mm 0.00 in0.0 mm
01:41 AM 34.7°F1.5°C 35.0°F1.7°C 100% 20.0 mph NE32.2 kmh NE 20.1 mph32.3 kmh 29.89 in1012.2 mb 0.00 in0.0 mm 0.00 in0.0 mm 0.00 in0.0 mm
01:40 AM 34.9°F1.6°C 35.0°F1.7°C 100% 19.9 mph ESE32.0 kmh ESE 19.9 mph32.0 kmh 29.89 in1012.2 mb 0.00 in0.0 mm 0.00 in0.0 mm 0.00 in0.0 mm
01:39 AM 34.9°F1.6°C 35.0°F1.7°C 100% 19.9 mph ESE32.0 kmh ESE 19.9 mph32.0 kmh 29.88 in1011.9 mb 0.00 in0.0 mm 0.00 in0.0 mm 0.00 in0.0 mm
01:38 AM 34.9°F1.6°C 35.0°F1.7°C 100% 19.9 mph NE32.0 kmh NE 19.9 mph32.0 kmh 29.88 in1011.9 mb 0.00 in0.0 mm 0.00 in0.0 mm 0.00 in0.0 mm
01:37 AM 35.1°F1.7°C 35.0°F1.7°C 100% 20.1 mph E32.3 kmh E 20.2 mph32.5 kmh 29.88 in1011.9 mb 0.00 in0.0 mm 0.00 in0.0 mm 0.00 in0.0 mm
01:36 AM 35.1°F1.7°C 35.0°F1.7°C 100% 20.1 mph N32.3 kmh N 19.9 mph32.0 kmh 29.88 in1011.9 mb 0.00 in0.0 mm 0.00 in0.0 mm 0.00 in0.0 mm
01:35 AM 35.2°F1.8°C 35.0°F1.7°C 100% 19.9 mph 32.0 kmh 19.9 mph32.0 kmh 29.88 in1011.9 mb 0.00 in0.0 mm 0.00 in0.0 mm 0.00 in0.0 mm
01:34 AM 35.1°F1.7°C 35.0°F1.7°C 100% 20.3 mph 32.7 kmh 20.6 mph33.2 kmh 29.88 in1011.9 mb 0.00 in0.0 mm 0.00 in0.0 mm 0.00 in0.0 mm
01:33 AM 34.9°F1.6°C 35.0°F1.7°C 100% 20.3 mph 32.7 kmh 20.6 mph33.2 kmh 29.88 in1011.9 mb 0.00 in0.0 mm 0.00 in0.0 mm 0.00 in0.0 mm
01:32 AM 34.9°F1.6°C 35.0°F1.7°C 100% 20.6 mph ENE33.2 kmh ENE 21.1 mph34.0 kmh 29.88 in1011.9 mb 0.00 in0.0 mm 0.00 in0.0 mm 0.00 in0.0 mm
01:31 AM 35.1°F1.7°C 35.0°F1.7°C 100% 20.8 mph ESE33.5 kmh ESE 21.3 mph34.3 kmh 29.88 in1011.9 mb 0.00 in0.0 mm 0.00 in0.0 mm 0.00 in0.0 mm
01:30 AM 35.1°F1.7°C 35.0°F1.7°C 100% 20.6 mph ENE33.2 kmh ENE 20.9 mph33.6 kmh 29.88 in1011.9 mb 0.00 in0.0 mm 0.00 in0.0 mm 0.00 in0.0 mm
01:29 AM 35.1°F1.7°C 35.0°F1.7°C 100% 20.6 mph E33.2 kmh E 20.9 mph33.6 kmh 29.88 in1011.9 mb 0.00 in0.0 mm 0.00 in0.0 mm 0.00 in0.0 mm
01:28 AM 35.2°F1.8°C 35.0°F1.7°C 100% 19.9 mph E32.0 kmh E 19.9 mph32.0 kmh 29.88 in1011.9 mb 0.00 in0.0 mm 0.00 in0.0 mm 0.00 in0.0 mm
01:27 AM 35.2°F1.8°C 35.0°F1.7°C 100% 20.1 mph E32.3 kmh E 20.1 mph32.3 kmh 29.88 in1011.9 mb 0.00 in0.0 mm 0.00 in0.0 mm 0.00 in0.0 mm
01:26 AM 35.2°F1.8°C 35.0°F1.7°C 100% 19.9 mph ENE32.0 kmh ENE 19.9 mph32.0 kmh 29.87 in1011.5 mb 0.00 in0.0 mm 0.00 in0.0 mm 0.00 in0.0 mm
01:25 AM 35.2°F1.8°C 35.0°F1.7°C 100% 20.2 mph 32.5 kmh 20.4 mph32.8 kmh 29.87 in1011.5 mb 0.00 in0.0 mm 0.00 in0.0 mm 0.00 in0.0 mm
01:24 AM 35.4°F1.9°C 35.0°F1.7°C 100% 20.2 mph NE32.5 kmh NE 20.4 mph32.8 kmh 29.87 in1011.5 mb 0.00 in0.0 mm 0.00 in0.0 mm 0.00 in0.0 mm
01:23 AM 35.6°F2.0°C 36.0°F2.2°C 100% 19.9 mph 32.0 kmh 19.9 mph32.0 kmh 29.87 in1011.5 mb 0.00 in0.0 mm 0.00 in0.0 mm 0.00 in0.0 mm
01:22 AM 35.6°F2.0°C 36.0°F2.2°C 100% 19.9 mph 32.0 kmh 19.9 mph32.0 kmh 29.87 in1011.5 mb 0.00 in0.0 mm 0.00 in0.0 mm 0.00 in0.0 mm
01:21 AM 35.8°F2.1°C 36.0°F2.2°C 100% 19.9 mph 32.0 kmh 19.9 mph32.0 kmh 29.87 in1011.5 mb 0.00 in0.0 mm 0.00 in0.0 mm 0.00 in0.0 mm
01:20 AM 35.8°F2.1°C 36.0°F2.2°C 100% 19.9 mph 32.0 kmh 19.9 mph32.0 kmh 29.87 in1011.5 mb 0.00 in0.0 mm 0.00 in0.0 mm 0.00 in0.0 mm
01:19 AM 35.8°F2.1°C 36.0°F2.2°C 100% 19.9 mph 32.0 kmh 19.9 mph32.0 kmh 29.87 in1011.5 mb 0.00 in0.0 mm 0.00 in0.0 mm 0.00 in0.0 mm
01:18 AM 35.8°F2.1°C 36.0°F2.2°C 100% 20.9 mph NE33.6 kmh NE 21.4 mph34.4 kmh 29.87 in1011.5 mb 0.00 in0.0 mm 0.00 in0.0 mm 0.00 in0.0 mm
01:17 AM 36.0°F2.2°C 36.0°F2.2°C 100% 20.8 mph ESE33.5 kmh ESE 21.3 mph34.3 kmh 29.87 in1011.5 mb 0.00 in0.0 mm 0.00 in0.0 mm 0.00 in0.0 mm
01:16 AM 36.0°F2.2°C 36.0°F2.2°C 100% 21.3 mph SE34.3 kmh SE 22.1 mph35.6 kmh 29.87 in1011.5 mb 0.00 in0.0 mm 0.00 in0.0 mm 0.00 in0.0 mm
01:15 AM 36.0°F2.2°C 36.0°F2.2°C 100% 22.0 mph S35.4 kmh S 23.3 mph37.5 kmh 29.87 in1011.5 mb 0.00 in0.0 mm 0.00 in0.0 mm 0.00 in0.0 mm
01:14 AM 36.0°F2.2°C 36.0°F2.2°C 100% 22.0 mph E35.4 kmh E 23.3 mph37.5 kmh 29.87 in1011.5 mb 0.00 in0.0 mm 0.00 in0.0 mm 0.00 in0.0 mm
01:13 AM 35.8°F2.1°C 36.0°F2.2°C 100% 21.0 mph S33.8 kmh S 21.6 mph34.8 kmh 29.87 in1011.5 mb 0.00 in0.0 mm 0.00 in0.0 mm 0.00 in0.0 mm
01:12 AM 35.6°F2.0°C 36.0°F2.2°C 100% 21.3 mph SW34.3 kmh SW 22.1 mph35.6 kmh 29.87 in1011.5 mb 0.00 in0.0 mm 0.00 in0.0 mm 0.00 in0.0 mm
01:11 AM 35.6°F2.0°C 36.0°F2.2°C 100% 21.3 mph SW34.3 kmh SW 21.4 mph34.4 kmh 29.87 in1011.5 mb 0.00 in0.0 mm 0.00 in0.0 mm 0.00 in0.0 mm
01:10 AM 35.8°F2.1°C 36.0°F2.2°C 100% 20.8 mph E33.5 kmh E 21.2 mph34.1 kmh 29.87 in1011.5 mb 0.00 in0.0 mm 0.00 in0.0 mm 0.00 in0.0 mm
01:09 AM 35.8°F2.1°C 36.0°F2.2°C 100% 22.4 mph S36.0 kmh S 24.1 mph38.8 kmh 29.87 in1011.5 mb 0.00 in0.0 mm 0.00 in0.0 mm 0.00 in0.0 mm
01:08 AM 35.8°F2.1°C 36.0°F2.2°C 100% 21.0 mph SW33.8 kmh SW 21.8 mph35.1 kmh 29.87 in1011.5 mb 0.00 in0.0 mm 0.00 in0.0 mm 0.00 in0.0 mm
01:07 AM 35.8°F2.1°C 36.0°F2.2°C 100% 20.1 mph WSW32.3 kmh WSW 20.3 mph32.7 kmh 29.87 in1011.5 mb 0.00 in0.0 mm 0.00 in0.0 mm 0.00 in0.0 mm
01:06 AM 35.8°F2.1°C 36.0°F2.2°C 100% 20.2 mph SSE32.5 kmh SSE 20.3 mph32.7 kmh 29.87 in1011.5 mb 0.00 in0.0 mm 0.00 in0.0 mm 0.00 in0.0 mm
01:05 AM 36.0°F2.2°C 36.0°F2.2°C 100% 19.9 mph N32.0 kmh N 19.9 mph32.0 kmh 29.87 in1011.5 mb 0.00 in0.0 mm 0.00 in0.0 mm 0.00 in0.0 mm
01:04 AM 36.0°F2.2°C 36.0°F2.2°C 100% 19.9 mph N32.0 kmh N 19.9 mph32.0 kmh 29.87 in1011.5 mb 0.00 in0.0 mm 0.00 in0.0 mm 0.00 in0.0 mm
01:03 AM 36.0°F2.2°C 36.0°F2.2°C 100% 20.9 mph 33.6 kmh 21.4 mph34.4 kmh 29.87 in1011.5 mb 0.00 in0.0 mm 0.00 in0.0 mm 0.00 in0.0 mm
01:02 AM 36.1°F2.3°C 36.0°F2.2°C 100% 20.2 mph 32.5 kmh 20.3 mph32.7 kmh 29.87 in1011.5 mb 0.00 in0.0 mm 0.00 in0.0 mm 0.00 in0.0 mm
01:01 AM 36.1°F2.3°C 36.0°F2.2°C 100% 20.4 mph N32.8 kmh N 20.6 mph33.2 kmh 29.87 in1011.5 mb 0.00 in0.0 mm 0.00 in0.0 mm 0.00 in0.0 mm
01:00 AM 36.3°F2.4°C 36.0°F2.2°C 100% 19.9 mph 32.0 kmh 19.9 mph32.0 kmh 29.87 in1011.5 mb 0.00 in0.0 mm 0.00 in0.0 mm 0.00 in0.0 mm
12:59 AM 36.5°F2.5°C 37.0°F2.8°C 100% 19.9 mph 32.0 kmh 19.9 mph32.0 kmh 29.87 in1011.5 mb 0.00 in0.0 mm 0.00 in0.0 mm 0.00 in0.0 mm
12:58 AM 36.5°F2.5°C 37.0°F2.8°C 100% 20.1 mph 32.3 kmh 20.1 mph32.3 kmh 29.87 in1011.5 mb 0.00 in0.0 mm 0.00 in0.0 mm 0.00 in0.0 mm
12:57 AM 36.5°F2.5°C 37.0°F2.8°C 100% 20.1 mph NE32.3 kmh NE 21.0 mph33.8 kmh 29.87 in1011.5 mb 0.00 in0.0 mm 0.00 in0.0 mm 0.00 in0.0 mm
12:56 AM 36.7°F2.6°C 37.0°F2.8°C 100% 20.5 mph ENE33.0 kmh ENE 20.8 mph33.5 kmh 29.87 in1011.5 mb 0.00 in0.0 mm 0.00 in0.0 mm 0.00 in0.0 mm
12:55 AM 36.7°F2.6°C 37.0°F2.8°C 100% 21.1 mph NE34.0 kmh NE 21.7 mph34.9 kmh 29.87 in1011.5 mb 0.00 in0.0 mm 0.00 in0.0 mm 0.00 in0.0 mm
12:54 AM 36.9°F2.7°C 37.0°F2.8°C 100% 21.1 mph NE34.0 kmh NE 21.7 mph34.9 kmh 29.86 in1011.2 mb 0.00 in0.0 mm 0.00 in0.0 mm 0.00 in0.0 mm
12:53 AM 36.9°F2.7°C 37.0°F2.8°C 100% 21.7 mph N34.9 kmh N 22.8 mph36.7 kmh 29.86 in1011.2 mb 0.00 in0.0 mm 0.00 in0.0 mm 0.00 in0.0 mm
12:52 AM 36.7°F2.6°C 37.0°F2.8°C 100% 21.0 mph SSW33.8 kmh SSW 21.6 mph34.8 kmh 29.86 in1011.2 mb 0.00 in0.0 mm 0.00 in0.0 mm 0.00 in0.0 mm
12:51 AM 36.7°F2.6°C 37.0°F2.8°C 100% 20.1 mph ENE32.3 kmh ENE 20.1 mph32.3 kmh 29.86 in1011.2 mb 0.00 in0.0 mm 0.00 in0.0 mm 0.00 in0.0 mm
12:50 AM 36.7°F2.6°C 37.0°F2.8°C 100% 20.2 mph SW32.5 kmh SW 20.4 mph32.8 kmh 29.86 in1011.2 mb 0.00 in0.0 mm 0.00 in0.0 mm 0.00 in0.0 mm
12:49 AM 36.9°F2.7°C 37.0°F2.8°C 100% 21.8 mph SSE35.1 kmh SSE 22.9 mph36.9 kmh 29.86 in1011.2 mb 0.00 in0.0 mm 0.00 in0.0 mm 0.00 in0.0 mm
12:48 AM 36.9°F2.7°C 37.0°F2.8°C 100% 21.2 mph S34.1 kmh S 22.0 mph35.4 kmh 29.86 in1011.2 mb 0.00 in0.0 mm 0.00 in0.0 mm 0.00 in0.0 mm
12:47 AM 36.9°F2.7°C 37.0°F2.8°C 100% 21.2 mph NNE34.1 kmh NNE 22.0 mph35.4 kmh 29.86 in1011.2 mb 0.00 in0.0 mm 0.00 in0.0 mm 0.00 in0.0 mm
12:46 AM 37.0°F2.8°C 37.0°F2.8°C 100% 21.7 mph NNE34.9 kmh NNE 22.8 mph36.7 kmh 29.86 in1011.2 mb 0.00 in0.0 mm 0.00 in0.0 mm 0.00 in0.0 mm
12:45 AM 36.9°F2.7°C 37.0°F2.8°C 100% 20.8 mph N33.5 kmh N 21.3 mph34.3 kmh 29.86 in1011.2 mb 0.00 in0.0 mm 0.00 in0.0 mm 0.00 in0.0 mm
12:44 AM 36.9°F2.7°C 37.0°F2.8°C 100% 20.8 mph N33.5 kmh N 21.3 mph34.3 kmh 29.86 in1011.2 mb 0.00 in0.0 mm 0.00 in0.0 mm 0.00 in0.0 mm
12:43 AM 36.9°F2.7°C 37.0°F2.8°C 100% 21.6 mph NE34.8 kmh NE 22.7 mph36.5 kmh 29.86 in1011.2 mb 0.00 in0.0 mm 0.00 in0.0 mm 0.00 in0.0 mm
12:42 AM 36.7°F2.6°C 37.0°F2.8°C 100% 22.3 mph W35.9 kmh W 23.7 mph38.1 kmh 29.86 in1011.2 mb 0.00 in0.0 mm 0.00 in0.0 mm 0.00 in0.0 mm
12:41 AM 36.5°F2.5°C 37.0°F2.8°C 100% 22.4 mph SW36.0 kmh SW 23.9 mph38.5 kmh 29.86 in1011.2 mb 0.00 in0.0 mm 0.00 in0.0 mm 0.00 in0.0 mm
12:40 AM 36.7°F2.6°C 37.0°F2.8°C 100% 20.7 mph ESE33.3 kmh ESE 21.2 mph34.1 kmh 29.86 in1011.2 mb 0.00 in0.0 mm 0.00 in0.0 mm 0.00 in0.0 mm
12:39 AM 36.7°F2.6°C 37.0°F2.8°C 100% 20.4 mph N32.8 kmh N 20.7 mph33.3 kmh 29.86 in1011.2 mb 0.00 in0.0 mm 0.00 in0.0 mm 0.00 in0.0 mm
12:38 AM 36.7°F2.6°C 37.0°F2.8°C 100% 21.4 mph 34.4 kmh 22.2 mph35.7 kmh 29.86 in1011.2 mb 0.00 in0.0 mm 0.00 in0.0 mm 0.00 in0.0 mm
12:37 AM 36.9°F2.7°C 37.0°F2.8°C 100% 21.4 mph NE34.4 kmh NE 22.3 mph35.9 kmh 29.86 in1011.2 mb 0.00 in0.0 mm 0.00 in0.0 mm 0.00 in0.0 mm
12:36 AM 37.0°F2.8°C 37.0°F2.8°C 100% 21.4 mph E34.4 kmh E 22.0 mph35.4 kmh 29.86 in1011.2 mb 0.00 in0.0 mm 0.00 in0.0 mm 0.00 in0.0 mm
12:35 AM 37.0°F2.8°C 37.0°F2.8°C 100% 21.1 mph SW34.0 kmh SW 20.6 mph33.2 kmh 29.86 in1011.2 mb 0.00 in0.0 mm 0.00 in0.0 mm 0.00 in0.0 mm
12:34 AM 37.2°F2.9°C 37.0°F2.8°C 100% 21.8 mph ESE35.1 kmh ESE 23.0 mph37.0 kmh 29.86 in1011.2 mb 0.00 in0.0 mm 0.00 in0.0 mm 0.00 in0.0 mm
12:33 AM 37.2°F2.9°C 37.0°F2.8°C 100% 21.0 mph SW33.8 kmh SW 21.7 mph34.9 kmh 29.86 in1011.2 mb 0.00 in0.0 mm 0.00 in0.0 mm 0.00 in0.0 mm
12:32 AM 37.4°F3.0°C 37.0°F2.8°C 100% 21.0 mph S33.8 kmh S 19.9 mph32.0 kmh 29.85 in1010.8 mb 0.00 in0.0 mm 0.00 in0.0 mm 0.00 in0.0 mm
12:31 AM 37.4°F3.0°C 37.0°F2.8°C 100% 20.1 mph 32.3 kmh 20.2 mph32.5 kmh 29.85 in1010.8 mb 0.00 in0.0 mm 0.00 in0.0 mm 0.00 in0.0 mm
12:30 AM 37.6°F3.1°C 38.0°F3.3°C 100% 20.7 mph S33.3 kmh S 21.1 mph34.0 kmh 29.85 in1010.8 mb 0.00 in0.0 mm 0.00 in0.0 mm 0.00 in0.0 mm
12:29 AM 37.6°F3.1°C 38.0°F3.3°C 100% 20.7 mph S33.3 kmh S 21.1 mph34.0 kmh 29.85 in1010.8 mb 0.00 in0.0 mm 0.00 in0.0 mm 0.00 in0.0 mm
12:28 AM 37.6°F3.1°C 38.0°F3.3°C 100% 21.6 mph SW34.8 kmh SW 22.6 mph36.4 kmh 29.85 in1010.8 mb 0.00 in0.0 mm 0.00 in0.0 mm 0.00 in0.0 mm
12:27 AM 37.6°F3.1°C 38.0°F3.3°C 100% 20.4 mph SW32.8 kmh SW 20.7 mph33.3 kmh 29.85 in1010.8 mb 0.00 in0.0 mm 0.00 in0.0 mm 0.00 in0.0 mm
12:26 AM 37.8°F3.2°C 38.0°F3.3°C 100% 19.9 mph WSW32.0 kmh WSW 19.9 mph32.0 kmh 29.85 in1010.8 mb 0.00 in0.0 mm 0.00 in0.0 mm 0.00 in0.0 mm
12:25 AM 37.8°F3.2°C 38.0°F3.3°C 100% 20.6 mph SW33.2 kmh SW 21.0 mph33.8 kmh 29.85 in1010.8 mb 0.00 in0.0 mm 0.00 in0.0 mm 0.00 in0.0 mm
12:24 AM 37.8°F3.2°C 38.0°F3.3°C 100% 20.6 mph SW33.2 kmh SW 21.0 mph33.8 kmh 29.85 in1010.8 mb 0.00 in0.0 mm 0.00 in0.0 mm 0.00 in0.0 mm
12:23 AM 37.9°F3.3°C 38.0°F3.3°C 100% 20.9 mph SW33.6 kmh SW 21.5 mph34.6 kmh 29.85 in1010.8 mb 0.00 in0.0 mm 0.00 in0.0 mm 0.00 in0.0 mm
12:22 AM 37.9°F3.3°C 38.0°F3.3°C 100% 20.9 mph SW33.6 kmh SW 22.7 mph36.5 kmh 29.85 in1010.8 mb 0.00 in0.0 mm 0.00 in0.0 mm 0.00 in0.0 mm
12:21 AM 37.9°F3.3°C 38.0°F3.3°C 100% 21.2 mph SW34.1 kmh SW 21.9 mph35.2 kmh 29.85 in1010.8 mb 0.00 in0.0 mm 0.00 in0.0 mm 0.00 in0.0 mm
12:20 AM 38.1°F3.4°C 38.0°F3.3°C 100% 21.4 mph SW34.4 kmh SW 22.3 mph35.9 kmh 29.85 in1010.8 mb 0.00 in0.0 mm 0.00 in0.0 mm 0.00 in0.0 mm
12:19 AM 38.1°F3.4°C 38.0°F3.3°C 100% 21.4 mph SW34.4 kmh SW 22.3 mph35.9 kmh 29.85 in1010.8 mb 0.00 in0.0 mm 0.00 in0.0 mm 0.00 in0.0 mm
12:18 AM 37.9°F3.3°C 38.0°F3.3°C 100% 22.8 mph WSW36.7 kmh WSW 24.6 mph39.6 kmh 29.85 in1010.8 mb 0.00 in0.0 mm 0.00 in0.0 mm 0.00 in0.0 mm
12:17 AM 37.9°F3.3°C 38.0°F3.3°C 100% 22.8 mph WSW36.7 kmh WSW 24.6 mph39.6 kmh 29.85 in1010.8 mb 0.00 in0.0 mm 0.00 in0.0 mm 0.00 in0.0 mm
12:16 AM 38.1°F3.4°C 38.0°F3.3°C 100% 20.8 mph SW33.5 kmh SW 21.3 mph34.3 kmh 29.85 in1010.8 mb 0.00 in0.0 mm 0.00 in0.0 mm 0.00 in0.0 mm
12:15 AM 38.3°F3.5°C 38.0°F3.3°C 100% 20.8 mph SW33.5 kmh SW 21.2 mph34.1 kmh 29.85 in1010.8 mb 0.00 in0.0 mm 0.00 in0.0 mm 0.00 in0.0 mm
12:14 AM 38.3°F3.5°C 38.0°F3.3°C 100% 20.8 mph S33.5 kmh S 21.3 mph34.3 kmh 29.85 in1010.8 mb 0.00 in0.0 mm 0.00 in0.0 mm 0.00 in0.0 mm
12:13 AM 38.3°F3.5°C 38.0°F3.3°C 100% 20.6 mph S33.2 kmh S 21.0 mph33.8 kmh 29.85 in1010.8 mb 0.00 in0.0 mm 0.00 in0.0 mm 0.00 in0.0 mm
12:12 AM 38.5°F3.6°C 38.0°F3.3°C 100% 21.2 mph SSE34.1 kmh SSE 21.9 mph35.2 kmh 29.84 in1010.5 mb 0.00 in0.0 mm 0.00 in0.0 mm 0.00 in0.0 mm
12:11 AM 38.5°F3.6°C 38.0°F3.3°C 100% 20.7 mph SE33.3 kmh SE 21.2 mph34.1 kmh 29.84 in1010.5 mb 0.00 in0.0 mm 0.00 in0.0 mm 0.00 in0.0 mm
12:10 AM 38.5°F3.6°C 38.0°F3.3°C 100% 21.0 mph SW33.8 kmh SW 21.6 mph34.8 kmh 29.84 in1010.5 mb 0.00 in0.0 mm 0.00 in0.0 mm 0.00 in0.0 mm
12:09 AM 38.5°F3.6°C 38.0°F3.3°C 100% 22.4 mph NW36.0 kmh NW 23.8 mph38.3 kmh 29.85 in1010.8 mb 0.00 in0.0 mm 0.00 in0.0 mm 0.00 in0.0 mm
12:08 AM 38.5°F3.6°C 38.0°F3.3°C 100% 20.8 mph SE33.5 kmh SE 21.3 mph34.3 kmh 29.85 in1010.8 mb 0.00 in0.0 mm 0.00 in0.0 mm 0.00 in0.0 mm
12:07 AM 38.7°F3.7°C 39.0°F3.9°C 100% 20.3 mph SE32.7 kmh SE 20.5 mph33.0 kmh 29.85 in1010.8 mb 0.00 in0.0 mm 0.00 in0.0 mm 0.00 in0.0 mm
12:06 AM 38.7°F3.7°C 39.0°F3.9°C 100% 21.7 mph SE34.9 kmh SE 22.8 mph36.7 kmh 29.84 in1010.5 mb 0.00 in0.0 mm 0.00 in0.0 mm 0.00 in0.0 mm
12:05 AM 38.8°F3.8°C 39.0°F3.9°C 100% 21.9 mph S35.2 kmh S 23.1 mph37.2 kmh 29.84 in1010.5 mb 0.00 in0.0 mm 0.00 in0.0 mm 0.00 in0.0 mm
12:04 AM 38.8°F3.8°C 39.0°F3.9°C 100% 22.2 mph S35.7 kmh S 23.7 mph38.1 kmh 29.84 in1010.5 mb 0.00 in0.0 mm 0.00 in0.0 mm 0.00 in0.0 mm
12:03 AM 39.0°F3.9°C 39.0°F3.9°C 100% 21.8 mph S35.1 kmh S 23.1 mph37.2 kmh 29.84 in1010.5 mb 0.00 in0.0 mm 0.00 in0.0 mm 0.00 in0.0 mm
12:02 AM 39.0°F3.9°C 39.0°F3.9°C 100% 21.1 mph WSW34.0 kmh WSW 21.8 mph35.1 kmh 29.84 in1010.5 mb 0.00 in0.0 mm 0.00 in0.0 mm 0.00 in0.0 mm
12:01 AM 39.2°F4.0°C 39.0°F3.9°C 100% 21.2 mph SSW34.1 kmh SSW 22.0 mph35.4 kmh 29.84 in1010.5 mb 0.00 in0.0 mm 0.00 in0.0 mm 0.00 in0.0 mm
12:00 AM 39.2°F4.0°C 39.0°F3.9°C 100% 21.1 mph SSE34.0 kmh SSE 21.7 mph34.9 kmh 29.84 in1010.5 mb 0.00 in0.0 mm 0.00 in0.0 mm 0.00 in0.0 mm